<?xml version="1.0" encoding="UTF-8" standalone="no" ?>
<gpx xmlns="http://www.topografix.com/GPX/1/1" xmlns:xsi="http://www.w3.org/2001/XMLSchema-instance" xsi:schemaLocation="http://www.topografix.com/GPX/1/1 http://www.topografix.com/GPX/1/1/gpx.xsd" version="1.1" creator="VisuGPX - https://www.visugpx.com">
  <metadata>
    <name>boucle à Rignac</name>
    <desc><![CDATA[petite promenade sympa]]></desc>
  </metadata>
  <wpt lat="44.80489" lon="1.69512">
    <ele>284.4</ele>
    <name><![CDATA[02/11/2014 14:15 (départ)]]></name>
  </wpt>
  <wpt lat="44.80517" lon="1.69488">
    <ele>285.7</ele>
    <name><![CDATA[02/11/2014 14:15 (fin)]]></name>
    <desc><![CDATA[Créé par Mes parcours sur Android  Nom : 02/11/2014 14:15 Type d'activité : automobile Description : - Distance totale : 6,73 km (4,2 mi) Durée totale : 1:57:29 Durée du déplacement : 1:47:30 Vitesse moyenne : 3,44 km/h (2,1 mi/h) Vitesse moyenne de déplacement : 3,76 km/h (2,3 mi/h) Vitesse max. : 4,63 km/h (2,9 mi/h) Vitesse moyenne : 17:28 min/km (28:06 min/mi) Allure moyenne : 15:59 min/km (25:43 min/mi) Vitesse maximale : 12:57 min/km (20:50 min/mi) Élévation max. : 425 m (1394 pi) Élévation min. : 326 m (1068 pi) Dénivelé : 854 m (2801 pi) Inclinaison max. : 16 % Inclinaison min. : -109 % Date d'enregistrement : 02/11/2014 14:15]]></desc>
  </wpt>
  <trk>
    <name><![CDATA[02/11/2014 14:15]]></name>
    <trkseg>
      <trkpt lat="44.80489" lon="1.69512">
        <ele>284.4</ele>
        <time>2014-11-02T13:15:48.151Z</time>
      </trkpt>
      <trkpt lat="44.80479" lon="1.69512">
        <ele>284</ele>
        <time>2014-11-02T13:16:00.293Z</time>
      </trkpt>
      <trkpt lat="44.80479" lon="1.69513">
        <ele>284</ele>
        <time>2014-11-02T13:16:10.646Z</time>
      </trkpt>
      <trkpt lat="44.80479" lon="1.69513">
        <ele>284</ele>
        <time>2014-11-02T13:16:13.116Z</time>
      </trkpt>
      <trkpt lat="44.80484" lon="1.69519">
        <ele>284.2</ele>
        <time>2014-11-02T13:16:25.481Z</time>
      </trkpt>
      <trkpt lat="44.8049" lon="1.69515">
        <ele>284.4</ele>
        <time>2014-11-02T13:16:26.484Z</time>
      </trkpt>
      <trkpt lat="44.8049" lon="1.69515">
        <ele>284.4</ele>
        <time>2014-11-02T13:17:13.608Z</time>
      </trkpt>
      <trkpt lat="44.80499" lon="1.69524">
        <ele>284.7</ele>
        <time>2014-11-02T13:17:14.578Z</time>
      </trkpt>
      <trkpt lat="44.805" lon="1.69532">
        <ele>284.6</ele>
        <time>2014-11-02T13:17:26.586Z</time>
      </trkpt>
      <trkpt lat="44.80498" lon="1.69539">
        <ele>284.5</ele>
        <time>2014-11-02T13:17:27.579Z</time>
      </trkpt>
      <trkpt lat="44.80494" lon="1.69546">
        <ele>284.3</ele>
        <time>2014-11-02T13:17:31.551Z</time>
      </trkpt>
      <trkpt lat="44.80492" lon="1.69549">
        <ele>284.3</ele>
        <time>2014-11-02T13:17:32.553Z</time>
      </trkpt>
      <trkpt lat="44.80488" lon="1.69546">
        <ele>284.2</ele>
        <time>2014-11-02T13:18:38.571Z</time>
      </trkpt>
      <trkpt lat="44.80475" lon="1.69554">
        <ele>283.9</ele>
        <time>2014-11-02T13:18:39.681Z</time>
      </trkpt>
      <trkpt lat="44.80468" lon="1.69562">
        <ele>283.9</ele>
        <time>2014-11-02T13:18:49.561Z</time>
      </trkpt>
      <trkpt lat="44.80468" lon="1.69562">
        <ele>283.9</ele>
        <time>2014-11-02T13:18:50.563Z</time>
      </trkpt>
      <trkpt lat="44.80462" lon="1.69571">
        <ele>283.9</ele>
        <time>2014-11-02T13:19:08.64Z</time>
      </trkpt>
      <trkpt lat="44.80462" lon="1.69572">
        <ele>283.9</ele>
        <time>2014-11-02T13:19:09.511Z</time>
      </trkpt>
      <trkpt lat="44.80467" lon="1.69582">
        <ele>284</ele>
        <time>2014-11-02T13:19:16.568Z</time>
      </trkpt>
      <trkpt lat="44.80468" lon="1.69583">
        <ele>284</ele>
        <time>2014-11-02T13:19:17.561Z</time>
      </trkpt>
      <trkpt lat="44.80469" lon="1.69594">
        <ele>284.2</ele>
        <time>2014-11-02T13:19:25.563Z</time>
      </trkpt>
      <trkpt lat="44.80469" lon="1.69596">
        <ele>284.3</ele>
        <time>2014-11-02T13:19:26.567Z</time>
      </trkpt>
      <trkpt lat="44.80469" lon="1.69608">
        <ele>284.5</ele>
        <time>2014-11-02T13:19:32.508Z</time>
      </trkpt>
      <trkpt lat="44.8047" lon="1.69609">
        <ele>284.5</ele>
        <time>2014-11-02T13:19:33.563Z</time>
      </trkpt>
      <trkpt lat="44.80472" lon="1.6962">
        <ele>284.7</ele>
        <time>2014-11-02T13:19:41.559Z</time>
      </trkpt>
      <trkpt lat="44.80473" lon="1.69621">
        <ele>284.8</ele>
        <time>2014-11-02T13:19:42.563Z</time>
      </trkpt>
      <trkpt lat="44.80474" lon="1.69633">
        <ele>285</ele>
        <time>2014-11-02T13:19:50.565Z</time>
      </trkpt>
      <trkpt lat="44.80474" lon="1.69635">
        <ele>285</ele>
        <time>2014-11-02T13:19:51.695Z</time>
      </trkpt>
      <trkpt lat="44.80474" lon="1.69646">
        <ele>285.2</ele>
        <time>2014-11-02T13:19:57.561Z</time>
      </trkpt>
      <trkpt lat="44.80474" lon="1.69648">
        <ele>285.3</ele>
        <time>2014-11-02T13:19:58.562Z</time>
      </trkpt>
      <trkpt lat="44.8048" lon="1.69656">
        <ele>285.3</ele>
        <time>2014-11-02T13:20:12.497Z</time>
      </trkpt>
      <trkpt lat="44.80481" lon="1.6966">
        <ele>285.3</ele>
        <time>2014-11-02T13:20:13.498Z</time>
      </trkpt>
      <trkpt lat="44.80482" lon="1.69671">
        <ele>285.5</ele>
        <time>2014-11-02T13:20:19.559Z</time>
      </trkpt>
      <trkpt lat="44.80483" lon="1.69673">
        <ele>285.5</ele>
        <time>2014-11-02T13:20:20.563Z</time>
      </trkpt>
      <trkpt lat="44.80485" lon="1.69685">
        <ele>285.5</ele>
        <time>2014-11-02T13:20:30.563Z</time>
      </trkpt>
      <trkpt lat="44.80485" lon="1.69687">
        <ele>285.6</ele>
        <time>2014-11-02T13:20:31.562Z</time>
      </trkpt>
      <trkpt lat="44.80487" lon="1.69698">
        <ele>285.6</ele>
        <time>2014-11-02T13:20:37.65Z</time>
      </trkpt>
      <trkpt lat="44.80487" lon="1.69699">
        <ele>285.6</ele>
        <time>2014-11-02T13:20:38.563Z</time>
      </trkpt>
      <trkpt lat="44.80492" lon="1.6971">
        <ele>285.7</ele>
        <time>2014-11-02T13:20:45.65Z</time>
      </trkpt>
      <trkpt lat="44.80493" lon="1.69711">
        <ele>285.7</ele>
        <time>2014-11-02T13:20:46.576Z</time>
      </trkpt>
      <trkpt lat="44.80497" lon="1.69722">
        <ele>285.7</ele>
        <time>2014-11-02T13:20:53.676Z</time>
      </trkpt>
      <trkpt lat="44.80498" lon="1.69723">
        <ele>285.7</ele>
        <time>2014-11-02T13:20:54.563Z</time>
      </trkpt>
      <trkpt lat="44.80501" lon="1.69734">
        <ele>285.8</ele>
        <time>2014-11-02T13:21:01.709Z</time>
      </trkpt>
      <trkpt lat="44.80501" lon="1.69736">
        <ele>285.9</ele>
        <time>2014-11-02T13:21:02.564Z</time>
      </trkpt>
      <trkpt lat="44.80504" lon="1.69747">
        <ele>286</ele>
        <time>2014-11-02T13:21:08.627Z</time>
      </trkpt>
      <trkpt lat="44.80505" lon="1.69748">
        <ele>286</ele>
        <time>2014-11-02T13:21:09.468Z</time>
      </trkpt>
      <trkpt lat="44.80509" lon="1.69758">
        <ele>286.1</ele>
        <time>2014-11-02T13:21:16.467Z</time>
      </trkpt>
      <trkpt lat="44.80509" lon="1.6976">
        <ele>286.1</ele>
        <time>2014-11-02T13:21:17.465Z</time>
      </trkpt>
      <trkpt lat="44.80512" lon="1.69771">
        <ele>286.2</ele>
        <time>2014-11-02T13:21:27.462Z</time>
      </trkpt>
      <trkpt lat="44.80512" lon="1.69772">
        <ele>286.2</ele>
        <time>2014-11-02T13:21:28.462Z</time>
      </trkpt>
      <trkpt lat="44.80513" lon="1.69785">
        <ele>286.2</ele>
        <time>2014-11-02T13:21:36.467Z</time>
      </trkpt>
      <trkpt lat="44.80513" lon="1.69786">
        <ele>286.2</ele>
        <time>2014-11-02T13:21:37.467Z</time>
      </trkpt>
      <trkpt lat="44.80513" lon="1.69798">
        <ele>286.2</ele>
        <time>2014-11-02T13:21:46.475Z</time>
      </trkpt>
      <trkpt lat="44.80512" lon="1.69799">
        <ele>286.2</ele>
        <time>2014-11-02T13:21:47.462Z</time>
      </trkpt>
      <trkpt lat="44.80511" lon="1.69808">
        <ele>286.2</ele>
        <time>2014-11-02T13:22:01.474Z</time>
      </trkpt>
      <trkpt lat="44.80511" lon="1.69812">
        <ele>286.2</ele>
        <time>2014-11-02T13:22:02.464Z</time>
      </trkpt>
      <trkpt lat="44.80511" lon="1.69823">
        <ele>286.3</ele>
        <time>2014-11-02T13:22:08.463Z</time>
      </trkpt>
      <trkpt lat="44.80511" lon="1.69825">
        <ele>286.2</ele>
        <time>2014-11-02T13:22:09.469Z</time>
      </trkpt>
      <trkpt lat="44.80508" lon="1.69836">
        <ele>286.3</ele>
        <time>2014-11-02T13:22:16.468Z</time>
      </trkpt>
      <trkpt lat="44.80507" lon="1.69838">
        <ele>286.3</ele>
        <time>2014-11-02T13:22:17.47Z</time>
      </trkpt>
      <trkpt lat="44.80508" lon="1.69851">
        <ele>286.8</ele>
        <time>2014-11-02T13:22:25.472Z</time>
      </trkpt>
      <trkpt lat="44.80508" lon="1.69852">
        <ele>286.8</ele>
        <time>2014-11-02T13:22:26.464Z</time>
      </trkpt>
      <trkpt lat="44.80509" lon="1.69864">
        <ele>287.3</ele>
        <time>2014-11-02T13:22:34.487Z</time>
      </trkpt>
      <trkpt lat="44.80509" lon="1.69866">
        <ele>287.4</ele>
        <time>2014-11-02T13:22:35.495Z</time>
      </trkpt>
      <trkpt lat="44.8051" lon="1.69876">
        <ele>287.8</ele>
        <time>2014-11-02T13:22:42.463Z</time>
      </trkpt>
      <trkpt lat="44.8051" lon="1.69878">
        <ele>287.8</ele>
        <time>2014-11-02T13:22:43.616Z</time>
      </trkpt>
      <trkpt lat="44.80513" lon="1.6989">
        <ele>288.3</ele>
        <time>2014-11-02T13:22:51.567Z</time>
      </trkpt>
      <trkpt lat="44.80513" lon="1.69892">
        <ele>288.4</ele>
        <time>2014-11-02T13:22:52.557Z</time>
      </trkpt>
      <trkpt lat="44.80516" lon="1.69901">
        <ele>288.8</ele>
        <time>2014-11-02T13:22:58.834Z</time>
      </trkpt>
      <trkpt lat="44.80517" lon="1.69904">
        <ele>288.9</ele>
        <time>2014-11-02T13:22:59.564Z</time>
      </trkpt>
      <trkpt lat="44.80519" lon="1.69914">
        <ele>289.4</ele>
        <time>2014-11-02T13:23:04.562Z</time>
      </trkpt>
      <trkpt lat="44.8052" lon="1.69915">
        <ele>289.4</ele>
        <time>2014-11-02T13:23:05.643Z</time>
      </trkpt>
      <trkpt lat="44.80525" lon="1.69926">
        <ele>290.1</ele>
        <time>2014-11-02T13:23:15.565Z</time>
      </trkpt>
      <trkpt lat="44.80525" lon="1.69927">
        <ele>290.2</ele>
        <time>2014-11-02T13:23:16.574Z</time>
      </trkpt>
      <trkpt lat="44.80531" lon="1.69935">
        <ele>290.8</ele>
        <time>2014-11-02T13:23:23.565Z</time>
      </trkpt>
      <trkpt lat="44.80532" lon="1.69936">
        <ele>290.9</ele>
        <time>2014-11-02T13:23:24.564Z</time>
      </trkpt>
      <trkpt lat="44.80538" lon="1.69943">
        <ele>291.4</ele>
        <time>2014-11-02T13:23:33.68Z</time>
      </trkpt>
      <trkpt lat="44.80539" lon="1.69944">
        <ele>291.6</ele>
        <time>2014-11-02T13:23:34.565Z</time>
      </trkpt>
      <trkpt lat="44.80543" lon="1.69955">
        <ele>292.3</ele>
        <time>2014-11-02T13:23:44.569Z</time>
      </trkpt>
      <trkpt lat="44.80543" lon="1.69956">
        <ele>292.4</ele>
        <time>2014-11-02T13:23:45.57Z</time>
      </trkpt>
      <trkpt lat="44.80541" lon="1.69967">
        <ele>293</ele>
        <time>2014-11-02T13:23:55.565Z</time>
      </trkpt>
      <trkpt lat="44.80541" lon="1.69968">
        <ele>293.1</ele>
        <time>2014-11-02T13:23:56.574Z</time>
      </trkpt>
      <trkpt lat="44.80537" lon="1.69979">
        <ele>293.5</ele>
        <time>2014-11-02T13:24:03.564Z</time>
      </trkpt>
      <trkpt lat="44.80536" lon="1.69981">
        <ele>293.7</ele>
        <time>2014-11-02T13:24:04.557Z</time>
      </trkpt>
      <trkpt lat="44.80531" lon="1.69992">
        <ele>294</ele>
        <time>2014-11-02T13:24:16.518Z</time>
      </trkpt>
      <trkpt lat="44.80531" lon="1.69992">
        <ele>294</ele>
        <time>2014-11-02T13:24:17.51Z</time>
      </trkpt>
      <trkpt lat="44.80532" lon="1.70004">
        <ele>294.7</ele>
        <time>2014-11-02T13:24:33.957Z</time>
      </trkpt>
      <trkpt lat="44.80532" lon="1.70006">
        <ele>294.8</ele>
        <time>2014-11-02T13:24:34.957Z</time>
      </trkpt>
      <trkpt lat="44.8053" lon="1.70017">
        <ele>295.1</ele>
        <time>2014-11-02T13:24:45.053Z</time>
      </trkpt>
      <trkpt lat="44.8053" lon="1.70019">
        <ele>295.2</ele>
        <time>2014-11-02T13:24:46.049Z</time>
      </trkpt>
      <trkpt lat="44.80534" lon="1.70031">
        <ele>295.9</ele>
        <time>2014-11-02T13:24:52.733Z</time>
      </trkpt>
      <trkpt lat="44.80535" lon="1.70033">
        <ele>296.1</ele>
        <time>2014-11-02T13:24:52.948Z</time>
      </trkpt>
      <trkpt lat="44.80536" lon="1.70046">
        <ele>296.8</ele>
        <time>2014-11-02T13:25:00.005Z</time>
      </trkpt>
      <trkpt lat="44.80537" lon="1.70047">
        <ele>296.9</ele>
        <time>2014-11-02T13:25:00.954Z</time>
      </trkpt>
      <trkpt lat="44.80539" lon="1.70059">
        <ele>297.6</ele>
        <time>2014-11-02T13:25:14.947Z</time>
      </trkpt>
      <trkpt lat="44.80539" lon="1.70061">
        <ele>297.7</ele>
        <time>2014-11-02T13:25:15.962Z</time>
      </trkpt>
      <trkpt lat="44.80541" lon="1.70071">
        <ele>298.4</ele>
        <time>2014-11-02T13:25:20.991Z</time>
      </trkpt>
      <trkpt lat="44.80541" lon="1.70073">
        <ele>298.5</ele>
        <time>2014-11-02T13:25:22.026Z</time>
      </trkpt>
      <trkpt lat="44.80542" lon="1.70085">
        <ele>299.1</ele>
        <time>2014-11-02T13:25:29.008Z</time>
      </trkpt>
      <trkpt lat="44.80543" lon="1.70086">
        <ele>299.2</ele>
        <time>2014-11-02T13:25:29.953Z</time>
      </trkpt>
      <trkpt lat="44.80545" lon="1.70098">
        <ele>300</ele>
        <time>2014-11-02T13:25:40.081Z</time>
      </trkpt>
      <trkpt lat="44.80545" lon="1.70099">
        <ele>300.1</ele>
        <time>2014-11-02T13:25:41.027Z</time>
      </trkpt>
      <trkpt lat="44.80547" lon="1.70111">
        <ele>300.8</ele>
        <time>2014-11-02T13:25:47.759Z</time>
      </trkpt>
      <trkpt lat="44.80547" lon="1.70113">
        <ele>301</ele>
        <time>2014-11-02T13:25:48.081Z</time>
      </trkpt>
      <trkpt lat="44.8055" lon="1.70125">
        <ele>301.8</ele>
        <time>2014-11-02T13:25:55.051Z</time>
      </trkpt>
      <trkpt lat="44.8055" lon="1.70126">
        <ele>301.9</ele>
        <time>2014-11-02T13:25:56.05Z</time>
      </trkpt>
      <trkpt lat="44.80552" lon="1.70137">
        <ele>302.7</ele>
        <time>2014-11-02T13:26:02.037Z</time>
      </trkpt>
      <trkpt lat="44.80552" lon="1.70138">
        <ele>302.7</ele>
        <time>2014-11-02T13:26:02.952Z</time>
      </trkpt>
      <trkpt lat="44.80552" lon="1.70151">
        <ele>303.4</ele>
        <time>2014-11-02T13:26:12.063Z</time>
      </trkpt>
      <trkpt lat="44.80552" lon="1.70151">
        <ele>303.5</ele>
        <time>2014-11-02T13:26:13.09Z</time>
      </trkpt>
      <trkpt lat="44.80555" lon="1.70162">
        <ele>304.3</ele>
        <time>2014-11-02T13:26:19.042Z</time>
      </trkpt>
      <trkpt lat="44.80555" lon="1.70165">
        <ele>304.5</ele>
        <time>2014-11-02T13:26:20.048Z</time>
      </trkpt>
      <trkpt lat="44.80557" lon="1.70175">
        <ele>305.5</ele>
        <time>2014-11-02T13:26:28.048Z</time>
      </trkpt>
      <trkpt lat="44.80558" lon="1.70177">
        <ele>305.6</ele>
        <time>2014-11-02T13:26:29.053Z</time>
      </trkpt>
      <trkpt lat="44.80559" lon="1.70189">
        <ele>306.5</ele>
        <time>2014-11-02T13:26:36.765Z</time>
      </trkpt>
      <trkpt lat="44.80559" lon="1.7019">
        <ele>306.6</ele>
        <time>2014-11-02T13:26:37.066Z</time>
      </trkpt>
      <trkpt lat="44.80561" lon="1.70202">
        <ele>307.6</ele>
        <time>2014-11-02T13:27:02.045Z</time>
      </trkpt>
      <trkpt lat="44.80561" lon="1.70204">
        <ele>307.7</ele>
        <time>2014-11-02T13:27:03.135Z</time>
      </trkpt>
      <trkpt lat="44.80561" lon="1.70217">
        <ele>308.6</ele>
        <time>2014-11-02T13:27:10.052Z</time>
      </trkpt>
      <trkpt lat="44.80561" lon="1.70218">
        <ele>308.7</ele>
        <time>2014-11-02T13:27:11.06Z</time>
      </trkpt>
      <trkpt lat="44.8056" lon="1.7023">
        <ele>309.4</ele>
        <time>2014-11-02T13:27:20.052Z</time>
      </trkpt>
      <trkpt lat="44.8056" lon="1.70232">
        <ele>309.5</ele>
        <time>2014-11-02T13:27:21.054Z</time>
      </trkpt>
      <trkpt lat="44.80562" lon="1.70244">
        <ele>310.5</ele>
        <time>2014-11-02T13:27:30.173Z</time>
      </trkpt>
      <trkpt lat="44.80563" lon="1.70245">
        <ele>310.7</ele>
        <time>2014-11-02T13:27:31.052Z</time>
      </trkpt>
      <trkpt lat="44.80563" lon="1.70256">
        <ele>311.1</ele>
        <time>2014-11-02T13:27:38.116Z</time>
      </trkpt>
      <trkpt lat="44.80563" lon="1.70258">
        <ele>311.1</ele>
        <time>2014-11-02T13:27:39.055Z</time>
      </trkpt>
      <trkpt lat="44.80563" lon="1.7027">
        <ele>311.1</ele>
        <time>2014-11-02T13:27:47.801Z</time>
      </trkpt>
      <trkpt lat="44.80563" lon="1.70271">
        <ele>311.1</ele>
        <time>2014-11-02T13:27:48.072Z</time>
      </trkpt>
      <trkpt lat="44.80563" lon="1.70283">
        <ele>311.3</ele>
        <time>2014-11-02T13:27:55.054Z</time>
      </trkpt>
      <trkpt lat="44.80564" lon="1.70284">
        <ele>311.4</ele>
        <time>2014-11-02T13:27:56.05Z</time>
      </trkpt>
      <trkpt lat="44.80566" lon="1.70296">
        <ele>311.7</ele>
        <time>2014-11-02T13:28:01.186Z</time>
      </trkpt>
      <trkpt lat="44.80566" lon="1.70297">
        <ele>311.7</ele>
        <time>2014-11-02T13:28:02.051Z</time>
      </trkpt>
      <trkpt lat="44.80567" lon="1.70309">
        <ele>312</ele>
        <time>2014-11-02T13:28:11.051Z</time>
      </trkpt>
      <trkpt lat="44.80567" lon="1.70311">
        <ele>311.9</ele>
        <time>2014-11-02T13:28:12.051Z</time>
      </trkpt>
      <trkpt lat="44.80568" lon="1.70323">
        <ele>312.1</ele>
        <time>2014-11-02T13:28:19.052Z</time>
      </trkpt>
      <trkpt lat="44.80568" lon="1.70324">
        <ele>312.1</ele>
        <time>2014-11-02T13:28:20.052Z</time>
      </trkpt>
      <trkpt lat="44.8057" lon="1.70336">
        <ele>312.3</ele>
        <time>2014-11-02T13:28:27.051Z</time>
      </trkpt>
      <trkpt lat="44.8057" lon="1.70337">
        <ele>312.4</ele>
        <time>2014-11-02T13:28:28.048Z</time>
      </trkpt>
      <trkpt lat="44.8057" lon="1.70349">
        <ele>312.5</ele>
        <time>2014-11-02T13:28:40.029Z</time>
      </trkpt>
      <trkpt lat="44.8057" lon="1.7035">
        <ele>312.5</ele>
        <time>2014-11-02T13:28:41.137Z</time>
      </trkpt>
      <trkpt lat="44.80572" lon="1.70361">
        <ele>312.7</ele>
        <time>2014-11-02T13:28:46.031Z</time>
      </trkpt>
      <trkpt lat="44.80573" lon="1.70363">
        <ele>312.8</ele>
        <time>2014-11-02T13:28:47.032Z</time>
      </trkpt>
      <trkpt lat="44.80575" lon="1.70375">
        <ele>313.1</ele>
        <time>2014-11-02T13:28:56.116Z</time>
      </trkpt>
      <trkpt lat="44.80576" lon="1.70376">
        <ele>313.2</ele>
        <time>2014-11-02T13:28:57.052Z</time>
      </trkpt>
      <trkpt lat="44.80578" lon="1.70387">
        <ele>313.4</ele>
        <time>2014-11-02T13:29:04.19Z</time>
      </trkpt>
      <trkpt lat="44.80578" lon="1.70388">
        <ele>313.4</ele>
        <time>2014-11-02T13:29:05.065Z</time>
      </trkpt>
      <trkpt lat="44.8058" lon="1.70401">
        <ele>313.7</ele>
        <time>2014-11-02T13:29:14.032Z</time>
      </trkpt>
      <trkpt lat="44.8058" lon="1.70402">
        <ele>313.7</ele>
        <time>2014-11-02T13:29:15.034Z</time>
      </trkpt>
      <trkpt lat="44.80581" lon="1.70414">
        <ele>313.8</ele>
        <time>2014-11-02T13:29:23.389Z</time>
      </trkpt>
      <trkpt lat="44.80582" lon="1.70415">
        <ele>313.8</ele>
        <time>2014-11-02T13:29:23.981Z</time>
      </trkpt>
      <trkpt lat="44.80584" lon="1.70427">
        <ele>314.5</ele>
        <time>2014-11-02T13:29:32.049Z</time>
      </trkpt>
      <trkpt lat="44.80584" lon="1.70429">
        <ele>314.6</ele>
        <time>2014-11-02T13:29:33.048Z</time>
      </trkpt>
      <trkpt lat="44.80585" lon="1.70441">
        <ele>315.2</ele>
        <time>2014-11-02T13:29:40.053Z</time>
      </trkpt>
      <trkpt lat="44.80585" lon="1.70442">
        <ele>315.3</ele>
        <time>2014-11-02T13:29:41.05Z</time>
      </trkpt>
      <trkpt lat="44.80585" lon="1.70454">
        <ele>315.8</ele>
        <time>2014-11-02T13:29:48.03Z</time>
      </trkpt>
      <trkpt lat="44.80584" lon="1.70457">
        <ele>315.9</ele>
        <time>2014-11-02T13:29:49.027Z</time>
      </trkpt>
      <trkpt lat="44.80581" lon="1.70467">
        <ele>316.2</ele>
        <time>2014-11-02T13:29:55.051Z</time>
      </trkpt>
      <trkpt lat="44.80581" lon="1.70469">
        <ele>316.2</ele>
        <time>2014-11-02T13:29:56.054Z</time>
      </trkpt>
      <trkpt lat="44.8058" lon="1.70481">
        <ele>316.7</ele>
        <time>2014-11-02T13:30:03.577Z</time>
      </trkpt>
      <trkpt lat="44.80579" lon="1.70483">
        <ele>316.7</ele>
        <time>2014-11-02T13:30:04.051Z</time>
      </trkpt>
      <trkpt lat="44.80579" lon="1.70495">
        <ele>317.3</ele>
        <time>2014-11-02T13:30:11.053Z</time>
      </trkpt>
      <trkpt lat="44.80579" lon="1.70497">
        <ele>317.4</ele>
        <time>2014-11-02T13:30:12.051Z</time>
      </trkpt>
      <trkpt lat="44.80578" lon="1.70509">
        <ele>317.7</ele>
        <time>2014-11-02T13:30:18.682Z</time>
      </trkpt>
      <trkpt lat="44.80578" lon="1.7051">
        <ele>317.8</ele>
        <time>2014-11-02T13:30:19.053Z</time>
      </trkpt>
      <trkpt lat="44.80577" lon="1.70522">
        <ele>318.1</ele>
        <time>2014-11-02T13:30:26.053Z</time>
      </trkpt>
      <trkpt lat="44.80576" lon="1.70524">
        <ele>318.1</ele>
        <time>2014-11-02T13:30:27.057Z</time>
      </trkpt>
      <trkpt lat="44.80574" lon="1.70535">
        <ele>318.3</ele>
        <time>2014-11-02T13:30:35.055Z</time>
      </trkpt>
      <trkpt lat="44.80573" lon="1.70537">
        <ele>318.3</ele>
        <time>2014-11-02T13:30:36.052Z</time>
      </trkpt>
      <trkpt lat="44.80571" lon="1.70548">
        <ele>318.6</ele>
        <time>2014-11-02T13:30:45.047Z</time>
      </trkpt>
      <trkpt lat="44.80571" lon="1.70549">
        <ele>318.6</ele>
        <time>2014-11-02T13:30:46.038Z</time>
      </trkpt>
      <trkpt lat="44.80567" lon="1.70559">
        <ele>318.6</ele>
        <time>2014-11-02T13:31:09.048Z</time>
      </trkpt>
      <trkpt lat="44.80566" lon="1.70561">
        <ele>318.7</ele>
        <time>2014-11-02T13:31:10.029Z</time>
      </trkpt>
      <trkpt lat="44.80563" lon="1.70571">
        <ele>318.8</ele>
        <time>2014-11-02T13:31:15.028Z</time>
      </trkpt>
      <trkpt lat="44.80563" lon="1.70575">
        <ele>318.9</ele>
        <time>2014-11-02T13:31:16.175Z</time>
      </trkpt>
      <trkpt lat="44.8056" lon="1.70586">
        <ele>319</ele>
        <time>2014-11-02T13:31:24.133Z</time>
      </trkpt>
      <trkpt lat="44.80559" lon="1.70587">
        <ele>319</ele>
        <time>2014-11-02T13:31:25.053Z</time>
      </trkpt>
      <trkpt lat="44.80555" lon="1.70598">
        <ele>318.8</ele>
        <time>2014-11-02T13:31:32.049Z</time>
      </trkpt>
      <trkpt lat="44.80555" lon="1.70599">
        <ele>318.8</ele>
        <time>2014-11-02T13:31:33Z</time>
      </trkpt>
      <trkpt lat="44.80551" lon="1.7061">
        <ele>318.6</ele>
        <time>2014-11-02T13:31:39.182Z</time>
      </trkpt>
      <trkpt lat="44.8055" lon="1.70612">
        <ele>318.6</ele>
        <time>2014-11-02T13:31:40.047Z</time>
      </trkpt>
      <trkpt lat="44.80544" lon="1.7062">
        <ele>318.3</ele>
        <time>2014-11-02T13:31:47.788Z</time>
      </trkpt>
      <trkpt lat="44.80543" lon="1.70621">
        <ele>318.3</ele>
        <time>2014-11-02T13:31:48.083Z</time>
      </trkpt>
      <trkpt lat="44.80538" lon="1.70632">
        <ele>318.1</ele>
        <time>2014-11-02T13:31:55.983Z</time>
      </trkpt>
      <trkpt lat="44.80538" lon="1.70633">
        <ele>318.1</ele>
        <time>2014-11-02T13:31:57.051Z</time>
      </trkpt>
      <trkpt lat="44.80534" lon="1.70644">
        <ele>318.2</ele>
        <time>2014-11-02T13:32:04.048Z</time>
      </trkpt>
      <trkpt lat="44.80534" lon="1.70645">
        <ele>318.2</ele>
        <time>2014-11-02T13:32:05.054Z</time>
      </trkpt>
      <trkpt lat="44.80528" lon="1.70654">
        <ele>318.1</ele>
        <time>2014-11-02T13:32:13.442Z</time>
      </trkpt>
      <trkpt lat="44.80528" lon="1.70655">
        <ele>318.1</ele>
        <time>2014-11-02T13:32:14.049Z</time>
      </trkpt>
      <trkpt lat="44.80526" lon="1.70667">
        <ele>318.2</ele>
        <time>2014-11-02T13:32:23.454Z</time>
      </trkpt>
      <trkpt lat="44.80525" lon="1.70668">
        <ele>318.2</ele>
        <time>2014-11-02T13:32:24.042Z</time>
      </trkpt>
      <trkpt lat="44.80521" lon="1.70678">
        <ele>318.2</ele>
        <time>2014-11-02T13:32:31.032Z</time>
      </trkpt>
      <trkpt lat="44.8052" lon="1.70679">
        <ele>318.2</ele>
        <time>2014-11-02T13:32:32.042Z</time>
      </trkpt>
      <trkpt lat="44.80516" lon="1.70688">
        <ele>318.2</ele>
        <time>2014-11-02T13:32:38.558Z</time>
      </trkpt>
      <trkpt lat="44.80515" lon="1.7069">
        <ele>318.2</ele>
        <time>2014-11-02T13:32:38.983Z</time>
      </trkpt>
      <trkpt lat="44.80512" lon="1.70701">
        <ele>318.4</ele>
        <time>2014-11-02T13:32:46.101Z</time>
      </trkpt>
      <trkpt lat="44.80512" lon="1.70703">
        <ele>318.4</ele>
        <time>2014-11-02T13:32:47.044Z</time>
      </trkpt>
      <trkpt lat="44.80508" lon="1.70715">
        <ele>318.7</ele>
        <time>2014-11-02T13:32:54.294Z</time>
      </trkpt>
      <trkpt lat="44.80508" lon="1.70717">
        <ele>318.8</ele>
        <time>2014-11-02T13:32:55.042Z</time>
      </trkpt>
      <trkpt lat="44.80505" lon="1.70728">
        <ele>319.2</ele>
        <time>2014-11-02T13:33:04.009Z</time>
      </trkpt>
      <trkpt lat="44.80505" lon="1.7073">
        <ele>319.2</ele>
        <time>2014-11-02T13:33:05.057Z</time>
      </trkpt>
      <trkpt lat="44.80502" lon="1.7074">
        <ele>319.6</ele>
        <time>2014-11-02T13:33:12.985Z</time>
      </trkpt>
      <trkpt lat="44.80502" lon="1.70741">
        <ele>319.6</ele>
        <time>2014-11-02T13:33:13.137Z</time>
      </trkpt>
      <trkpt lat="44.80497" lon="1.70752">
        <ele>319.8</ele>
        <time>2014-11-02T13:33:20.947Z</time>
      </trkpt>
      <trkpt lat="44.80497" lon="1.70754">
        <ele>319.8</ele>
        <time>2014-11-02T13:33:22.042Z</time>
      </trkpt>
      <trkpt lat="44.80491" lon="1.70764">
        <ele>319.5</ele>
        <time>2014-11-02T13:33:31.004Z</time>
      </trkpt>
      <trkpt lat="44.8049" lon="1.70765">
        <ele>319.5</ele>
        <time>2014-11-02T13:33:32.07Z</time>
      </trkpt>
      <trkpt lat="44.80486" lon="1.70777">
        <ele>319.3</ele>
        <time>2014-11-02T13:33:41.052Z</time>
      </trkpt>
      <trkpt lat="44.80486" lon="1.70778">
        <ele>319.3</ele>
        <time>2014-11-02T13:33:42.169Z</time>
      </trkpt>
      <trkpt lat="44.80483" lon="1.70789">
        <ele>319.3</ele>
        <time>2014-11-02T13:33:50.21Z</time>
      </trkpt>
      <trkpt lat="44.80483" lon="1.7079">
        <ele>319.3</ele>
        <time>2014-11-02T13:33:51.053Z</time>
      </trkpt>
      <trkpt lat="44.80479" lon="1.70801">
        <ele>319.3</ele>
        <time>2014-11-02T13:33:58.342Z</time>
      </trkpt>
      <trkpt lat="44.80478" lon="1.70802">
        <ele>319.3</ele>
        <time>2014-11-02T13:33:59.056Z</time>
      </trkpt>
      <trkpt lat="44.80472" lon="1.7081">
        <ele>319.4</ele>
        <time>2014-11-02T13:34:04.052Z</time>
      </trkpt>
      <trkpt lat="44.80471" lon="1.70812">
        <ele>319.4</ele>
        <time>2014-11-02T13:34:05.051Z</time>
      </trkpt>
      <trkpt lat="44.80468" lon="1.70823">
        <ele>319.6</ele>
        <time>2014-11-02T13:34:11.053Z</time>
      </trkpt>
      <trkpt lat="44.80468" lon="1.70825">
        <ele>319.6</ele>
        <time>2014-11-02T13:34:12.023Z</time>
      </trkpt>
      <trkpt lat="44.80466" lon="1.70835">
        <ele>319.8</ele>
        <time>2014-11-02T13:34:18.621Z</time>
      </trkpt>
      <trkpt lat="44.80465" lon="1.70837">
        <ele>319.9</ele>
        <time>2014-11-02T13:34:19.029Z</time>
      </trkpt>
      <trkpt lat="44.80462" lon="1.70846">
        <ele>320.1</ele>
        <time>2014-11-02T13:34:28.805Z</time>
      </trkpt>
      <trkpt lat="44.8046" lon="1.70849">
        <ele>320.1</ele>
        <time>2014-11-02T13:34:29.235Z</time>
      </trkpt>
      <trkpt lat="44.80455" lon="1.70858">
        <ele>320.4</ele>
        <time>2014-11-02T13:34:35.06Z</time>
      </trkpt>
      <trkpt lat="44.80454" lon="1.7086">
        <ele>320.5</ele>
        <time>2014-11-02T13:34:36.054Z</time>
      </trkpt>
      <trkpt lat="44.80449" lon="1.70869">
        <ele>320.9</ele>
        <time>2014-11-02T13:34:43.075Z</time>
      </trkpt>
      <trkpt lat="44.80448" lon="1.70871">
        <ele>320.9</ele>
        <time>2014-11-02T13:34:44.068Z</time>
      </trkpt>
      <trkpt lat="44.80445" lon="1.70882">
        <ele>321.3</ele>
        <time>2014-11-02T13:34:50.035Z</time>
      </trkpt>
      <trkpt lat="44.80445" lon="1.70883">
        <ele>321.3</ele>
        <time>2014-11-02T13:34:51.118Z</time>
      </trkpt>
      <trkpt lat="44.80441" lon="1.70894">
        <ele>321.7</ele>
        <time>2014-11-02T13:34:57.947Z</time>
      </trkpt>
      <trkpt lat="44.8044" lon="1.70896">
        <ele>321.9</ele>
        <time>2014-11-02T13:34:59.05Z</time>
      </trkpt>
      <trkpt lat="44.80437" lon="1.70908">
        <ele>322.3</ele>
        <time>2014-11-02T13:35:04.999Z</time>
      </trkpt>
      <trkpt lat="44.80437" lon="1.70909">
        <ele>322.4</ele>
        <time>2014-11-02T13:35:06.095Z</time>
      </trkpt>
      <trkpt lat="44.80432" lon="1.70918">
        <ele>322.9</ele>
        <time>2014-11-02T13:35:13.312Z</time>
      </trkpt>
      <trkpt lat="44.80431" lon="1.70919">
        <ele>323</ele>
        <time>2014-11-02T13:35:14.051Z</time>
      </trkpt>
      <trkpt lat="44.80427" lon="1.70928">
        <ele>323.2</ele>
        <time>2014-11-02T13:35:20.102Z</time>
      </trkpt>
      <trkpt lat="44.80427" lon="1.7093">
        <ele>323.2</ele>
        <time>2014-11-02T13:35:21.052Z</time>
      </trkpt>
      <trkpt lat="44.80423" lon="1.7094">
        <ele>323.5</ele>
        <time>2014-11-02T13:35:29.116Z</time>
      </trkpt>
      <trkpt lat="44.80422" lon="1.70941">
        <ele>323.5</ele>
        <time>2014-11-02T13:35:30.049Z</time>
      </trkpt>
      <trkpt lat="44.80415" lon="1.70947">
        <ele>324.1</ele>
        <time>2014-11-02T13:35:37.045Z</time>
      </trkpt>
      <trkpt lat="44.80414" lon="1.70948">
        <ele>324.1</ele>
        <time>2014-11-02T13:35:38.055Z</time>
      </trkpt>
      <trkpt lat="44.80406" lon="1.70946">
        <ele>324.5</ele>
        <time>2014-11-02T13:35:51.051Z</time>
      </trkpt>
      <trkpt lat="44.80405" lon="1.70945">
        <ele>324.5</ele>
        <time>2014-11-02T13:35:52.218Z</time>
      </trkpt>
      <trkpt lat="44.80396" lon="1.70945">
        <ele>324.9</ele>
        <time>2014-11-02T13:36:04.997Z</time>
      </trkpt>
      <trkpt lat="44.80394" lon="1.70944">
        <ele>325</ele>
        <time>2014-11-02T13:36:06.061Z</time>
      </trkpt>
      <trkpt lat="44.80386" lon="1.70943">
        <ele>325.3</ele>
        <time>2014-11-02T13:36:17.055Z</time>
      </trkpt>
      <trkpt lat="44.80385" lon="1.70943">
        <ele>325.4</ele>
        <time>2014-11-02T13:36:18.052Z</time>
      </trkpt>
      <trkpt lat="44.80376" lon="1.70941">
        <ele>325.7</ele>
        <time>2014-11-02T13:36:24.053Z</time>
      </trkpt>
      <trkpt lat="44.80375" lon="1.7094">
        <ele>325.8</ele>
        <time>2014-11-02T13:36:25.053Z</time>
      </trkpt>
      <trkpt lat="44.80367" lon="1.70936">
        <ele>326.1</ele>
        <time>2014-11-02T13:36:32.051Z</time>
      </trkpt>
      <trkpt lat="44.80366" lon="1.70936">
        <ele>326.1</ele>
        <time>2014-11-02T13:36:33.053Z</time>
      </trkpt>
      <trkpt lat="44.80358" lon="1.70935">
        <ele>326.4</ele>
        <time>2014-11-02T13:36:41.033Z</time>
      </trkpt>
      <trkpt lat="44.80356" lon="1.70935">
        <ele>326.5</ele>
        <time>2014-11-02T13:36:42.032Z</time>
      </trkpt>
      <trkpt lat="44.80348" lon="1.70934">
        <ele>326.8</ele>
        <time>2014-11-02T13:36:55.046Z</time>
      </trkpt>
      <trkpt lat="44.80347" lon="1.70934">
        <ele>326.9</ele>
        <time>2014-11-02T13:36:56.031Z</time>
      </trkpt>
      <trkpt lat="44.80339" lon="1.70933">
        <ele>327.2</ele>
        <time>2014-11-02T13:37:04.058Z</time>
      </trkpt>
      <trkpt lat="44.80337" lon="1.70933">
        <ele>327.2</ele>
        <time>2014-11-02T13:37:05.056Z</time>
      </trkpt>
      <trkpt lat="44.80329" lon="1.70937">
        <ele>328</ele>
        <time>2014-11-02T13:37:11.048Z</time>
      </trkpt>
      <trkpt lat="44.80328" lon="1.70937">
        <ele>328.2</ele>
        <time>2014-11-02T13:37:12.053Z</time>
      </trkpt>
      <trkpt lat="44.80319" lon="1.70936">
        <ele>329.4</ele>
        <time>2014-11-02T13:37:18.521Z</time>
      </trkpt>
      <trkpt lat="44.80318" lon="1.70936">
        <ele>329.5</ele>
        <time>2014-11-02T13:37:19.052Z</time>
      </trkpt>
      <trkpt lat="44.8031" lon="1.7094">
        <ele>330.8</ele>
        <time>2014-11-02T13:37:28.702Z</time>
      </trkpt>
      <trkpt lat="44.80309" lon="1.7094">
        <ele>331</ele>
        <time>2014-11-02T13:37:29.043Z</time>
      </trkpt>
      <trkpt lat="44.803" lon="1.70939">
        <ele>332.1</ele>
        <time>2014-11-02T13:37:37.055Z</time>
      </trkpt>
      <trkpt lat="44.80299" lon="1.70939">
        <ele>332.2</ele>
        <time>2014-11-02T13:37:37.951Z</time>
      </trkpt>
      <trkpt lat="44.80291" lon="1.70936">
        <ele>333.4</ele>
        <time>2014-11-02T13:37:46.051Z</time>
      </trkpt>
      <trkpt lat="44.8029" lon="1.70936">
        <ele>333.5</ele>
        <time>2014-11-02T13:37:47.053Z</time>
      </trkpt>
      <trkpt lat="44.80281" lon="1.70934">
        <ele>334.7</ele>
        <time>2014-11-02T13:37:56.116Z</time>
      </trkpt>
      <trkpt lat="44.80281" lon="1.70934">
        <ele>334.8</ele>
        <time>2014-11-02T13:37:57.033Z</time>
      </trkpt>
      <trkpt lat="44.80272" lon="1.70929">
        <ele>335.9</ele>
        <time>2014-11-02T13:38:06.57Z</time>
      </trkpt>
      <trkpt lat="44.80272" lon="1.70928">
        <ele>335.9</ele>
        <time>2014-11-02T13:38:07.455Z</time>
      </trkpt>
      <trkpt lat="44.80264" lon="1.70924">
        <ele>337</ele>
        <time>2014-11-02T13:38:18.257Z</time>
      </trkpt>
      <trkpt lat="44.80263" lon="1.70924">
        <ele>337.2</ele>
        <time>2014-11-02T13:38:18.542Z</time>
      </trkpt>
      <trkpt lat="44.80254" lon="1.70921">
        <ele>338.4</ele>
        <time>2014-11-02T13:38:29.623Z</time>
      </trkpt>
      <trkpt lat="44.80254" lon="1.7092">
        <ele>338.5</ele>
        <time>2014-11-02T13:38:30.52Z</time>
      </trkpt>
      <trkpt lat="44.80245" lon="1.70918">
        <ele>340.4</ele>
        <time>2014-11-02T13:38:38.741Z</time>
      </trkpt>
      <trkpt lat="44.80244" lon="1.70918">
        <ele>340.7</ele>
        <time>2014-11-02T13:38:39.518Z</time>
      </trkpt>
      <trkpt lat="44.80235" lon="1.70918">
        <ele>343.1</ele>
        <time>2014-11-02T13:38:49.519Z</time>
      </trkpt>
      <trkpt lat="44.80234" lon="1.70918">
        <ele>343.3</ele>
        <time>2014-11-02T13:38:50.524Z</time>
      </trkpt>
      <trkpt lat="44.80226" lon="1.70921">
        <ele>345.6</ele>
        <time>2014-11-02T13:39:01.495Z</time>
      </trkpt>
      <trkpt lat="44.80225" lon="1.70922">
        <ele>345.8</ele>
        <time>2014-11-02T13:39:02.514Z</time>
      </trkpt>
      <trkpt lat="44.80218" lon="1.70927">
        <ele>347.5</ele>
        <time>2014-11-02T13:39:10.518Z</time>
      </trkpt>
      <trkpt lat="44.80216" lon="1.70928">
        <ele>347.9</ele>
        <time>2014-11-02T13:39:11.516Z</time>
      </trkpt>
      <trkpt lat="44.80209" lon="1.70932">
        <ele>349.9</ele>
        <time>2014-11-02T13:39:20.513Z</time>
      </trkpt>
      <trkpt lat="44.80208" lon="1.70932">
        <ele>350.2</ele>
        <time>2014-11-02T13:39:21.646Z</time>
      </trkpt>
      <trkpt lat="44.80201" lon="1.70939">
        <ele>351.7</ele>
        <time>2014-11-02T13:39:33.568Z</time>
      </trkpt>
      <trkpt lat="44.802" lon="1.7094">
        <ele>351.9</ele>
        <time>2014-11-02T13:39:33.682Z</time>
      </trkpt>
      <trkpt lat="44.80195" lon="1.7095">
        <ele>352.7</ele>
        <time>2014-11-02T13:39:44.338Z</time>
      </trkpt>
      <trkpt lat="44.80194" lon="1.70951">
        <ele>352.9</ele>
        <time>2014-11-02T13:39:44.411Z</time>
      </trkpt>
      <trkpt lat="44.80189" lon="1.70961">
        <ele>353.5</ele>
        <time>2014-11-02T13:39:52.326Z</time>
      </trkpt>
      <trkpt lat="44.80188" lon="1.70962">
        <ele>353.6</ele>
        <time>2014-11-02T13:39:52.658Z</time>
      </trkpt>
      <trkpt lat="44.80182" lon="1.70971">
        <ele>354.6</ele>
        <time>2014-11-02T13:40:05.461Z</time>
      </trkpt>
      <trkpt lat="44.80181" lon="1.7097">
        <ele>354.8</ele>
        <time>2014-11-02T13:40:06.515Z</time>
      </trkpt>
      <trkpt lat="44.80173" lon="1.70966">
        <ele>357</ele>
        <time>2014-11-02T13:40:18.221Z</time>
      </trkpt>
      <trkpt lat="44.80172" lon="1.70966">
        <ele>357.2</ele>
        <time>2014-11-02T13:40:18.52Z</time>
      </trkpt>
      <trkpt lat="44.80164" lon="1.70961">
        <ele>359</ele>
        <time>2014-11-02T13:40:40.505Z</time>
      </trkpt>
      <trkpt lat="44.80163" lon="1.70961">
        <ele>359.2</ele>
        <time>2014-11-02T13:40:41.512Z</time>
      </trkpt>
      <trkpt lat="44.80157" lon="1.70953">
        <ele>360.3</ele>
        <time>2014-11-02T13:40:49.516Z</time>
      </trkpt>
      <trkpt lat="44.80155" lon="1.70952">
        <ele>360.5</ele>
        <time>2014-11-02T13:40:50.518Z</time>
      </trkpt>
      <trkpt lat="44.8015" lon="1.70942">
        <ele>361.6</ele>
        <time>2014-11-02T13:41:00.581Z</time>
      </trkpt>
      <trkpt lat="44.80149" lon="1.70942">
        <ele>361.6</ele>
        <time>2014-11-02T13:41:01.521Z</time>
      </trkpt>
      <trkpt lat="44.80143" lon="1.70933">
        <ele>362.6</ele>
        <time>2014-11-02T13:41:15.414Z</time>
      </trkpt>
      <trkpt lat="44.80143" lon="1.70932">
        <ele>362.6</ele>
        <time>2014-11-02T13:41:16.414Z</time>
      </trkpt>
      <trkpt lat="44.80142" lon="1.7092">
        <ele>363.3</ele>
        <time>2014-11-02T13:41:41.412Z</time>
      </trkpt>
      <trkpt lat="44.80142" lon="1.70919">
        <ele>363.3</ele>
        <time>2014-11-02T13:41:42.411Z</time>
      </trkpt>
      <trkpt lat="44.80134" lon="1.70914">
        <ele>364</ele>
        <time>2014-11-02T13:41:54.412Z</time>
      </trkpt>
      <trkpt lat="44.80134" lon="1.70913">
        <ele>364</ele>
        <time>2014-11-02T13:41:55.42Z</time>
      </trkpt>
      <trkpt lat="44.80132" lon="1.70901">
        <ele>364.3</ele>
        <time>2014-11-02T13:42:07.425Z</time>
      </trkpt>
      <trkpt lat="44.80132" lon="1.70899">
        <ele>364.4</ele>
        <time>2014-11-02T13:42:08.414Z</time>
      </trkpt>
      <trkpt lat="44.80131" lon="1.70887">
        <ele>364.6</ele>
        <time>2014-11-02T13:42:19.397Z</time>
      </trkpt>
      <trkpt lat="44.80131" lon="1.70887">
        <ele>364.6</ele>
        <time>2014-11-02T13:42:20.394Z</time>
      </trkpt>
      <trkpt lat="44.80132" lon="1.70874">
        <ele>364.8</ele>
        <time>2014-11-02T13:42:46.516Z</time>
      </trkpt>
      <trkpt lat="44.80132" lon="1.70873">
        <ele>364.8</ele>
        <time>2014-11-02T13:42:47.568Z</time>
      </trkpt>
      <trkpt lat="44.80132" lon="1.70862">
        <ele>365</ele>
        <time>2014-11-02T13:42:53.513Z</time>
      </trkpt>
      <trkpt lat="44.80132" lon="1.7086">
        <ele>365</ele>
        <time>2014-11-02T13:42:54.521Z</time>
      </trkpt>
      <trkpt lat="44.80132" lon="1.70849">
        <ele>365.2</ele>
        <time>2014-11-02T13:43:00.536Z</time>
      </trkpt>
      <trkpt lat="44.80132" lon="1.70848">
        <ele>365.3</ele>
        <time>2014-11-02T13:43:01.52Z</time>
      </trkpt>
      <trkpt lat="44.8013" lon="1.70836">
        <ele>365.6</ele>
        <time>2014-11-02T13:43:06.862Z</time>
      </trkpt>
      <trkpt lat="44.80129" lon="1.70835">
        <ele>365.7</ele>
        <time>2014-11-02T13:43:07.594Z</time>
      </trkpt>
      <trkpt lat="44.80123" lon="1.70827">
        <ele>366.2</ele>
        <time>2014-11-02T13:43:14.494Z</time>
      </trkpt>
      <trkpt lat="44.80122" lon="1.70825">
        <ele>366.2</ele>
        <time>2014-11-02T13:43:15.6Z</time>
      </trkpt>
      <trkpt lat="44.80117" lon="1.70815">
        <ele>366.6</ele>
        <time>2014-11-02T13:43:29.485Z</time>
      </trkpt>
      <trkpt lat="44.80117" lon="1.70813">
        <ele>366.7</ele>
        <time>2014-11-02T13:43:30.5Z</time>
      </trkpt>
      <trkpt lat="44.80111" lon="1.70804">
        <ele>367.2</ele>
        <time>2014-11-02T13:43:38.525Z</time>
      </trkpt>
      <trkpt lat="44.80111" lon="1.70804">
        <ele>367.3</ele>
        <time>2014-11-02T13:43:39.424Z</time>
      </trkpt>
      <trkpt lat="44.80104" lon="1.70798">
        <ele>368</ele>
        <time>2014-11-02T13:43:47.236Z</time>
      </trkpt>
      <trkpt lat="44.80103" lon="1.70798">
        <ele>368.1</ele>
        <time>2014-11-02T13:43:47.487Z</time>
      </trkpt>
      <trkpt lat="44.80097" lon="1.70789">
        <ele>368.7</ele>
        <time>2014-11-02T13:43:55.415Z</time>
      </trkpt>
      <trkpt lat="44.80096" lon="1.70787">
        <ele>368.8</ele>
        <time>2014-11-02T13:43:56.416Z</time>
      </trkpt>
      <trkpt lat="44.8009" lon="1.7078">
        <ele>369.6</ele>
        <time>2014-11-02T13:44:03.541Z</time>
      </trkpt>
      <trkpt lat="44.8009" lon="1.70778">
        <ele>369.7</ele>
        <time>2014-11-02T13:44:04.507Z</time>
      </trkpt>
      <trkpt lat="44.80083" lon="1.70771">
        <ele>370.5</ele>
        <time>2014-11-02T13:44:12.631Z</time>
      </trkpt>
      <trkpt lat="44.80083" lon="1.7077">
        <ele>370.5</ele>
        <time>2014-11-02T13:44:13.509Z</time>
      </trkpt>
      <trkpt lat="44.80076" lon="1.70764">
        <ele>370.6</ele>
        <time>2014-11-02T13:44:21.469Z</time>
      </trkpt>
      <trkpt lat="44.80075" lon="1.70763">
        <ele>370.7</ele>
        <time>2014-11-02T13:44:22.51Z</time>
      </trkpt>
      <trkpt lat="44.80067" lon="1.70758">
        <ele>370.8</ele>
        <time>2014-11-02T13:44:28.496Z</time>
      </trkpt>
      <trkpt lat="44.80066" lon="1.70757">
        <ele>370.8</ele>
        <time>2014-11-02T13:44:29.501Z</time>
      </trkpt>
      <trkpt lat="44.80059" lon="1.7075">
        <ele>371</ele>
        <time>2014-11-02T13:44:39.151Z</time>
      </trkpt>
      <trkpt lat="44.80058" lon="1.70749">
        <ele>371</ele>
        <time>2014-11-02T13:44:39.913Z</time>
      </trkpt>
      <trkpt lat="44.80049" lon="1.70746">
        <ele>371.1</ele>
        <time>2014-11-02T13:44:47.685Z</time>
      </trkpt>
      <trkpt lat="44.80048" lon="1.70745">
        <ele>371.2</ele>
        <time>2014-11-02T13:44:47.941Z</time>
      </trkpt>
      <trkpt lat="44.80041" lon="1.70738">
        <ele>371.4</ele>
        <time>2014-11-02T13:44:55.962Z</time>
      </trkpt>
      <trkpt lat="44.8004" lon="1.70738">
        <ele>371.4</ele>
        <time>2014-11-02T13:44:56.97Z</time>
      </trkpt>
      <trkpt lat="44.80033" lon="1.70732">
        <ele>371.6</ele>
        <time>2014-11-02T13:45:03.084Z</time>
      </trkpt>
      <trkpt lat="44.80032" lon="1.70731">
        <ele>371.6</ele>
        <time>2014-11-02T13:45:03.967Z</time>
      </trkpt>
      <trkpt lat="44.80026" lon="1.70723">
        <ele>371.9</ele>
        <time>2014-11-02T13:45:11.964Z</time>
      </trkpt>
      <trkpt lat="44.80025" lon="1.70722">
        <ele>371.9</ele>
        <time>2014-11-02T13:45:13.126Z</time>
      </trkpt>
      <trkpt lat="44.80019" lon="1.70712">
        <ele>372.3</ele>
        <time>2014-11-02T13:45:21.118Z</time>
      </trkpt>
      <trkpt lat="44.80019" lon="1.7071">
        <ele>372.3</ele>
        <time>2014-11-02T13:45:21.97Z</time>
      </trkpt>
      <trkpt lat="44.80013" lon="1.70701">
        <ele>372.7</ele>
        <time>2014-11-02T13:45:29.086Z</time>
      </trkpt>
      <trkpt lat="44.80012" lon="1.707">
        <ele>372.7</ele>
        <time>2014-11-02T13:45:29.963Z</time>
      </trkpt>
      <trkpt lat="44.80008" lon="1.70689">
        <ele>373.1</ele>
        <time>2014-11-02T13:45:38.677Z</time>
      </trkpt>
      <trkpt lat="44.80007" lon="1.70688">
        <ele>373.2</ele>
        <time>2014-11-02T13:45:38.946Z</time>
      </trkpt>
      <trkpt lat="44.80003" lon="1.70677">
        <ele>373.6</ele>
        <time>2014-11-02T13:45:45.961Z</time>
      </trkpt>
      <trkpt lat="44.80003" lon="1.70675">
        <ele>373.7</ele>
        <time>2014-11-02T13:45:46.96Z</time>
      </trkpt>
      <trkpt lat="44.79999" lon="1.70664">
        <ele>374</ele>
        <time>2014-11-02T13:46:00.061Z</time>
      </trkpt>
      <trkpt lat="44.79998" lon="1.70662">
        <ele>373.9</ele>
        <time>2014-11-02T13:46:00.974Z</time>
      </trkpt>
      <trkpt lat="44.79993" lon="1.70653">
        <ele>373.9</ele>
        <time>2014-11-02T13:46:15.028Z</time>
      </trkpt>
      <trkpt lat="44.79993" lon="1.70652">
        <ele>373.9</ele>
        <time>2014-11-02T13:46:15.969Z</time>
      </trkpt>
      <trkpt lat="44.79989" lon="1.70642">
        <ele>373.8</ele>
        <time>2014-11-02T13:46:24.052Z</time>
      </trkpt>
      <trkpt lat="44.79989" lon="1.7064">
        <ele>373.9</ele>
        <time>2014-11-02T13:46:24.969Z</time>
      </trkpt>
      <trkpt lat="44.79984" lon="1.70631">
        <ele>373.8</ele>
        <time>2014-11-02T13:46:32.967Z</time>
      </trkpt>
      <trkpt lat="44.79983" lon="1.7063">
        <ele>373.8</ele>
        <time>2014-11-02T13:46:34.227Z</time>
      </trkpt>
      <trkpt lat="44.79975" lon="1.70625">
        <ele>373.6</ele>
        <time>2014-11-02T13:46:39.97Z</time>
      </trkpt>
      <trkpt lat="44.79974" lon="1.70624">
        <ele>373.6</ele>
        <time>2014-11-02T13:46:40.965Z</time>
      </trkpt>
      <trkpt lat="44.79966" lon="1.7062">
        <ele>373.4</ele>
        <time>2014-11-02T13:46:48.965Z</time>
      </trkpt>
      <trkpt lat="44.79965" lon="1.7062">
        <ele>373.4</ele>
        <time>2014-11-02T13:46:50.117Z</time>
      </trkpt>
      <trkpt lat="44.79957" lon="1.70615">
        <ele>373.2</ele>
        <time>2014-11-02T13:46:58.918Z</time>
      </trkpt>
      <trkpt lat="44.79956" lon="1.70614">
        <ele>373.2</ele>
        <time>2014-11-02T13:47:00.048Z</time>
      </trkpt>
      <trkpt lat="44.7995" lon="1.70607">
        <ele>373.2</ele>
        <time>2014-11-02T13:47:08.948Z</time>
      </trkpt>
      <trkpt lat="44.79949" lon="1.70606">
        <ele>373.2</ele>
        <time>2014-11-02T13:47:09.859Z</time>
      </trkpt>
      <trkpt lat="44.79941" lon="1.70603">
        <ele>373</ele>
        <time>2014-11-02T13:47:18.796Z</time>
      </trkpt>
      <trkpt lat="44.79939" lon="1.70603">
        <ele>372.9</ele>
        <time>2014-11-02T13:47:19.084Z</time>
      </trkpt>
      <trkpt lat="44.79931" lon="1.70602">
        <ele>372.7</ele>
        <time>2014-11-02T13:47:25.084Z</time>
      </trkpt>
      <trkpt lat="44.79929" lon="1.70601">
        <ele>372.7</ele>
        <time>2014-11-02T13:47:25.967Z</time>
      </trkpt>
      <trkpt lat="44.79922" lon="1.70595">
        <ele>372.7</ele>
        <time>2014-11-02T13:47:35.967Z</time>
      </trkpt>
      <trkpt lat="44.79921" lon="1.70595">
        <ele>372.7</ele>
        <time>2014-11-02T13:47:36.988Z</time>
      </trkpt>
      <trkpt lat="44.79913" lon="1.7059">
        <ele>372.7</ele>
        <time>2014-11-02T13:47:44.75Z</time>
      </trkpt>
      <trkpt lat="44.79911" lon="1.7059">
        <ele>372.6</ele>
        <time>2014-11-02T13:47:44.988Z</time>
      </trkpt>
      <trkpt lat="44.79904" lon="1.70587">
        <ele>372.6</ele>
        <time>2014-11-02T13:47:52.803Z</time>
      </trkpt>
      <trkpt lat="44.79902" lon="1.70587">
        <ele>372.6</ele>
        <time>2014-11-02T13:47:53.083Z</time>
      </trkpt>
      <trkpt lat="44.79894" lon="1.70584">
        <ele>372.4</ele>
        <time>2014-11-02T13:47:58.961Z</time>
      </trkpt>
      <trkpt lat="44.79893" lon="1.70583">
        <ele>372.4</ele>
        <time>2014-11-02T13:48:00.061Z</time>
      </trkpt>
      <trkpt lat="44.79886" lon="1.70577">
        <ele>372.1</ele>
        <time>2014-11-02T13:48:09.962Z</time>
      </trkpt>
      <trkpt lat="44.79885" lon="1.70576">
        <ele>372.1</ele>
        <time>2014-11-02T13:48:10.969Z</time>
      </trkpt>
      <trkpt lat="44.79876" lon="1.70576">
        <ele>371.9</ele>
        <time>2014-11-02T13:48:16.96Z</time>
      </trkpt>
      <trkpt lat="44.79876" lon="1.70575">
        <ele>371.9</ele>
        <time>2014-11-02T13:48:17.962Z</time>
      </trkpt>
      <trkpt lat="44.79868" lon="1.70571">
        <ele>371.7</ele>
        <time>2014-11-02T13:48:24.963Z</time>
      </trkpt>
      <trkpt lat="44.79867" lon="1.70571">
        <ele>371.7</ele>
        <time>2014-11-02T13:48:25.967Z</time>
      </trkpt>
      <trkpt lat="44.79859" lon="1.70567">
        <ele>371.6</ele>
        <time>2014-11-02T13:48:35.942Z</time>
      </trkpt>
      <trkpt lat="44.79857" lon="1.70567">
        <ele>371.5</ele>
        <time>2014-11-02T13:48:36.952Z</time>
      </trkpt>
      <trkpt lat="44.79849" lon="1.70564">
        <ele>371.4</ele>
        <time>2014-11-02T13:48:44.061Z</time>
      </trkpt>
      <trkpt lat="44.79848" lon="1.70564">
        <ele>371.4</ele>
        <time>2014-11-02T13:48:45.019Z</time>
      </trkpt>
      <trkpt lat="44.79839" lon="1.7056">
        <ele>371.3</ele>
        <time>2014-11-02T13:48:52.965Z</time>
      </trkpt>
      <trkpt lat="44.79838" lon="1.7056">
        <ele>371.3</ele>
        <time>2014-11-02T13:48:53.95Z</time>
      </trkpt>
      <trkpt lat="44.7983" lon="1.70555">
        <ele>371.3</ele>
        <time>2014-11-02T13:49:13.897Z</time>
      </trkpt>
      <trkpt lat="44.79829" lon="1.70555">
        <ele>371.3</ele>
        <time>2014-11-02T13:49:14.912Z</time>
      </trkpt>
      <trkpt lat="44.79821" lon="1.70554">
        <ele>371.3</ele>
        <time>2014-11-02T13:49:26.962Z</time>
      </trkpt>
      <trkpt lat="44.79819" lon="1.70554">
        <ele>371.3</ele>
        <time>2014-11-02T13:49:28.054Z</time>
      </trkpt>
      <trkpt lat="44.7981" lon="1.70553">
        <ele>371.3</ele>
        <time>2014-11-02T13:49:36.081Z</time>
      </trkpt>
      <trkpt lat="44.79809" lon="1.70553">
        <ele>371.3</ele>
        <time>2014-11-02T13:49:36.965Z</time>
      </trkpt>
      <trkpt lat="44.79802" lon="1.7056">
        <ele>371.2</ele>
        <time>2014-11-02T13:49:44.965Z</time>
      </trkpt>
      <trkpt lat="44.79801" lon="1.70561">
        <ele>371.2</ele>
        <time>2014-11-02T13:49:45.97Z</time>
      </trkpt>
      <trkpt lat="44.79794" lon="1.70568">
        <ele>371.1</ele>
        <time>2014-11-02T13:49:54.968Z</time>
      </trkpt>
      <trkpt lat="44.79793" lon="1.70569">
        <ele>371.1</ele>
        <time>2014-11-02T13:49:55.962Z</time>
      </trkpt>
      <trkpt lat="44.79785" lon="1.70575">
        <ele>371</ele>
        <time>2014-11-02T13:50:13.055Z</time>
      </trkpt>
      <trkpt lat="44.79784" lon="1.70576">
        <ele>371</ele>
        <time>2014-11-02T13:50:13.927Z</time>
      </trkpt>
      <trkpt lat="44.79776" lon="1.70578">
        <ele>371</ele>
        <time>2014-11-02T13:50:24.944Z</time>
      </trkpt>
      <trkpt lat="44.79775" lon="1.70578">
        <ele>371</ele>
        <time>2014-11-02T13:50:25.945Z</time>
      </trkpt>
      <trkpt lat="44.79767" lon="1.70576">
        <ele>371</ele>
        <time>2014-11-02T13:50:35.947Z</time>
      </trkpt>
      <trkpt lat="44.79766" lon="1.70575">
        <ele>371</ele>
        <time>2014-11-02T13:50:36.963Z</time>
      </trkpt>
      <trkpt lat="44.79759" lon="1.70568">
        <ele>371</ele>
        <time>2014-11-02T13:50:47.749Z</time>
      </trkpt>
      <trkpt lat="44.79758" lon="1.70567">
        <ele>371</ele>
        <time>2014-11-02T13:50:48.017Z</time>
      </trkpt>
      <trkpt lat="44.79751" lon="1.7056">
        <ele>371</ele>
        <time>2014-11-02T13:50:55.113Z</time>
      </trkpt>
      <trkpt lat="44.7975" lon="1.70558">
        <ele>371</ele>
        <time>2014-11-02T13:50:55.973Z</time>
      </trkpt>
      <trkpt lat="44.79742" lon="1.70551">
        <ele>370.4</ele>
        <time>2014-11-02T13:51:03.19Z</time>
      </trkpt>
      <trkpt lat="44.79742" lon="1.7055">
        <ele>370.3</ele>
        <time>2014-11-02T13:51:03.967Z</time>
      </trkpt>
      <trkpt lat="44.79736" lon="1.70542">
        <ele>369.8</ele>
        <time>2014-11-02T13:51:13.299Z</time>
      </trkpt>
      <trkpt lat="44.79735" lon="1.70542">
        <ele>369.7</ele>
        <time>2014-11-02T13:51:13.966Z</time>
      </trkpt>
      <trkpt lat="44.79729" lon="1.70533">
        <ele>369.2</ele>
        <time>2014-11-02T13:51:20.979Z</time>
      </trkpt>
      <trkpt lat="44.79729" lon="1.70532">
        <ele>369.1</ele>
        <time>2014-11-02T13:51:21.969Z</time>
      </trkpt>
      <trkpt lat="44.79723" lon="1.70522">
        <ele>368.4</ele>
        <time>2014-11-02T13:51:28.971Z</time>
      </trkpt>
      <trkpt lat="44.79722" lon="1.70521">
        <ele>368.3</ele>
        <time>2014-11-02T13:51:29.964Z</time>
      </trkpt>
      <trkpt lat="44.79717" lon="1.70511">
        <ele>367.6</ele>
        <time>2014-11-02T13:51:36.969Z</time>
      </trkpt>
      <trkpt lat="44.79716" lon="1.7051">
        <ele>367.5</ele>
        <time>2014-11-02T13:51:38.031Z</time>
      </trkpt>
      <trkpt lat="44.79711" lon="1.70501">
        <ele>366.8</ele>
        <time>2014-11-02T13:51:45.961Z</time>
      </trkpt>
      <trkpt lat="44.7971" lon="1.705">
        <ele>366.7</ele>
        <time>2014-11-02T13:51:46.971Z</time>
      </trkpt>
      <trkpt lat="44.79704" lon="1.70492">
        <ele>366.1</ele>
        <time>2014-11-02T13:51:53.087Z</time>
      </trkpt>
      <trkpt lat="44.79703" lon="1.70491">
        <ele>366.1</ele>
        <time>2014-11-02T13:51:53.963Z</time>
      </trkpt>
      <trkpt lat="44.79697" lon="1.70483">
        <ele>365.7</ele>
        <time>2014-11-02T13:52:00.963Z</time>
      </trkpt>
      <trkpt lat="44.79696" lon="1.70482">
        <ele>365.6</ele>
        <time>2014-11-02T13:52:01.965Z</time>
      </trkpt>
      <trkpt lat="44.79691" lon="1.70474">
        <ele>365.3</ele>
        <time>2014-11-02T13:52:08.964Z</time>
      </trkpt>
      <trkpt lat="44.7969" lon="1.70473">
        <ele>365.2</ele>
        <time>2014-11-02T13:52:09.966Z</time>
      </trkpt>
      <trkpt lat="44.79683" lon="1.70466">
        <ele>365</ele>
        <time>2014-11-02T13:52:16.966Z</time>
      </trkpt>
      <trkpt lat="44.79683" lon="1.70465">
        <ele>364.9</ele>
        <time>2014-11-02T13:52:17.967Z</time>
      </trkpt>
      <trkpt lat="44.79677" lon="1.70456">
        <ele>364.8</ele>
        <time>2014-11-02T13:52:24.967Z</time>
      </trkpt>
      <trkpt lat="44.79676" lon="1.70455">
        <ele>364.8</ele>
        <time>2014-11-02T13:52:25.907Z</time>
      </trkpt>
      <trkpt lat="44.79672" lon="1.70445">
        <ele>365</ele>
        <time>2014-11-02T13:52:33.37Z</time>
      </trkpt>
      <trkpt lat="44.79672" lon="1.70444">
        <ele>365</ele>
        <time>2014-11-02T13:52:34.035Z</time>
      </trkpt>
      <trkpt lat="44.79667" lon="1.70434">
        <ele>365.2</ele>
        <time>2014-11-02T13:52:42.126Z</time>
      </trkpt>
      <trkpt lat="44.79666" lon="1.70433">
        <ele>365.2</ele>
        <time>2014-11-02T13:52:42.862Z</time>
      </trkpt>
      <trkpt lat="44.7966" lon="1.70424">
        <ele>365.2</ele>
        <time>2014-11-02T13:52:50.965Z</time>
      </trkpt>
      <trkpt lat="44.7966" lon="1.70423">
        <ele>365.2</ele>
        <time>2014-11-02T13:52:51.969Z</time>
      </trkpt>
      <trkpt lat="44.79654" lon="1.70413">
        <ele>365</ele>
        <time>2014-11-02T13:52:59.872Z</time>
      </trkpt>
      <trkpt lat="44.79653" lon="1.70412">
        <ele>365</ele>
        <time>2014-11-02T13:53:00.97Z</time>
      </trkpt>
      <trkpt lat="44.79647" lon="1.70404">
        <ele>364.3</ele>
        <time>2014-11-02T13:53:08.23Z</time>
      </trkpt>
      <trkpt lat="44.79646" lon="1.70404">
        <ele>364.3</ele>
        <time>2014-11-02T13:53:08.965Z</time>
      </trkpt>
      <trkpt lat="44.79639" lon="1.70398">
        <ele>363.7</ele>
        <time>2014-11-02T13:53:15.967Z</time>
      </trkpt>
      <trkpt lat="44.79638" lon="1.70397">
        <ele>363.6</ele>
        <time>2014-11-02T13:53:16.951Z</time>
      </trkpt>
      <trkpt lat="44.79631" lon="1.70389">
        <ele>363</ele>
        <time>2014-11-02T13:53:28.421Z</time>
      </trkpt>
      <trkpt lat="44.7963" lon="1.70388">
        <ele>363</ele>
        <time>2014-11-02T13:53:28.939Z</time>
      </trkpt>
      <trkpt lat="44.79622" lon="1.70383">
        <ele>362.4</ele>
        <time>2014-11-02T13:54:00.054Z</time>
      </trkpt>
      <trkpt lat="44.79621" lon="1.70383">
        <ele>362.4</ele>
        <time>2014-11-02T13:54:00.915Z</time>
      </trkpt>
      <trkpt lat="44.79613" lon="1.70385">
        <ele>361.9</ele>
        <time>2014-11-02T13:54:18.968Z</time>
      </trkpt>
      <trkpt lat="44.79612" lon="1.70388">
        <ele>361.8</ele>
        <time>2014-11-02T13:54:19.965Z</time>
      </trkpt>
      <trkpt lat="44.79608" lon="1.70398">
        <ele>361.6</ele>
        <time>2014-11-02T13:54:26.016Z</time>
      </trkpt>
      <trkpt lat="44.79607" lon="1.70401">
        <ele>361.6</ele>
        <time>2014-11-02T13:54:26.987Z</time>
      </trkpt>
      <trkpt lat="44.79604" lon="1.70411">
        <ele>361.4</ele>
        <time>2014-11-02T13:54:31.961Z</time>
      </trkpt>
      <trkpt lat="44.79603" lon="1.70413">
        <ele>361.4</ele>
        <time>2014-11-02T13:54:32.949Z</time>
      </trkpt>
      <trkpt lat="44.79599" lon="1.70422">
        <ele>361.1</ele>
        <time>2014-11-02T13:54:39.865Z</time>
      </trkpt>
      <trkpt lat="44.79599" lon="1.70424">
        <ele>361</ele>
        <time>2014-11-02T13:54:40.993Z</time>
      </trkpt>
      <trkpt lat="44.79594" lon="1.70435">
        <ele>360.7</ele>
        <time>2014-11-02T13:54:49.113Z</time>
      </trkpt>
      <trkpt lat="44.79594" lon="1.70436">
        <ele>360.6</ele>
        <time>2014-11-02T13:54:49.959Z</time>
      </trkpt>
      <trkpt lat="44.7959" lon="1.70447">
        <ele>360.4</ele>
        <time>2014-11-02T13:54:58.891Z</time>
      </trkpt>
      <trkpt lat="44.79589" lon="1.70448">
        <ele>360.3</ele>
        <time>2014-11-02T13:54:59.811Z</time>
      </trkpt>
      <trkpt lat="44.79586" lon="1.70459">
        <ele>360.1</ele>
        <time>2014-11-02T13:55:06.959Z</time>
      </trkpt>
      <trkpt lat="44.79585" lon="1.7046">
        <ele>360.1</ele>
        <time>2014-11-02T13:55:07.892Z</time>
      </trkpt>
      <trkpt lat="44.79582" lon="1.70471">
        <ele>359.9</ele>
        <time>2014-11-02T13:55:15.913Z</time>
      </trkpt>
      <trkpt lat="44.79581" lon="1.70472">
        <ele>359.9</ele>
        <time>2014-11-02T13:55:16.907Z</time>
      </trkpt>
      <trkpt lat="44.79579" lon="1.70484">
        <ele>359.8</ele>
        <time>2014-11-02T13:55:24.04Z</time>
      </trkpt>
      <trkpt lat="44.79579" lon="1.70485">
        <ele>359.8</ele>
        <time>2014-11-02T13:55:24.915Z</time>
      </trkpt>
      <trkpt lat="44.79576" lon="1.70496">
        <ele>359.6</ele>
        <time>2014-11-02T13:55:32.915Z</time>
      </trkpt>
      <trkpt lat="44.79575" lon="1.70498">
        <ele>359.6</ele>
        <time>2014-11-02T13:55:34.081Z</time>
      </trkpt>
      <trkpt lat="44.79571" lon="1.70508">
        <ele>359.8</ele>
        <time>2014-11-02T13:55:44.435Z</time>
      </trkpt>
      <trkpt lat="44.7957" lon="1.7051">
        <ele>359.9</ele>
        <time>2014-11-02T13:55:44.912Z</time>
      </trkpt>
      <trkpt lat="44.79567" lon="1.70521">
        <ele>360.3</ele>
        <time>2014-11-02T13:55:52.872Z</time>
      </trkpt>
      <trkpt lat="44.79567" lon="1.70522">
        <ele>360.4</ele>
        <time>2014-11-02T13:55:53.069Z</time>
      </trkpt>
      <trkpt lat="44.79563" lon="1.70533">
        <ele>360.8</ele>
        <time>2014-11-02T13:56:01.909Z</time>
      </trkpt>
      <trkpt lat="44.79563" lon="1.70535">
        <ele>360.9</ele>
        <time>2014-11-02T13:56:02.953Z</time>
      </trkpt>
      <trkpt lat="44.7956" lon="1.70547">
        <ele>361.5</ele>
        <time>2014-11-02T13:56:13.145Z</time>
      </trkpt>
      <trkpt lat="44.7956" lon="1.70548">
        <ele>361.5</ele>
        <time>2014-11-02T13:56:13.915Z</time>
      </trkpt>
      <trkpt lat="44.7956" lon="1.70559">
        <ele>362.1</ele>
        <time>2014-11-02T13:56:36.042Z</time>
      </trkpt>
      <trkpt lat="44.7956" lon="1.7056">
        <ele>362.2</ele>
        <time>2014-11-02T13:56:36.912Z</time>
      </trkpt>
      <trkpt lat="44.79558" lon="1.70572">
        <ele>362.7</ele>
        <time>2014-11-02T13:56:43.609Z</time>
      </trkpt>
      <trkpt lat="44.79557" lon="1.70573">
        <ele>362.8</ele>
        <time>2014-11-02T13:56:43.853Z</time>
      </trkpt>
      <trkpt lat="44.79555" lon="1.70585">
        <ele>363.4</ele>
        <time>2014-11-02T13:56:53.278Z</time>
      </trkpt>
      <trkpt lat="44.79554" lon="1.70586">
        <ele>363.4</ele>
        <time>2014-11-02T13:56:54.082Z</time>
      </trkpt>
      <trkpt lat="44.79551" lon="1.70597">
        <ele>363.6</ele>
        <time>2014-11-02T13:57:01.171Z</time>
      </trkpt>
      <trkpt lat="44.79551" lon="1.70598">
        <ele>363.6</ele>
        <time>2014-11-02T13:57:02.212Z</time>
      </trkpt>
      <trkpt lat="44.79548" lon="1.70609">
        <ele>363.8</ele>
        <time>2014-11-02T13:57:09.325Z</time>
      </trkpt>
      <trkpt lat="44.79548" lon="1.70611">
        <ele>363.8</ele>
        <time>2014-11-02T13:57:10.192Z</time>
      </trkpt>
      <trkpt lat="44.79545" lon="1.70621">
        <ele>364</ele>
        <time>2014-11-02T13:57:17.502Z</time>
      </trkpt>
      <trkpt lat="44.79544" lon="1.70622">
        <ele>364</ele>
        <time>2014-11-02T13:57:18.191Z</time>
      </trkpt>
      <trkpt lat="44.7954" lon="1.70633">
        <ele>364.2</ele>
        <time>2014-11-02T13:57:25.337Z</time>
      </trkpt>
      <trkpt lat="44.7954" lon="1.70634">
        <ele>364.2</ele>
        <time>2014-11-02T13:57:26.174Z</time>
      </trkpt>
      <trkpt lat="44.79538" lon="1.70645">
        <ele>364.4</ele>
        <time>2014-11-02T13:57:33.17Z</time>
      </trkpt>
      <trkpt lat="44.79538" lon="1.70647">
        <ele>364.4</ele>
        <time>2014-11-02T13:57:34.17Z</time>
      </trkpt>
      <trkpt lat="44.79534" lon="1.70657">
        <ele>364.6</ele>
        <time>2014-11-02T13:57:41.186Z</time>
      </trkpt>
      <trkpt lat="44.79534" lon="1.70658">
        <ele>364.6</ele>
        <time>2014-11-02T13:57:42.193Z</time>
      </trkpt>
      <trkpt lat="44.79526" lon="1.70664">
        <ele>364.6</ele>
        <time>2014-11-02T13:58:01.166Z</time>
      </trkpt>
      <trkpt lat="44.79525" lon="1.70665">
        <ele>364.6</ele>
        <time>2014-11-02T13:58:02.167Z</time>
      </trkpt>
      <trkpt lat="44.79517" lon="1.70668">
        <ele>364.4</ele>
        <time>2014-11-02T13:58:09.188Z</time>
      </trkpt>
      <trkpt lat="44.79516" lon="1.70668">
        <ele>364.4</ele>
        <time>2014-11-02T13:58:10.186Z</time>
      </trkpt>
      <trkpt lat="44.79508" lon="1.70672">
        <ele>364.2</ele>
        <time>2014-11-02T13:58:17.528Z</time>
      </trkpt>
      <trkpt lat="44.79507" lon="1.70672">
        <ele>364.2</ele>
        <time>2014-11-02T13:58:18.188Z</time>
      </trkpt>
      <trkpt lat="44.79499" lon="1.70669">
        <ele>363.9</ele>
        <time>2014-11-02T13:58:30.185Z</time>
      </trkpt>
      <trkpt lat="44.79498" lon="1.70668">
        <ele>363.8</ele>
        <time>2014-11-02T13:58:31.186Z</time>
      </trkpt>
      <trkpt lat="44.7949" lon="1.70667">
        <ele>363.3</ele>
        <time>2014-11-02T13:58:48.239Z</time>
      </trkpt>
      <trkpt lat="44.79489" lon="1.70667">
        <ele>363.2</ele>
        <time>2014-11-02T13:58:49.189Z</time>
      </trkpt>
      <trkpt lat="44.7948" lon="1.70664">
        <ele>362.5</ele>
        <time>2014-11-02T13:59:18.194Z</time>
      </trkpt>
      <trkpt lat="44.79479" lon="1.70665">
        <ele>362.5</ele>
        <time>2014-11-02T13:59:19.196Z</time>
      </trkpt>
      <trkpt lat="44.79472" lon="1.7066">
        <ele>361.8</ele>
        <time>2014-11-02T13:59:26.192Z</time>
      </trkpt>
      <trkpt lat="44.79471" lon="1.70659">
        <ele>361.7</ele>
        <time>2014-11-02T13:59:27.19Z</time>
      </trkpt>
      <trkpt lat="44.79463" lon="1.70654">
        <ele>361.1</ele>
        <time>2014-11-02T13:59:39.193Z</time>
      </trkpt>
      <trkpt lat="44.79462" lon="1.70653">
        <ele>361</ele>
        <time>2014-11-02T13:59:40.189Z</time>
      </trkpt>
      <trkpt lat="44.79456" lon="1.70646">
        <ele>360.5</ele>
        <time>2014-11-02T13:59:50.086Z</time>
      </trkpt>
      <trkpt lat="44.79454" lon="1.70645">
        <ele>360.3</ele>
        <time>2014-11-02T13:59:51.194Z</time>
      </trkpt>
      <trkpt lat="44.79447" lon="1.70641">
        <ele>359.8</ele>
        <time>2014-11-02T13:59:58.196Z</time>
      </trkpt>
      <trkpt lat="44.79446" lon="1.70639">
        <ele>359.7</ele>
        <time>2014-11-02T13:59:59.088Z</time>
      </trkpt>
      <trkpt lat="44.79439" lon="1.70633">
        <ele>359.1</ele>
        <time>2014-11-02T14:00:08.138Z</time>
      </trkpt>
      <trkpt lat="44.79437" lon="1.70632">
        <ele>359</ele>
        <time>2014-11-02T14:00:09.401Z</time>
      </trkpt>
      <trkpt lat="44.79433" lon="1.70622">
        <ele>358.5</ele>
        <time>2014-11-02T14:00:21.23Z</time>
      </trkpt>
      <trkpt lat="44.79433" lon="1.70621">
        <ele>358.5</ele>
        <time>2014-11-02T14:00:22.192Z</time>
      </trkpt>
      <trkpt lat="44.79433" lon="1.70609">
        <ele>358.3</ele>
        <time>2014-11-02T14:00:31.193Z</time>
      </trkpt>
      <trkpt lat="44.79432" lon="1.70607">
        <ele>358.3</ele>
        <time>2014-11-02T14:00:32.195Z</time>
      </trkpt>
      <trkpt lat="44.79432" lon="1.70595">
        <ele>358.1</ele>
        <time>2014-11-02T14:00:38.438Z</time>
      </trkpt>
      <trkpt lat="44.79432" lon="1.70594">
        <ele>358.1</ele>
        <time>2014-11-02T14:00:39.193Z</time>
      </trkpt>
      <trkpt lat="44.79429" lon="1.70583">
        <ele>357.7</ele>
        <time>2014-11-02T14:00:49.193Z</time>
      </trkpt>
      <trkpt lat="44.79428" lon="1.70581">
        <ele>357.6</ele>
        <time>2014-11-02T14:00:50.197Z</time>
      </trkpt>
      <trkpt lat="44.79423" lon="1.70572">
        <ele>356.9</ele>
        <time>2014-11-02T14:00:56.3Z</time>
      </trkpt>
      <trkpt lat="44.79422" lon="1.70571">
        <ele>356.8</ele>
        <time>2014-11-02T14:00:57.193Z</time>
      </trkpt>
      <trkpt lat="44.79415" lon="1.70563">
        <ele>356.2</ele>
        <time>2014-11-02T14:01:06.191Z</time>
      </trkpt>
      <trkpt lat="44.79414" lon="1.70563">
        <ele>356.1</ele>
        <time>2014-11-02T14:01:07.188Z</time>
      </trkpt>
      <trkpt lat="44.79406" lon="1.70559">
        <ele>355.5</ele>
        <time>2014-11-02T14:01:15.194Z</time>
      </trkpt>
      <trkpt lat="44.79405" lon="1.70559">
        <ele>355.4</ele>
        <time>2014-11-02T14:01:16.401Z</time>
      </trkpt>
      <trkpt lat="44.79396" lon="1.70555">
        <ele>354.8</ele>
        <time>2014-11-02T14:01:26.192Z</time>
      </trkpt>
      <trkpt lat="44.79395" lon="1.70555">
        <ele>354.8</ele>
        <time>2014-11-02T14:01:27.193Z</time>
      </trkpt>
      <trkpt lat="44.7939" lon="1.70547">
        <ele>354.2</ele>
        <time>2014-11-02T14:01:34.186Z</time>
      </trkpt>
      <trkpt lat="44.79389" lon="1.70545">
        <ele>354.1</ele>
        <time>2014-11-02T14:01:35.188Z</time>
      </trkpt>
      <trkpt lat="44.79388" lon="1.70533">
        <ele>353.7</ele>
        <time>2014-11-02T14:01:57.4Z</time>
      </trkpt>
      <trkpt lat="44.79388" lon="1.70532">
        <ele>353.6</ele>
        <time>2014-11-02T14:01:58.196Z</time>
      </trkpt>
      <trkpt lat="44.79387" lon="1.7052">
        <ele>353.2</ele>
        <time>2014-11-02T14:02:05.191Z</time>
      </trkpt>
      <trkpt lat="44.79387" lon="1.70518">
        <ele>353.2</ele>
        <time>2014-11-02T14:02:06.191Z</time>
      </trkpt>
      <trkpt lat="44.79389" lon="1.70505">
        <ele>352.8</ele>
        <time>2014-11-02T14:02:12.676Z</time>
      </trkpt>
      <trkpt lat="44.79389" lon="1.70503">
        <ele>352.8</ele>
        <time>2014-11-02T14:02:13.195Z</time>
      </trkpt>
      <trkpt lat="44.79392" lon="1.70493">
        <ele>352.5</ele>
        <time>2014-11-02T14:02:21.192Z</time>
      </trkpt>
      <trkpt lat="44.79392" lon="1.70491">
        <ele>352.4</ele>
        <time>2014-11-02T14:02:22.186Z</time>
      </trkpt>
      <trkpt lat="44.79394" lon="1.70479">
        <ele>351.9</ele>
        <time>2014-11-02T14:02:30.178Z</time>
      </trkpt>
      <trkpt lat="44.79395" lon="1.70478">
        <ele>351.9</ele>
        <time>2014-11-02T14:02:31.173Z</time>
      </trkpt>
      <trkpt lat="44.79396" lon="1.70467">
        <ele>351.4</ele>
        <time>2014-11-02T14:02:38.287Z</time>
      </trkpt>
      <trkpt lat="44.79396" lon="1.70466">
        <ele>351.4</ele>
        <time>2014-11-02T14:02:39.199Z</time>
      </trkpt>
      <trkpt lat="44.79398" lon="1.70454">
        <ele>350.9</ele>
        <time>2014-11-02T14:02:48.188Z</time>
      </trkpt>
      <trkpt lat="44.79398" lon="1.70452">
        <ele>350.8</ele>
        <time>2014-11-02T14:02:49.189Z</time>
      </trkpt>
      <trkpt lat="44.79402" lon="1.70442">
        <ele>350.5</ele>
        <time>2014-11-02T14:02:57.257Z</time>
      </trkpt>
      <trkpt lat="44.79402" lon="1.7044">
        <ele>350.4</ele>
        <time>2014-11-02T14:02:58.193Z</time>
      </trkpt>
      <trkpt lat="44.79404" lon="1.70429">
        <ele>350</ele>
        <time>2014-11-02T14:03:06.194Z</time>
      </trkpt>
      <trkpt lat="44.79405" lon="1.70428">
        <ele>349.9</ele>
        <time>2014-11-02T14:03:07.189Z</time>
      </trkpt>
      <trkpt lat="44.79407" lon="1.70416">
        <ele>349.5</ele>
        <time>2014-11-02T14:03:16.199Z</time>
      </trkpt>
      <trkpt lat="44.79407" lon="1.70414">
        <ele>349.5</ele>
        <time>2014-11-02T14:03:17.193Z</time>
      </trkpt>
      <trkpt lat="44.79409" lon="1.70402">
        <ele>349.3</ele>
        <time>2014-11-02T14:03:24.193Z</time>
      </trkpt>
      <trkpt lat="44.79409" lon="1.704">
        <ele>349.2</ele>
        <time>2014-11-02T14:03:25.193Z</time>
      </trkpt>
      <trkpt lat="44.7941" lon="1.70388">
        <ele>348.9</ele>
        <time>2014-11-02T14:03:33.483Z</time>
      </trkpt>
      <trkpt lat="44.7941" lon="1.70386">
        <ele>348.9</ele>
        <time>2014-11-02T14:03:34.269Z</time>
      </trkpt>
      <trkpt lat="44.79412" lon="1.70375">
        <ele>348.7</ele>
        <time>2014-11-02T14:03:40.17Z</time>
      </trkpt>
      <trkpt lat="44.79412" lon="1.70373">
        <ele>348.7</ele>
        <time>2014-11-02T14:03:41.088Z</time>
      </trkpt>
      <trkpt lat="44.79413" lon="1.70361">
        <ele>348.4</ele>
        <time>2014-11-02T14:03:49.182Z</time>
      </trkpt>
      <trkpt lat="44.79414" lon="1.70359">
        <ele>348.4</ele>
        <time>2014-11-02T14:03:50.22Z</time>
      </trkpt>
      <trkpt lat="44.79416" lon="1.70347">
        <ele>348.3</ele>
        <time>2014-11-02T14:03:59.263Z</time>
      </trkpt>
      <trkpt lat="44.79416" lon="1.70346">
        <ele>348.3</ele>
        <time>2014-11-02T14:04:00.325Z</time>
      </trkpt>
      <trkpt lat="44.79418" lon="1.70335">
        <ele>348.2</ele>
        <time>2014-11-02T14:04:08.193Z</time>
      </trkpt>
      <trkpt lat="44.79419" lon="1.70333">
        <ele>348.2</ele>
        <time>2014-11-02T14:04:09.343Z</time>
      </trkpt>
      <trkpt lat="44.79421" lon="1.70322">
        <ele>348.4</ele>
        <time>2014-11-02T14:04:15.176Z</time>
      </trkpt>
      <trkpt lat="44.79421" lon="1.70319">
        <ele>348.4</ele>
        <time>2014-11-02T14:04:16.17Z</time>
      </trkpt>
      <trkpt lat="44.79424" lon="1.70309">
        <ele>348.7</ele>
        <time>2014-11-02T14:04:23.352Z</time>
      </trkpt>
      <trkpt lat="44.79424" lon="1.70307">
        <ele>348.8</ele>
        <time>2014-11-02T14:04:24.171Z</time>
      </trkpt>
      <trkpt lat="44.79426" lon="1.70295">
        <ele>349</ele>
        <time>2014-11-02T14:04:32.194Z</time>
      </trkpt>
      <trkpt lat="44.79426" lon="1.70293">
        <ele>349</ele>
        <time>2014-11-02T14:04:33.191Z</time>
      </trkpt>
      <trkpt lat="44.79427" lon="1.70282">
        <ele>349.1</ele>
        <time>2014-11-02T14:04:41.175Z</time>
      </trkpt>
      <trkpt lat="44.79427" lon="1.70281">
        <ele>349.1</ele>
        <time>2014-11-02T14:04:42.173Z</time>
      </trkpt>
      <trkpt lat="44.79435" lon="1.70278">
        <ele>349.6</ele>
        <time>2014-11-02T14:06:57.093Z</time>
      </trkpt>
      <trkpt lat="44.79437" lon="1.70278">
        <ele>349.6</ele>
        <time>2014-11-02T14:06:58.102Z</time>
      </trkpt>
      <trkpt lat="44.79445" lon="1.7028">
        <ele>350</ele>
        <time>2014-11-02T14:07:09.1Z</time>
      </trkpt>
      <trkpt lat="44.79446" lon="1.70281">
        <ele>350.1</ele>
        <time>2014-11-02T14:07:10.1Z</time>
      </trkpt>
      <trkpt lat="44.79453" lon="1.70288">
        <ele>350.5</ele>
        <time>2014-11-02T14:07:16.098Z</time>
      </trkpt>
      <trkpt lat="44.79454" lon="1.70289">
        <ele>350.5</ele>
        <time>2014-11-02T14:07:17.101Z</time>
      </trkpt>
      <trkpt lat="44.79461" lon="1.70297">
        <ele>350.9</ele>
        <time>2014-11-02T14:07:25.088Z</time>
      </trkpt>
      <trkpt lat="44.79462" lon="1.70298">
        <ele>351</ele>
        <time>2014-11-02T14:07:26.1Z</time>
      </trkpt>
      <trkpt lat="44.79469" lon="1.70302">
        <ele>351.5</ele>
        <time>2014-11-02T14:07:33.193Z</time>
      </trkpt>
      <trkpt lat="44.7947" lon="1.70303">
        <ele>351.5</ele>
        <time>2014-11-02T14:07:34.192Z</time>
      </trkpt>
      <trkpt lat="44.79477" lon="1.70308">
        <ele>352</ele>
        <time>2014-11-02T14:07:41.186Z</time>
      </trkpt>
      <trkpt lat="44.79478" lon="1.7031">
        <ele>352.1</ele>
        <time>2014-11-02T14:07:42.185Z</time>
      </trkpt>
      <trkpt lat="44.79486" lon="1.70315">
        <ele>352.6</ele>
        <time>2014-11-02T14:07:53.191Z</time>
      </trkpt>
      <trkpt lat="44.79487" lon="1.70316">
        <ele>352.7</ele>
        <time>2014-11-02T14:07:54.119Z</time>
      </trkpt>
      <trkpt lat="44.79495" lon="1.70319">
        <ele>353.3</ele>
        <time>2014-11-02T14:08:02.191Z</time>
      </trkpt>
      <trkpt lat="44.79496" lon="1.7032">
        <ele>353.4</ele>
        <time>2014-11-02T14:08:03.164Z</time>
      </trkpt>
      <trkpt lat="44.79503" lon="1.70324">
        <ele>354</ele>
        <time>2014-11-02T14:08:11.167Z</time>
      </trkpt>
      <trkpt lat="44.79504" lon="1.70325">
        <ele>354.1</ele>
        <time>2014-11-02T14:08:12.187Z</time>
      </trkpt>
      <trkpt lat="44.79511" lon="1.70331">
        <ele>354.8</ele>
        <time>2014-11-02T14:08:18.187Z</time>
      </trkpt>
      <trkpt lat="44.79512" lon="1.70331">
        <ele>354.8</ele>
        <time>2014-11-02T14:08:19.187Z</time>
      </trkpt>
      <trkpt lat="44.79519" lon="1.70338">
        <ele>355.4</ele>
        <time>2014-11-02T14:08:27.175Z</time>
      </trkpt>
      <trkpt lat="44.7952" lon="1.70338">
        <ele>355.5</ele>
        <time>2014-11-02T14:08:28.175Z</time>
      </trkpt>
      <trkpt lat="44.79526" lon="1.70345">
        <ele>356</ele>
        <time>2014-11-02T14:08:36.175Z</time>
      </trkpt>
      <trkpt lat="44.79527" lon="1.70346">
        <ele>356.1</ele>
        <time>2014-11-02T14:08:37.159Z</time>
      </trkpt>
      <trkpt lat="44.79534" lon="1.70354">
        <ele>356.6</ele>
        <time>2014-11-02T14:08:47.189Z</time>
      </trkpt>
      <trkpt lat="44.79534" lon="1.70354">
        <ele>356.6</ele>
        <time>2014-11-02T14:08:48.187Z</time>
      </trkpt>
      <trkpt lat="44.79541" lon="1.70358">
        <ele>357.1</ele>
        <time>2014-11-02T14:08:55.175Z</time>
      </trkpt>
      <trkpt lat="44.79543" lon="1.70358">
        <ele>357.2</ele>
        <time>2014-11-02T14:08:56.177Z</time>
      </trkpt>
      <trkpt lat="44.79551" lon="1.70362">
        <ele>357.8</ele>
        <time>2014-11-02T14:09:05.168Z</time>
      </trkpt>
      <trkpt lat="44.79552" lon="1.70362">
        <ele>357.9</ele>
        <time>2014-11-02T14:09:06.165Z</time>
      </trkpt>
      <trkpt lat="44.79559" lon="1.70367">
        <ele>358.4</ele>
        <time>2014-11-02T14:09:15.126Z</time>
      </trkpt>
      <trkpt lat="44.7956" lon="1.70368">
        <ele>358.4</ele>
        <time>2014-11-02T14:09:16.186Z</time>
      </trkpt>
      <trkpt lat="44.79568" lon="1.70371">
        <ele>359</ele>
        <time>2014-11-02T14:09:23.189Z</time>
      </trkpt>
      <trkpt lat="44.79571" lon="1.70371">
        <ele>359.2</ele>
        <time>2014-11-02T14:09:24.188Z</time>
      </trkpt>
      <trkpt lat="44.79579" lon="1.70372">
        <ele>359.7</ele>
        <time>2014-11-02T14:09:30.187Z</time>
      </trkpt>
      <trkpt lat="44.7958" lon="1.70372">
        <ele>359.8</ele>
        <time>2014-11-02T14:09:31.189Z</time>
      </trkpt>
      <trkpt lat="44.79588" lon="1.70377">
        <ele>360.3</ele>
        <time>2014-11-02T14:09:42.191Z</time>
      </trkpt>
      <trkpt lat="44.79589" lon="1.70378">
        <ele>360.4</ele>
        <time>2014-11-02T14:09:43.187Z</time>
      </trkpt>
      <trkpt lat="44.79597" lon="1.70383">
        <ele>360.9</ele>
        <time>2014-11-02T14:09:50.186Z</time>
      </trkpt>
      <trkpt lat="44.79598" lon="1.70384">
        <ele>360.9</ele>
        <time>2014-11-02T14:09:51.191Z</time>
      </trkpt>
      <trkpt lat="44.79607" lon="1.70386">
        <ele>361.5</ele>
        <time>2014-11-02T14:09:58.187Z</time>
      </trkpt>
      <trkpt lat="44.79608" lon="1.70385">
        <ele>361.6</ele>
        <time>2014-11-02T14:09:59.088Z</time>
      </trkpt>
      <trkpt lat="44.79613" lon="1.70377">
        <ele>361.8</ele>
        <time>2014-11-02T14:10:07.17Z</time>
      </trkpt>
      <trkpt lat="44.79613" lon="1.70375">
        <ele>361.8</ele>
        <time>2014-11-02T14:10:08.17Z</time>
      </trkpt>
      <trkpt lat="44.79616" lon="1.70364">
        <ele>361.9</ele>
        <time>2014-11-02T14:10:13.168Z</time>
      </trkpt>
      <trkpt lat="44.79617" lon="1.70362">
        <ele>361.9</ele>
        <time>2014-11-02T14:10:14.17Z</time>
      </trkpt>
      <trkpt lat="44.79622" lon="1.70352">
        <ele>362</ele>
        <time>2014-11-02T14:10:21.31Z</time>
      </trkpt>
      <trkpt lat="44.79622" lon="1.70351">
        <ele>362.1</ele>
        <time>2014-11-02T14:10:22.183Z</time>
      </trkpt>
      <trkpt lat="44.79628" lon="1.70344">
        <ele>362.3</ele>
        <time>2014-11-02T14:10:31.189Z</time>
      </trkpt>
      <trkpt lat="44.7963" lon="1.70342">
        <ele>362.3</ele>
        <time>2014-11-02T14:10:32.189Z</time>
      </trkpt>
      <trkpt lat="44.79633" lon="1.70332">
        <ele>362.3</ele>
        <time>2014-11-02T14:10:38.176Z</time>
      </trkpt>
      <trkpt lat="44.79633" lon="1.7033">
        <ele>362.2</ele>
        <time>2014-11-02T14:10:39.169Z</time>
      </trkpt>
      <trkpt lat="44.79634" lon="1.70318">
        <ele>361.7</ele>
        <time>2014-11-02T14:10:45.237Z</time>
      </trkpt>
      <trkpt lat="44.79635" lon="1.70317">
        <ele>361.7</ele>
        <time>2014-11-02T14:10:46.198Z</time>
      </trkpt>
      <trkpt lat="44.79638" lon="1.70305">
        <ele>361.3</ele>
        <time>2014-11-02T14:10:55.193Z</time>
      </trkpt>
      <trkpt lat="44.79638" lon="1.70304">
        <ele>361.2</ele>
        <time>2014-11-02T14:10:56.189Z</time>
      </trkpt>
      <trkpt lat="44.7964" lon="1.70292">
        <ele>360.7</ele>
        <time>2014-11-02T14:11:05.323Z</time>
      </trkpt>
      <trkpt lat="44.79639" lon="1.7029">
        <ele>360.6</ele>
        <time>2014-11-02T14:11:06.193Z</time>
      </trkpt>
      <trkpt lat="44.79641" lon="1.70279">
        <ele>360.2</ele>
        <time>2014-11-02T14:11:13.221Z</time>
      </trkpt>
      <trkpt lat="44.79642" lon="1.70277">
        <ele>360.1</ele>
        <time>2014-11-02T14:11:14.189Z</time>
      </trkpt>
      <trkpt lat="44.79646" lon="1.70266">
        <ele>359.8</ele>
        <time>2014-11-02T14:11:23.189Z</time>
      </trkpt>
      <trkpt lat="44.79646" lon="1.70265">
        <ele>359.7</ele>
        <time>2014-11-02T14:11:24.192Z</time>
      </trkpt>
      <trkpt lat="44.79649" lon="1.70254">
        <ele>359.3</ele>
        <time>2014-11-02T14:11:31.189Z</time>
      </trkpt>
      <trkpt lat="44.7965" lon="1.70252">
        <ele>359.3</ele>
        <time>2014-11-02T14:11:32.19Z</time>
      </trkpt>
      <trkpt lat="44.79654" lon="1.70242">
        <ele>358.9</ele>
        <time>2014-11-02T14:11:39.189Z</time>
      </trkpt>
      <trkpt lat="44.79654" lon="1.7024">
        <ele>358.8</ele>
        <time>2014-11-02T14:11:40.189Z</time>
      </trkpt>
      <trkpt lat="44.79656" lon="1.70228">
        <ele>358.2</ele>
        <time>2014-11-02T14:11:48.19Z</time>
      </trkpt>
      <trkpt lat="44.79656" lon="1.70227">
        <ele>358.1</ele>
        <time>2014-11-02T14:11:49.298Z</time>
      </trkpt>
      <trkpt lat="44.79661" lon="1.70216">
        <ele>357.7</ele>
        <time>2014-11-02T14:11:57.307Z</time>
      </trkpt>
      <trkpt lat="44.79661" lon="1.70215">
        <ele>357.7</ele>
        <time>2014-11-02T14:11:58.085Z</time>
      </trkpt>
      <trkpt lat="44.79666" lon="1.70205">
        <ele>357.2</ele>
        <time>2014-11-02T14:12:06.192Z</time>
      </trkpt>
      <trkpt lat="44.79666" lon="1.70204">
        <ele>357.2</ele>
        <time>2014-11-02T14:12:07.187Z</time>
      </trkpt>
      <trkpt lat="44.7967" lon="1.70193">
        <ele>356.7</ele>
        <time>2014-11-02T14:12:16.183Z</time>
      </trkpt>
      <trkpt lat="44.79671" lon="1.70192">
        <ele>356.7</ele>
        <time>2014-11-02T14:12:17.331Z</time>
      </trkpt>
      <trkpt lat="44.79676" lon="1.70182">
        <ele>356.3</ele>
        <time>2014-11-02T14:12:25.188Z</time>
      </trkpt>
      <trkpt lat="44.79676" lon="1.7018">
        <ele>356.2</ele>
        <time>2014-11-02T14:12:26.193Z</time>
      </trkpt>
      <trkpt lat="44.79679" lon="1.7017">
        <ele>355.8</ele>
        <time>2014-11-02T14:12:33.187Z</time>
      </trkpt>
      <trkpt lat="44.79679" lon="1.70168">
        <ele>355.7</ele>
        <time>2014-11-02T14:12:34.192Z</time>
      </trkpt>
      <trkpt lat="44.79681" lon="1.70157">
        <ele>355.6</ele>
        <time>2014-11-02T14:12:43.187Z</time>
      </trkpt>
      <trkpt lat="44.79681" lon="1.70155">
        <ele>355.6</ele>
        <time>2014-11-02T14:12:44.19Z</time>
      </trkpt>
      <trkpt lat="44.79682" lon="1.70143">
        <ele>355.5</ele>
        <time>2014-11-02T14:12:58.191Z</time>
      </trkpt>
      <trkpt lat="44.79682" lon="1.70142">
        <ele>355.5</ele>
        <time>2014-11-02T14:12:59.093Z</time>
      </trkpt>
      <trkpt lat="44.79684" lon="1.7013">
        <ele>355.4</ele>
        <time>2014-11-02T14:13:08.188Z</time>
      </trkpt>
      <trkpt lat="44.79684" lon="1.70127">
        <ele>355.4</ele>
        <time>2014-11-02T14:13:09.188Z</time>
      </trkpt>
      <trkpt lat="44.79685" lon="1.70115">
        <ele>355.2</ele>
        <time>2014-11-02T14:13:17.218Z</time>
      </trkpt>
      <trkpt lat="44.79685" lon="1.70114">
        <ele>355.2</ele>
        <time>2014-11-02T14:13:18.188Z</time>
      </trkpt>
      <trkpt lat="44.79686" lon="1.70102">
        <ele>355.2</ele>
        <time>2014-11-02T14:13:28.188Z</time>
      </trkpt>
      <trkpt lat="44.79686" lon="1.701">
        <ele>355.1</ele>
        <time>2014-11-02T14:13:29.307Z</time>
      </trkpt>
      <trkpt lat="44.79688" lon="1.70088">
        <ele>355.1</ele>
        <time>2014-11-02T14:13:37.278Z</time>
      </trkpt>
      <trkpt lat="44.79688" lon="1.70086">
        <ele>355.1</ele>
        <time>2014-11-02T14:13:38.242Z</time>
      </trkpt>
      <trkpt lat="44.7969" lon="1.70074">
        <ele>355.4</ele>
        <time>2014-11-02T14:13:45.333Z</time>
      </trkpt>
      <trkpt lat="44.7969" lon="1.70073">
        <ele>355.4</ele>
        <time>2014-11-02T14:13:46.189Z</time>
      </trkpt>
      <trkpt lat="44.79691" lon="1.70062">
        <ele>355.8</ele>
        <time>2014-11-02T14:13:54.085Z</time>
      </trkpt>
      <trkpt lat="44.79692" lon="1.7006">
        <ele>355.8</ele>
        <time>2014-11-02T14:13:55.19Z</time>
      </trkpt>
      <trkpt lat="44.79692" lon="1.70048">
        <ele>356.2</ele>
        <time>2014-11-02T14:14:04.191Z</time>
      </trkpt>
      <trkpt lat="44.79692" lon="1.70047">
        <ele>356.3</ele>
        <time>2014-11-02T14:14:05.189Z</time>
      </trkpt>
      <trkpt lat="44.79694" lon="1.70035">
        <ele>356.7</ele>
        <time>2014-11-02T14:14:14.17Z</time>
      </trkpt>
      <trkpt lat="44.79694" lon="1.70033">
        <ele>356.7</ele>
        <time>2014-11-02T14:14:15.168Z</time>
      </trkpt>
      <trkpt lat="44.79693" lon="1.70022">
        <ele>357</ele>
        <time>2014-11-02T14:14:31.332Z</time>
      </trkpt>
      <trkpt lat="44.79693" lon="1.70021">
        <ele>357</ele>
        <time>2014-11-02T14:14:32.096Z</time>
      </trkpt>
      <trkpt lat="44.79694" lon="1.7001">
        <ele>357.4</ele>
        <time>2014-11-02T14:14:40.087Z</time>
      </trkpt>
      <trkpt lat="44.79695" lon="1.70008">
        <ele>357.5</ele>
        <time>2014-11-02T14:14:41.087Z</time>
      </trkpt>
      <trkpt lat="44.79695" lon="1.69996">
        <ele>357.7</ele>
        <time>2014-11-02T14:14:47.254Z</time>
      </trkpt>
      <trkpt lat="44.79695" lon="1.69995">
        <ele>357.8</ele>
        <time>2014-11-02T14:14:48.191Z</time>
      </trkpt>
      <trkpt lat="44.79696" lon="1.69983">
        <ele>358</ele>
        <time>2014-11-02T14:14:56.237Z</time>
      </trkpt>
      <trkpt lat="44.79695" lon="1.69982">
        <ele>358</ele>
        <time>2014-11-02T14:14:57.183Z</time>
      </trkpt>
      <trkpt lat="44.79693" lon="1.6997">
        <ele>358.1</ele>
        <time>2014-11-02T14:15:05.165Z</time>
      </trkpt>
      <trkpt lat="44.79693" lon="1.69969">
        <ele>358.1</ele>
        <time>2014-11-02T14:15:06.168Z</time>
      </trkpt>
      <trkpt lat="44.79692" lon="1.69958">
        <ele>358.1</ele>
        <time>2014-11-02T14:15:17.191Z</time>
      </trkpt>
      <trkpt lat="44.79691" lon="1.69956">
        <ele>358.2</ele>
        <time>2014-11-02T14:15:18.188Z</time>
      </trkpt>
      <trkpt lat="44.79686" lon="1.69946">
        <ele>358</ele>
        <time>2014-11-02T14:15:26.19Z</time>
      </trkpt>
      <trkpt lat="44.79686" lon="1.69944">
        <ele>358</ele>
        <time>2014-11-02T14:15:27.25Z</time>
      </trkpt>
      <trkpt lat="44.79686" lon="1.69933">
        <ele>358.1</ele>
        <time>2014-11-02T14:15:34.192Z</time>
      </trkpt>
      <trkpt lat="44.79686" lon="1.69931">
        <ele>358.2</ele>
        <time>2014-11-02T14:15:35.316Z</time>
      </trkpt>
      <trkpt lat="44.79688" lon="1.69919">
        <ele>358.5</ele>
        <time>2014-11-02T14:15:43.178Z</time>
      </trkpt>
      <trkpt lat="44.79689" lon="1.69918">
        <ele>358.6</ele>
        <time>2014-11-02T14:15:44.171Z</time>
      </trkpt>
      <trkpt lat="44.79688" lon="1.69906">
        <ele>358.6</ele>
        <time>2014-11-02T14:15:51.338Z</time>
      </trkpt>
      <trkpt lat="44.79688" lon="1.69905">
        <ele>358.6</ele>
        <time>2014-11-02T14:15:52.194Z</time>
      </trkpt>
      <trkpt lat="44.79687" lon="1.69894">
        <ele>358.6</ele>
        <time>2014-11-02T14:15:59.09Z</time>
      </trkpt>
      <trkpt lat="44.79687" lon="1.69892">
        <ele>358.6</ele>
        <time>2014-11-02T14:16:00.323Z</time>
      </trkpt>
      <trkpt lat="44.79688" lon="1.69881">
        <ele>358.7</ele>
        <time>2014-11-02T14:16:20.187Z</time>
      </trkpt>
      <trkpt lat="44.79689" lon="1.69878">
        <ele>358.8</ele>
        <time>2014-11-02T14:16:21.212Z</time>
      </trkpt>
      <trkpt lat="44.79691" lon="1.69867">
        <ele>359.1</ele>
        <time>2014-11-02T14:16:30.303Z</time>
      </trkpt>
      <trkpt lat="44.79691" lon="1.69866">
        <ele>359.1</ele>
        <time>2014-11-02T14:16:31.188Z</time>
      </trkpt>
      <trkpt lat="44.79692" lon="1.69855">
        <ele>359.3</ele>
        <time>2014-11-02T14:16:40.179Z</time>
      </trkpt>
      <trkpt lat="44.79692" lon="1.69853">
        <ele>359.3</ele>
        <time>2014-11-02T14:16:41.17Z</time>
      </trkpt>
      <trkpt lat="44.79692" lon="1.69841">
        <ele>359.4</ele>
        <time>2014-11-02T14:17:02.195Z</time>
      </trkpt>
      <trkpt lat="44.79692" lon="1.69839">
        <ele>359.4</ele>
        <time>2014-11-02T14:17:03.191Z</time>
      </trkpt>
      <trkpt lat="44.79693" lon="1.69827">
        <ele>359.4</ele>
        <time>2014-11-02T14:17:28.175Z</time>
      </trkpt>
      <trkpt lat="44.79693" lon="1.69826">
        <ele>359.3</ele>
        <time>2014-11-02T14:17:29.175Z</time>
      </trkpt>
      <trkpt lat="44.79694" lon="1.69814">
        <ele>359.1</ele>
        <time>2014-11-02T14:17:47.177Z</time>
      </trkpt>
      <trkpt lat="44.79695" lon="1.69812">
        <ele>359.1</ele>
        <time>2014-11-02T14:17:48.175Z</time>
      </trkpt>
      <trkpt lat="44.79696" lon="1.69801">
        <ele>358.9</ele>
        <time>2014-11-02T14:17:57.173Z</time>
      </trkpt>
      <trkpt lat="44.79696" lon="1.69799">
        <ele>358.9</ele>
        <time>2014-11-02T14:17:58.23Z</time>
      </trkpt>
      <trkpt lat="44.79699" lon="1.69787">
        <ele>358.8</ele>
        <time>2014-11-02T14:18:06.502Z</time>
      </trkpt>
      <trkpt lat="44.79699" lon="1.69786">
        <ele>358.8</ele>
        <time>2014-11-02T14:18:07.187Z</time>
      </trkpt>
      <trkpt lat="44.79701" lon="1.69775">
        <ele>358.8</ele>
        <time>2014-11-02T14:18:24.189Z</time>
      </trkpt>
      <trkpt lat="44.79701" lon="1.69773">
        <ele>358.8</ele>
        <time>2014-11-02T14:18:25.186Z</time>
      </trkpt>
      <trkpt lat="44.79699" lon="1.69761">
        <ele>358.2</ele>
        <time>2014-11-02T14:18:45.181Z</time>
      </trkpt>
      <trkpt lat="44.79699" lon="1.6976">
        <ele>358.1</ele>
        <time>2014-11-02T14:18:46.243Z</time>
      </trkpt>
      <trkpt lat="44.797" lon="1.6975">
        <ele>357.9</ele>
        <time>2014-11-02T14:18:53.164Z</time>
      </trkpt>
      <trkpt lat="44.797" lon="1.69747">
        <ele>357.9</ele>
        <time>2014-11-02T14:18:54.162Z</time>
      </trkpt>
      <trkpt lat="44.79701" lon="1.69736">
        <ele>357.9</ele>
        <time>2014-11-02T14:19:01.169Z</time>
      </trkpt>
      <trkpt lat="44.79701" lon="1.69734">
        <ele>357.9</ele>
        <time>2014-11-02T14:19:02.205Z</time>
      </trkpt>
      <trkpt lat="44.79698" lon="1.69723">
        <ele>357.5</ele>
        <time>2014-11-02T14:19:26.168Z</time>
      </trkpt>
      <trkpt lat="44.79698" lon="1.69721">
        <ele>357.5</ele>
        <time>2014-11-02T14:19:27.261Z</time>
      </trkpt>
      <trkpt lat="44.79701" lon="1.6971">
        <ele>357.7</ele>
        <time>2014-11-02T14:19:52.181Z</time>
      </trkpt>
      <trkpt lat="44.79701" lon="1.69708">
        <ele>357.7</ele>
        <time>2014-11-02T14:19:53.188Z</time>
      </trkpt>
      <trkpt lat="44.797" lon="1.69696">
        <ele>357.5</ele>
        <time>2014-11-02T14:20:45.167Z</time>
      </trkpt>
      <trkpt lat="44.797" lon="1.69695">
        <ele>357.5</ele>
        <time>2014-11-02T14:20:46.223Z</time>
      </trkpt>
      <trkpt lat="44.79702" lon="1.69684">
        <ele>357.6</ele>
        <time>2014-11-02T14:21:05.329Z</time>
      </trkpt>
      <trkpt lat="44.79702" lon="1.69683">
        <ele>357.6</ele>
        <time>2014-11-02T14:21:06.176Z</time>
      </trkpt>
      <trkpt lat="44.79704" lon="1.69671">
        <ele>357.6</ele>
        <time>2014-11-02T14:21:17.202Z</time>
      </trkpt>
      <trkpt lat="44.79704" lon="1.6967">
        <ele>357.6</ele>
        <time>2014-11-02T14:21:18.295Z</time>
      </trkpt>
      <trkpt lat="44.79704" lon="1.69659">
        <ele>357.4</ele>
        <time>2014-11-02T14:21:28.191Z</time>
      </trkpt>
      <trkpt lat="44.79704" lon="1.69657">
        <ele>357.4</ele>
        <time>2014-11-02T14:21:29.193Z</time>
      </trkpt>
      <trkpt lat="44.79705" lon="1.69645">
        <ele>357.3</ele>
        <time>2014-11-02T14:21:37.18Z</time>
      </trkpt>
      <trkpt lat="44.79705" lon="1.69643">
        <ele>357.3</ele>
        <time>2014-11-02T14:21:38.18Z</time>
      </trkpt>
      <trkpt lat="44.79707" lon="1.69632">
        <ele>357.3</ele>
        <time>2014-11-02T14:21:44.317Z</time>
      </trkpt>
      <trkpt lat="44.79707" lon="1.6963">
        <ele>357.3</ele>
        <time>2014-11-02T14:21:45.191Z</time>
      </trkpt>
      <trkpt lat="44.79709" lon="1.69619">
        <ele>357.2</ele>
        <time>2014-11-02T14:21:56.36Z</time>
      </trkpt>
      <trkpt lat="44.7971" lon="1.69617">
        <ele>357.2</ele>
        <time>2014-11-02T14:21:57.189Z</time>
      </trkpt>
      <trkpt lat="44.79711" lon="1.69605">
        <ele>357.1</ele>
        <time>2014-11-02T14:22:04.19Z</time>
      </trkpt>
      <trkpt lat="44.79711" lon="1.69603">
        <ele>357</ele>
        <time>2014-11-02T14:22:05.189Z</time>
      </trkpt>
      <trkpt lat="44.79709" lon="1.69592">
        <ele>356.7</ele>
        <time>2014-11-02T14:22:14.188Z</time>
      </trkpt>
      <trkpt lat="44.79709" lon="1.69591">
        <ele>356.7</ele>
        <time>2014-11-02T14:22:15.186Z</time>
      </trkpt>
      <trkpt lat="44.79704" lon="1.696">
        <ele>356.5</ele>
        <time>2014-11-02T14:23:00.347Z</time>
      </trkpt>
      <trkpt lat="44.79704" lon="1.69602">
        <ele>356.5</ele>
        <time>2014-11-02T14:23:01.269Z</time>
      </trkpt>
      <trkpt lat="44.79711" lon="1.69593">
        <ele>356.8</ele>
        <time>2014-11-02T14:23:39.262Z</time>
      </trkpt>
      <trkpt lat="44.79711" lon="1.69592">
        <ele>356.8</ele>
        <time>2014-11-02T14:23:40.263Z</time>
      </trkpt>
      <trkpt lat="44.79713" lon="1.69581">
        <ele>356.7</ele>
        <time>2014-11-02T14:23:47.268Z</time>
      </trkpt>
      <trkpt lat="44.79713" lon="1.6958">
        <ele>356.7</ele>
        <time>2014-11-02T14:23:48.27Z</time>
      </trkpt>
      <trkpt lat="44.79714" lon="1.69568">
        <ele>356.6</ele>
        <time>2014-11-02T14:23:56.266Z</time>
      </trkpt>
      <trkpt lat="44.79714" lon="1.69566">
        <ele>356.6</ele>
        <time>2014-11-02T14:23:57.449Z</time>
      </trkpt>
      <trkpt lat="44.79715" lon="1.69554">
        <ele>356.4</ele>
        <time>2014-11-02T14:24:04.268Z</time>
      </trkpt>
      <trkpt lat="44.79715" lon="1.69552">
        <ele>356.4</ele>
        <time>2014-11-02T14:24:05.395Z</time>
      </trkpt>
      <trkpt lat="44.79716" lon="1.69541">
        <ele>356.3</ele>
        <time>2014-11-02T14:24:14.166Z</time>
      </trkpt>
      <trkpt lat="44.79716" lon="1.69539">
        <ele>356.2</ele>
        <time>2014-11-02T14:24:15.267Z</time>
      </trkpt>
      <trkpt lat="44.79716" lon="1.69528">
        <ele>356</ele>
        <time>2014-11-02T14:24:21.267Z</time>
      </trkpt>
      <trkpt lat="44.79716" lon="1.69526">
        <ele>356</ele>
        <time>2014-11-02T14:24:22.265Z</time>
      </trkpt>
      <trkpt lat="44.79717" lon="1.69514">
        <ele>355.9</ele>
        <time>2014-11-02T14:24:29.278Z</time>
      </trkpt>
      <trkpt lat="44.79717" lon="1.69512">
        <ele>355.8</ele>
        <time>2014-11-02T14:24:30.271Z</time>
      </trkpt>
      <trkpt lat="44.79717" lon="1.69499">
        <ele>355.6</ele>
        <time>2014-11-02T14:24:39.271Z</time>
      </trkpt>
      <trkpt lat="44.79717" lon="1.69498">
        <ele>355.6</ele>
        <time>2014-11-02T14:24:40.282Z</time>
      </trkpt>
      <trkpt lat="44.79718" lon="1.69486">
        <ele>355.5</ele>
        <time>2014-11-02T14:24:47.264Z</time>
      </trkpt>
      <trkpt lat="44.79719" lon="1.69484">
        <ele>355.5</ele>
        <time>2014-11-02T14:24:48.266Z</time>
      </trkpt>
      <trkpt lat="44.79721" lon="1.69473">
        <ele>355.6</ele>
        <time>2014-11-02T14:24:55.266Z</time>
      </trkpt>
      <trkpt lat="44.79722" lon="1.69472">
        <ele>355.6</ele>
        <time>2014-11-02T14:24:56.264Z</time>
      </trkpt>
      <trkpt lat="44.79725" lon="1.69461">
        <ele>355.7</ele>
        <time>2014-11-02T14:25:03.244Z</time>
      </trkpt>
      <trkpt lat="44.79725" lon="1.69459">
        <ele>355.7</ele>
        <time>2014-11-02T14:25:04.252Z</time>
      </trkpt>
      <trkpt lat="44.79726" lon="1.69448">
        <ele>355.7</ele>
        <time>2014-11-02T14:25:11.257Z</time>
      </trkpt>
      <trkpt lat="44.79727" lon="1.69446">
        <ele>355.7</ele>
        <time>2014-11-02T14:25:12.467Z</time>
      </trkpt>
      <trkpt lat="44.79728" lon="1.69435">
        <ele>355.6</ele>
        <time>2014-11-02T14:25:22.907Z</time>
      </trkpt>
      <trkpt lat="44.79728" lon="1.69433">
        <ele>355.6</ele>
        <time>2014-11-02T14:25:23.908Z</time>
      </trkpt>
      <trkpt lat="44.79729" lon="1.6942">
        <ele>355.5</ele>
        <time>2014-11-02T14:25:30.905Z</time>
      </trkpt>
      <trkpt lat="44.79729" lon="1.69418">
        <ele>355.5</ele>
        <time>2014-11-02T14:25:31.91Z</time>
      </trkpt>
      <trkpt lat="44.79729" lon="1.69406">
        <ele>355.2</ele>
        <time>2014-11-02T14:25:39.908Z</time>
      </trkpt>
      <trkpt lat="44.79729" lon="1.69405">
        <ele>355.2</ele>
        <time>2014-11-02T14:25:41.013Z</time>
      </trkpt>
      <trkpt lat="44.79731" lon="1.69393">
        <ele>354.9</ele>
        <time>2014-11-02T14:25:49.911Z</time>
      </trkpt>
      <trkpt lat="44.79731" lon="1.69392">
        <ele>354.9</ele>
        <time>2014-11-02T14:25:50.907Z</time>
      </trkpt>
      <trkpt lat="44.7973" lon="1.6938">
        <ele>354.5</ele>
        <time>2014-11-02T14:25:56.91Z</time>
      </trkpt>
      <trkpt lat="44.7973" lon="1.69379">
        <ele>354.4</ele>
        <time>2014-11-02T14:25:57.904Z</time>
      </trkpt>
      <trkpt lat="44.7973" lon="1.69368">
        <ele>354.1</ele>
        <time>2014-11-02T14:26:03.906Z</time>
      </trkpt>
      <trkpt lat="44.7973" lon="1.69365">
        <ele>354</ele>
        <time>2014-11-02T14:26:04.911Z</time>
      </trkpt>
      <trkpt lat="44.79731" lon="1.69352">
        <ele>353.7</ele>
        <time>2014-11-02T14:26:11.904Z</time>
      </trkpt>
      <trkpt lat="44.79731" lon="1.69351">
        <ele>353.6</ele>
        <time>2014-11-02T14:26:12.868Z</time>
      </trkpt>
      <trkpt lat="44.79732" lon="1.69339">
        <ele>353.3</ele>
        <time>2014-11-02T14:26:19.887Z</time>
      </trkpt>
      <trkpt lat="44.79733" lon="1.69338">
        <ele>353.3</ele>
        <time>2014-11-02T14:26:20.998Z</time>
      </trkpt>
      <trkpt lat="44.79732" lon="1.69326">
        <ele>352.8</ele>
        <time>2014-11-02T14:26:27.889Z</time>
      </trkpt>
      <trkpt lat="44.79732" lon="1.69324">
        <ele>352.7</ele>
        <time>2014-11-02T14:26:28.962Z</time>
      </trkpt>
      <trkpt lat="44.79733" lon="1.69312">
        <ele>352.2</ele>
        <time>2014-11-02T14:26:37.908Z</time>
      </trkpt>
      <trkpt lat="44.79733" lon="1.6931">
        <ele>352.1</ele>
        <time>2014-11-02T14:26:38.905Z</time>
      </trkpt>
      <trkpt lat="44.79733" lon="1.69299">
        <ele>351.6</ele>
        <time>2014-11-02T14:26:44.908Z</time>
      </trkpt>
      <trkpt lat="44.79733" lon="1.69296">
        <ele>351.5</ele>
        <time>2014-11-02T14:26:45.909Z</time>
      </trkpt>
      <trkpt lat="44.79735" lon="1.69285">
        <ele>351.1</ele>
        <time>2014-11-02T14:26:51.908Z</time>
      </trkpt>
      <trkpt lat="44.79735" lon="1.69283">
        <ele>351</ele>
        <time>2014-11-02T14:26:52.9Z</time>
      </trkpt>
      <trkpt lat="44.79738" lon="1.69273">
        <ele>350.6</ele>
        <time>2014-11-02T14:26:59.808Z</time>
      </trkpt>
      <trkpt lat="44.79738" lon="1.69271">
        <ele>350.5</ele>
        <time>2014-11-02T14:27:00.74Z</time>
      </trkpt>
      <trkpt lat="44.79739" lon="1.69259">
        <ele>350</ele>
        <time>2014-11-02T14:27:07.827Z</time>
      </trkpt>
      <trkpt lat="44.79739" lon="1.69258">
        <ele>350</ele>
        <time>2014-11-02T14:27:08.538Z</time>
      </trkpt>
      <trkpt lat="44.79739" lon="1.69245">
        <ele>349.4</ele>
        <time>2014-11-02T14:27:19.334Z</time>
      </trkpt>
      <trkpt lat="44.79739" lon="1.69243">
        <ele>349.3</ele>
        <time>2014-11-02T14:27:20.329Z</time>
      </trkpt>
      <trkpt lat="44.79741" lon="1.69232">
        <ele>349</ele>
        <time>2014-11-02T14:27:28.327Z</time>
      </trkpt>
      <trkpt lat="44.79741" lon="1.69229">
        <ele>348.9</ele>
        <time>2014-11-02T14:27:29.431Z</time>
      </trkpt>
      <trkpt lat="44.79741" lon="1.69217">
        <ele>348.5</ele>
        <time>2014-11-02T14:27:37.369Z</time>
      </trkpt>
      <trkpt lat="44.79741" lon="1.69216">
        <ele>348.4</ele>
        <time>2014-11-02T14:27:38.273Z</time>
      </trkpt>
      <trkpt lat="44.79743" lon="1.69204">
        <ele>348.1</ele>
        <time>2014-11-02T14:27:45.468Z</time>
      </trkpt>
      <trkpt lat="44.79743" lon="1.69202">
        <ele>348</ele>
        <time>2014-11-02T14:27:46.328Z</time>
      </trkpt>
      <trkpt lat="44.79743" lon="1.6919">
        <ele>347.6</ele>
        <time>2014-11-02T14:27:54.327Z</time>
      </trkpt>
      <trkpt lat="44.79743" lon="1.69189">
        <ele>347.6</ele>
        <time>2014-11-02T14:27:55.329Z</time>
      </trkpt>
      <trkpt lat="44.79748" lon="1.69181">
        <ele>347.4</ele>
        <time>2014-11-02T14:28:04.315Z</time>
      </trkpt>
      <trkpt lat="44.79748" lon="1.69178">
        <ele>347.3</ele>
        <time>2014-11-02T14:28:05.325Z</time>
      </trkpt>
      <trkpt lat="44.79751" lon="1.69168">
        <ele>347</ele>
        <time>2014-11-02T14:28:11.329Z</time>
      </trkpt>
      <trkpt lat="44.79751" lon="1.69166">
        <ele>347</ele>
        <time>2014-11-02T14:28:12.328Z</time>
      </trkpt>
      <trkpt lat="44.79754" lon="1.69157">
        <ele>346.8</ele>
        <time>2014-11-02T14:28:19.328Z</time>
      </trkpt>
      <trkpt lat="44.79755" lon="1.69154">
        <ele>346.7</ele>
        <time>2014-11-02T14:28:20.333Z</time>
      </trkpt>
      <trkpt lat="44.79757" lon="1.69143">
        <ele>346.5</ele>
        <time>2014-11-02T14:28:28.325Z</time>
      </trkpt>
      <trkpt lat="44.79758" lon="1.69141">
        <ele>346.5</ele>
        <time>2014-11-02T14:28:29.329Z</time>
      </trkpt>
      <trkpt lat="44.79762" lon="1.69131">
        <ele>346.3</ele>
        <time>2014-11-02T14:28:37.331Z</time>
      </trkpt>
      <trkpt lat="44.79763" lon="1.6913">
        <ele>346.3</ele>
        <time>2014-11-02T14:28:38.331Z</time>
      </trkpt>
      <trkpt lat="44.79766" lon="1.69118">
        <ele>346.2</ele>
        <time>2014-11-02T14:28:45.464Z</time>
      </trkpt>
      <trkpt lat="44.79766" lon="1.69117">
        <ele>346.2</ele>
        <time>2014-11-02T14:28:46.33Z</time>
      </trkpt>
      <trkpt lat="44.79769" lon="1.69106">
        <ele>346.1</ele>
        <time>2014-11-02T14:28:54.332Z</time>
      </trkpt>
      <trkpt lat="44.7977" lon="1.69106">
        <ele>346.1</ele>
        <time>2014-11-02T14:28:55.331Z</time>
      </trkpt>
      <trkpt lat="44.79774" lon="1.69095">
        <ele>346</ele>
        <time>2014-11-02T14:29:03.33Z</time>
      </trkpt>
      <trkpt lat="44.79774" lon="1.69093">
        <ele>346</ele>
        <time>2014-11-02T14:29:04.312Z</time>
      </trkpt>
      <trkpt lat="44.79776" lon="1.69082">
        <ele>346</ele>
        <time>2014-11-02T14:29:12.313Z</time>
      </trkpt>
      <trkpt lat="44.79776" lon="1.69081">
        <ele>346.1</ele>
        <time>2014-11-02T14:29:13.472Z</time>
      </trkpt>
      <trkpt lat="44.79781" lon="1.69071">
        <ele>346.3</ele>
        <time>2014-11-02T14:29:21.456Z</time>
      </trkpt>
      <trkpt lat="44.79782" lon="1.6907">
        <ele>346.3</ele>
        <time>2014-11-02T14:29:22.329Z</time>
      </trkpt>
      <trkpt lat="44.79783" lon="1.69058">
        <ele>346.5</ele>
        <time>2014-11-02T14:29:29.318Z</time>
      </trkpt>
      <trkpt lat="44.79783" lon="1.69056">
        <ele>346.6</ele>
        <time>2014-11-02T14:29:30.319Z</time>
      </trkpt>
      <trkpt lat="44.79787" lon="1.69046">
        <ele>346.9</ele>
        <time>2014-11-02T14:29:37.328Z</time>
      </trkpt>
      <trkpt lat="44.79788" lon="1.69045">
        <ele>346.9</ele>
        <time>2014-11-02T14:29:38.328Z</time>
      </trkpt>
      <trkpt lat="44.79791" lon="1.69034">
        <ele>347.2</ele>
        <time>2014-11-02T14:29:47.329Z</time>
      </trkpt>
      <trkpt lat="44.79792" lon="1.69033">
        <ele>347.2</ele>
        <time>2014-11-02T14:29:48.328Z</time>
      </trkpt>
      <trkpt lat="44.79796" lon="1.69024">
        <ele>347.5</ele>
        <time>2014-11-02T14:29:54.461Z</time>
      </trkpt>
      <trkpt lat="44.79797" lon="1.69022">
        <ele>347.6</ele>
        <time>2014-11-02T14:29:55.318Z</time>
      </trkpt>
      <trkpt lat="44.79798" lon="1.69012">
        <ele>347.9</ele>
        <time>2014-11-02T14:30:03.226Z</time>
      </trkpt>
      <trkpt lat="44.79799" lon="1.6901">
        <ele>347.9</ele>
        <time>2014-11-02T14:30:04.321Z</time>
      </trkpt>
      <trkpt lat="44.79801" lon="1.68998">
        <ele>348.2</ele>
        <time>2014-11-02T14:30:10.328Z</time>
      </trkpt>
      <trkpt lat="44.79801" lon="1.68997">
        <ele>348.2</ele>
        <time>2014-11-02T14:30:11.33Z</time>
      </trkpt>
      <trkpt lat="44.79804" lon="1.68985">
        <ele>348.3</ele>
        <time>2014-11-02T14:30:20.33Z</time>
      </trkpt>
      <trkpt lat="44.79804" lon="1.68984">
        <ele>348.3</ele>
        <time>2014-11-02T14:30:21.328Z</time>
      </trkpt>
      <trkpt lat="44.79809" lon="1.68974">
        <ele>348.5</ele>
        <time>2014-11-02T14:30:31.312Z</time>
      </trkpt>
      <trkpt lat="44.7981" lon="1.68973">
        <ele>348.5</ele>
        <time>2014-11-02T14:30:32.311Z</time>
      </trkpt>
      <trkpt lat="44.79814" lon="1.68962">
        <ele>348.7</ele>
        <time>2014-11-02T14:30:38.453Z</time>
      </trkpt>
      <trkpt lat="44.79814" lon="1.68961">
        <ele>348.7</ele>
        <time>2014-11-02T14:30:39.328Z</time>
      </trkpt>
      <trkpt lat="44.79817" lon="1.6895">
        <ele>348.9</ele>
        <time>2014-11-02T14:30:46.449Z</time>
      </trkpt>
      <trkpt lat="44.79818" lon="1.68948">
        <ele>348.9</ele>
        <time>2014-11-02T14:30:47.328Z</time>
      </trkpt>
      <trkpt lat="44.79821" lon="1.68937">
        <ele>349.1</ele>
        <time>2014-11-02T14:30:54.327Z</time>
      </trkpt>
      <trkpt lat="44.79821" lon="1.68936">
        <ele>349.2</ele>
        <time>2014-11-02T14:30:55.331Z</time>
      </trkpt>
      <trkpt lat="44.79823" lon="1.68925">
        <ele>349.3</ele>
        <time>2014-11-02T14:31:04.332Z</time>
      </trkpt>
      <trkpt lat="44.79824" lon="1.68922">
        <ele>349.4</ele>
        <time>2014-11-02T14:31:05.332Z</time>
      </trkpt>
      <trkpt lat="44.79828" lon="1.68912">
        <ele>349.6</ele>
        <time>2014-11-02T14:31:12.369Z</time>
      </trkpt>
      <trkpt lat="44.79828" lon="1.68911">
        <ele>349.6</ele>
        <time>2014-11-02T14:31:13.329Z</time>
      </trkpt>
      <trkpt lat="44.79832" lon="1.689">
        <ele>349.7</ele>
        <time>2014-11-02T14:31:21.33Z</time>
      </trkpt>
      <trkpt lat="44.79833" lon="1.68898">
        <ele>349.7</ele>
        <time>2014-11-02T14:31:22.443Z</time>
      </trkpt>
      <trkpt lat="44.79836" lon="1.68887">
        <ele>349.6</ele>
        <time>2014-11-02T14:31:30.434Z</time>
      </trkpt>
      <trkpt lat="44.79836" lon="1.68886">
        <ele>349.6</ele>
        <time>2014-11-02T14:31:31.328Z</time>
      </trkpt>
      <trkpt lat="44.79841" lon="1.68875">
        <ele>349.5</ele>
        <time>2014-11-02T14:31:39.312Z</time>
      </trkpt>
      <trkpt lat="44.79841" lon="1.68874">
        <ele>349.5</ele>
        <time>2014-11-02T14:31:40.318Z</time>
      </trkpt>
      <trkpt lat="44.79843" lon="1.68862">
        <ele>349.4</ele>
        <time>2014-11-02T14:31:47.328Z</time>
      </trkpt>
      <trkpt lat="44.79843" lon="1.68861">
        <ele>349.4</ele>
        <time>2014-11-02T14:31:48.328Z</time>
      </trkpt>
      <trkpt lat="44.79846" lon="1.6885">
        <ele>349.4</ele>
        <time>2014-11-02T14:31:56.329Z</time>
      </trkpt>
      <trkpt lat="44.79847" lon="1.68848">
        <ele>349.4</ele>
        <time>2014-11-02T14:31:57.33Z</time>
      </trkpt>
      <trkpt lat="44.79852" lon="1.68839">
        <ele>349.5</ele>
        <time>2014-11-02T14:32:08.273Z</time>
      </trkpt>
      <trkpt lat="44.79853" lon="1.68838">
        <ele>349.5</ele>
        <time>2014-11-02T14:32:09.33Z</time>
      </trkpt>
      <trkpt lat="44.79855" lon="1.68826">
        <ele>349.3</ele>
        <time>2014-11-02T14:32:15.33Z</time>
      </trkpt>
      <trkpt lat="44.79856" lon="1.68825">
        <ele>349.3</ele>
        <time>2014-11-02T14:32:16.328Z</time>
      </trkpt>
      <trkpt lat="44.79859" lon="1.68813">
        <ele>349.1</ele>
        <time>2014-11-02T14:32:43.321Z</time>
      </trkpt>
      <trkpt lat="44.7986" lon="1.68811">
        <ele>349.1</ele>
        <time>2014-11-02T14:32:44.316Z</time>
      </trkpt>
      <trkpt lat="44.79864" lon="1.688">
        <ele>349</ele>
        <time>2014-11-02T14:32:53.318Z</time>
      </trkpt>
      <trkpt lat="44.79864" lon="1.68798">
        <ele>348.9</ele>
        <time>2014-11-02T14:32:54.317Z</time>
      </trkpt>
      <trkpt lat="44.79866" lon="1.68787">
        <ele>348.7</ele>
        <time>2014-11-02T14:33:02.326Z</time>
      </trkpt>
      <trkpt lat="44.79866" lon="1.68785">
        <ele>348.7</ele>
        <time>2014-11-02T14:33:03.316Z</time>
      </trkpt>
      <trkpt lat="44.79867" lon="1.68773">
        <ele>348.5</ele>
        <time>2014-11-02T14:33:24.975Z</time>
      </trkpt>
      <trkpt lat="44.79867" lon="1.68772">
        <ele>348.5</ele>
        <time>2014-11-02T14:33:25.777Z</time>
      </trkpt>
      <trkpt lat="44.79867" lon="1.68761">
        <ele>348.3</ele>
        <time>2014-11-02T14:33:36.923Z</time>
      </trkpt>
      <trkpt lat="44.79867" lon="1.68759">
        <ele>348.2</ele>
        <time>2014-11-02T14:33:37.069Z</time>
      </trkpt>
      <trkpt lat="44.79868" lon="1.68747">
        <ele>347.9</ele>
        <time>2014-11-02T14:33:47.159Z</time>
      </trkpt>
      <trkpt lat="44.79868" lon="1.68745">
        <ele>347.9</ele>
        <time>2014-11-02T14:33:48.126Z</time>
      </trkpt>
      <trkpt lat="44.79869" lon="1.68734">
        <ele>347.4</ele>
        <time>2014-11-02T14:33:57.153Z</time>
      </trkpt>
      <trkpt lat="44.79869" lon="1.68733">
        <ele>347.4</ele>
        <time>2014-11-02T14:33:58.154Z</time>
      </trkpt>
      <trkpt lat="44.7987" lon="1.68721">
        <ele>346.9</ele>
        <time>2014-11-02T14:34:04.153Z</time>
      </trkpt>
      <trkpt lat="44.7987" lon="1.68719">
        <ele>346.8</ele>
        <time>2014-11-02T14:34:05.157Z</time>
      </trkpt>
      <trkpt lat="44.79868" lon="1.68708">
        <ele>346.2</ele>
        <time>2014-11-02T14:34:18.155Z</time>
      </trkpt>
      <trkpt lat="44.79867" lon="1.68706">
        <ele>346</ele>
        <time>2014-11-02T14:34:19.154Z</time>
      </trkpt>
      <trkpt lat="44.79867" lon="1.68694">
        <ele>345.5</ele>
        <time>2014-11-02T14:34:26.222Z</time>
      </trkpt>
      <trkpt lat="44.79868" lon="1.68693">
        <ele>345.5</ele>
        <time>2014-11-02T14:34:27.175Z</time>
      </trkpt>
      <trkpt lat="44.79869" lon="1.6868">
        <ele>345</ele>
        <time>2014-11-02T14:34:37.171Z</time>
      </trkpt>
      <trkpt lat="44.79869" lon="1.6868">
        <ele>345</ele>
        <time>2014-11-02T14:34:38.171Z</time>
      </trkpt>
      <trkpt lat="44.79869" lon="1.68667">
        <ele>344.5</ele>
        <time>2014-11-02T14:34:43.175Z</time>
      </trkpt>
      <trkpt lat="44.7987" lon="1.68664">
        <ele>344.3</ele>
        <time>2014-11-02T14:34:44.17Z</time>
      </trkpt>
      <trkpt lat="44.7987" lon="1.68653">
        <ele>343.7</ele>
        <time>2014-11-02T14:34:54.162Z</time>
      </trkpt>
      <trkpt lat="44.79871" lon="1.68651">
        <ele>343.6</ele>
        <time>2014-11-02T14:34:55.162Z</time>
      </trkpt>
      <trkpt lat="44.79874" lon="1.6864">
        <ele>343.1</ele>
        <time>2014-11-02T14:35:03.074Z</time>
      </trkpt>
      <trkpt lat="44.79874" lon="1.68639">
        <ele>343.1</ele>
        <time>2014-11-02T14:35:04.183Z</time>
      </trkpt>
      <trkpt lat="44.79877" lon="1.68628">
        <ele>342.6</ele>
        <time>2014-11-02T14:35:12.181Z</time>
      </trkpt>
      <trkpt lat="44.79877" lon="1.68626">
        <ele>342.5</ele>
        <time>2014-11-02T14:35:13.174Z</time>
      </trkpt>
      <trkpt lat="44.79878" lon="1.68613">
        <ele>341.8</ele>
        <time>2014-11-02T14:35:21.176Z</time>
      </trkpt>
      <trkpt lat="44.79878" lon="1.68612">
        <ele>341.7</ele>
        <time>2014-11-02T14:35:22.173Z</time>
      </trkpt>
      <trkpt lat="44.7988" lon="1.686">
        <ele>341</ele>
        <time>2014-11-02T14:35:29.171Z</time>
      </trkpt>
      <trkpt lat="44.7988" lon="1.68598">
        <ele>340.9</ele>
        <time>2014-11-02T14:35:30.171Z</time>
      </trkpt>
      <trkpt lat="44.79879" lon="1.68586">
        <ele>340</ele>
        <time>2014-11-02T14:35:38.159Z</time>
      </trkpt>
      <trkpt lat="44.79879" lon="1.68584">
        <ele>339.9</ele>
        <time>2014-11-02T14:35:39.159Z</time>
      </trkpt>
      <trkpt lat="44.79883" lon="1.68573">
        <ele>339.4</ele>
        <time>2014-11-02T14:35:45.405Z</time>
      </trkpt>
      <trkpt lat="44.79884" lon="1.68572">
        <ele>339.4</ele>
        <time>2014-11-02T14:35:46.398Z</time>
      </trkpt>
      <trkpt lat="44.79882" lon="1.6856">
        <ele>338.4</ele>
        <time>2014-11-02T14:36:03.388Z</time>
      </trkpt>
      <trkpt lat="44.79882" lon="1.68558">
        <ele>338.3</ele>
        <time>2014-11-02T14:36:04.4Z</time>
      </trkpt>
      <trkpt lat="44.79886" lon="1.68548">
        <ele>338</ele>
        <time>2014-11-02T14:36:11.397Z</time>
      </trkpt>
      <trkpt lat="44.79887" lon="1.68546">
        <ele>338</ele>
        <time>2014-11-02T14:36:12.459Z</time>
      </trkpt>
      <trkpt lat="44.79888" lon="1.68534">
        <ele>337.3</ele>
        <time>2014-11-02T14:36:20.433Z</time>
      </trkpt>
      <trkpt lat="44.79888" lon="1.68533">
        <ele>337.2</ele>
        <time>2014-11-02T14:36:21.46Z</time>
      </trkpt>
      <trkpt lat="44.79892" lon="1.68522">
        <ele>336.8</ele>
        <time>2014-11-02T14:36:35.406Z</time>
      </trkpt>
      <trkpt lat="44.79892" lon="1.68521">
        <ele>336.7</ele>
        <time>2014-11-02T14:36:36.478Z</time>
      </trkpt>
      <trkpt lat="44.79891" lon="1.68509">
        <ele>335.9</ele>
        <time>2014-11-02T14:36:51.406Z</time>
      </trkpt>
      <trkpt lat="44.79892" lon="1.68508">
        <ele>335.9</ele>
        <time>2014-11-02T14:36:52.55Z</time>
      </trkpt>
      <trkpt lat="44.79891" lon="1.68497">
        <ele>335</ele>
        <time>2014-11-02T14:37:00.629Z</time>
      </trkpt>
      <trkpt lat="44.79891" lon="1.68495">
        <ele>334.8</ele>
        <time>2014-11-02T14:37:01.401Z</time>
      </trkpt>
      <trkpt lat="44.79892" lon="1.68483">
        <ele>334</ele>
        <time>2014-11-02T14:37:10.399Z</time>
      </trkpt>
      <trkpt lat="44.79892" lon="1.68482">
        <ele>334</ele>
        <time>2014-11-02T14:37:11.403Z</time>
      </trkpt>
      <trkpt lat="44.79893" lon="1.68469">
        <ele>333.1</ele>
        <time>2014-11-02T14:37:19.392Z</time>
      </trkpt>
      <trkpt lat="44.79894" lon="1.68469">
        <ele>333.1</ele>
        <time>2014-11-02T14:37:20.497Z</time>
      </trkpt>
      <trkpt lat="44.79897" lon="1.68457">
        <ele>332.5</ele>
        <time>2014-11-02T14:37:31.852Z</time>
      </trkpt>
      <trkpt lat="44.79898" lon="1.68456">
        <ele>332.5</ele>
        <time>2014-11-02T14:37:33.021Z</time>
      </trkpt>
      <trkpt lat="44.79903" lon="1.68447">
        <ele>332.2</ele>
        <time>2014-11-02T14:37:39.91Z</time>
      </trkpt>
      <trkpt lat="44.79903" lon="1.68445">
        <ele>332.1</ele>
        <time>2014-11-02T14:37:40.952Z</time>
      </trkpt>
      <trkpt lat="44.79905" lon="1.68433">
        <ele>331.4</ele>
        <time>2014-11-02T14:37:49.046Z</time>
      </trkpt>
      <trkpt lat="44.79906" lon="1.68432">
        <ele>331.3</ele>
        <time>2014-11-02T14:37:49.907Z</time>
      </trkpt>
      <trkpt lat="44.7991" lon="1.68421">
        <ele>330.8</ele>
        <time>2014-11-02T14:37:57.912Z</time>
      </trkpt>
      <trkpt lat="44.79911" lon="1.6842">
        <ele>330.8</ele>
        <time>2014-11-02T14:37:58.909Z</time>
      </trkpt>
      <trkpt lat="44.79916" lon="1.68412">
        <ele>330.5</ele>
        <time>2014-11-02T14:38:06.971Z</time>
      </trkpt>
      <trkpt lat="44.79916" lon="1.6841">
        <ele>330.4</ele>
        <time>2014-11-02T14:38:07.813Z</time>
      </trkpt>
      <trkpt lat="44.7992" lon="1.68398">
        <ele>329.1</ele>
        <time>2014-11-02T14:38:15.855Z</time>
      </trkpt>
      <trkpt lat="44.79921" lon="1.68395">
        <ele>328.7</ele>
        <time>2014-11-02T14:38:16.893Z</time>
      </trkpt>
      <trkpt lat="44.79922" lon="1.68384">
        <ele>327.7</ele>
        <time>2014-11-02T14:38:24.845Z</time>
      </trkpt>
      <trkpt lat="44.79924" lon="1.68382">
        <ele>327.4</ele>
        <time>2014-11-02T14:38:25.889Z</time>
      </trkpt>
      <trkpt lat="44.79928" lon="1.68371">
        <ele>326.1</ele>
        <time>2014-11-02T14:38:41.886Z</time>
      </trkpt>
      <trkpt lat="44.79928" lon="1.68368">
        <ele>325.9</ele>
        <time>2014-11-02T14:38:42.911Z</time>
      </trkpt>
      <trkpt lat="44.7993" lon="1.68357">
        <ele>324.9</ele>
        <time>2014-11-02T14:38:48.888Z</time>
      </trkpt>
      <trkpt lat="44.79931" lon="1.68356">
        <ele>324.8</ele>
        <time>2014-11-02T14:38:49.898Z</time>
      </trkpt>
      <trkpt lat="44.79933" lon="1.68344">
        <ele>323.8</ele>
        <time>2014-11-02T14:39:03.843Z</time>
      </trkpt>
      <trkpt lat="44.79933" lon="1.68343">
        <ele>323.7</ele>
        <time>2014-11-02T14:39:04.902Z</time>
      </trkpt>
      <trkpt lat="44.79936" lon="1.68332">
        <ele>322.7</ele>
        <time>2014-11-02T14:39:14.91Z</time>
      </trkpt>
      <trkpt lat="44.79936" lon="1.68331">
        <ele>322.6</ele>
        <time>2014-11-02T14:39:16.01Z</time>
      </trkpt>
      <trkpt lat="44.7994" lon="1.6832">
        <ele>321.5</ele>
        <time>2014-11-02T14:39:23.9Z</time>
      </trkpt>
      <trkpt lat="44.79941" lon="1.68319">
        <ele>321.4</ele>
        <time>2014-11-02T14:39:24.9Z</time>
      </trkpt>
      <trkpt lat="44.79949" lon="1.68315">
        <ele>320.6</ele>
        <time>2014-11-02T14:39:34.907Z</time>
      </trkpt>
      <trkpt lat="44.79949" lon="1.68314">
        <ele>320.5</ele>
        <time>2014-11-02T14:39:35.908Z</time>
      </trkpt>
      <trkpt lat="44.79957" lon="1.68311">
        <ele>320</ele>
        <time>2014-11-02T14:39:44.891Z</time>
      </trkpt>
      <trkpt lat="44.79958" lon="1.6831">
        <ele>319.8</ele>
        <time>2014-11-02T14:39:45.904Z</time>
      </trkpt>
      <trkpt lat="44.79962" lon="1.68302">
        <ele>319.1</ele>
        <time>2014-11-02T14:39:49.901Z</time>
      </trkpt>
      <trkpt lat="44.79964" lon="1.68301">
        <ele>318.9</ele>
        <time>2014-11-02T14:39:50.908Z</time>
      </trkpt>
      <trkpt lat="44.79971" lon="1.68293">
        <ele>318.1</ele>
        <time>2014-11-02T14:39:59.972Z</time>
      </trkpt>
      <trkpt lat="44.79972" lon="1.68291">
        <ele>318</ele>
        <time>2014-11-02T14:40:00.907Z</time>
      </trkpt>
      <trkpt lat="44.79977" lon="1.68281">
        <ele>317.2</ele>
        <time>2014-11-02T14:40:09.713Z</time>
      </trkpt>
      <trkpt lat="44.79977" lon="1.6828">
        <ele>317.1</ele>
        <time>2014-11-02T14:40:10.469Z</time>
      </trkpt>
      <trkpt lat="44.7998" lon="1.68268">
        <ele>316.3</ele>
        <time>2014-11-02T14:40:43.441Z</time>
      </trkpt>
      <trkpt lat="44.7998" lon="1.68267">
        <ele>316.3</ele>
        <time>2014-11-02T14:40:44.449Z</time>
      </trkpt>
      <trkpt lat="44.79988" lon="1.68272">
        <ele>316.4</ele>
        <time>2014-11-02T14:44:15.192Z</time>
      </trkpt>
      <trkpt lat="44.79988" lon="1.68273">
        <ele>316.4</ele>
        <time>2014-11-02T14:44:16.199Z</time>
      </trkpt>
      <trkpt lat="44.79996" lon="1.68276">
        <ele>316.4</ele>
        <time>2014-11-02T14:44:23.268Z</time>
      </trkpt>
      <trkpt lat="44.79997" lon="1.68276">
        <ele>316.3</ele>
        <time>2014-11-02T14:44:24.264Z</time>
      </trkpt>
      <trkpt lat="44.80004" lon="1.68281">
        <ele>315.5</ele>
        <time>2014-11-02T14:44:42.253Z</time>
      </trkpt>
      <trkpt lat="44.80005" lon="1.68281">
        <ele>315.3</ele>
        <time>2014-11-02T14:44:43.25Z</time>
      </trkpt>
      <trkpt lat="44.80013" lon="1.68285">
        <ele>313.7</ele>
        <time>2014-11-02T14:44:52.161Z</time>
      </trkpt>
      <trkpt lat="44.80014" lon="1.68285">
        <ele>313.5</ele>
        <time>2014-11-02T14:44:53.17Z</time>
      </trkpt>
      <trkpt lat="44.80021" lon="1.68277">
        <ele>311.9</ele>
        <time>2014-11-02T14:45:00.162Z</time>
      </trkpt>
      <trkpt lat="44.80021" lon="1.68275">
        <ele>311.6</ele>
        <time>2014-11-02T14:45:01.246Z</time>
      </trkpt>
      <trkpt lat="44.80024" lon="1.68263">
        <ele>310.9</ele>
        <time>2014-11-02T14:45:11.261Z</time>
      </trkpt>
      <trkpt lat="44.80025" lon="1.68262">
        <ele>310.7</ele>
        <time>2014-11-02T14:45:12.272Z</time>
      </trkpt>
      <trkpt lat="44.80032" lon="1.68255">
        <ele>309.3</ele>
        <time>2014-11-02T14:45:22.338Z</time>
      </trkpt>
      <trkpt lat="44.80032" lon="1.68253">
        <ele>309.3</ele>
        <time>2014-11-02T14:45:23.243Z</time>
      </trkpt>
      <trkpt lat="44.80038" lon="1.68244">
        <ele>308.3</ele>
        <time>2014-11-02T14:45:33.263Z</time>
      </trkpt>
      <trkpt lat="44.80038" lon="1.68243">
        <ele>308.2</ele>
        <time>2014-11-02T14:45:34.269Z</time>
      </trkpt>
      <trkpt lat="44.80044" lon="1.68233">
        <ele>307.6</ele>
        <time>2014-11-02T14:45:47.261Z</time>
      </trkpt>
      <trkpt lat="44.80044" lon="1.68232">
        <ele>307.5</ele>
        <time>2014-11-02T14:45:48.261Z</time>
      </trkpt>
      <trkpt lat="44.80047" lon="1.68221">
        <ele>307.5</ele>
        <time>2014-11-02T14:45:54.252Z</time>
      </trkpt>
      <trkpt lat="44.80047" lon="1.6822">
        <ele>307.5</ele>
        <time>2014-11-02T14:45:55.248Z</time>
      </trkpt>
      <trkpt lat="44.80051" lon="1.6821">
        <ele>307.4</ele>
        <time>2014-11-02T14:46:04.264Z</time>
      </trkpt>
      <trkpt lat="44.80052" lon="1.68209">
        <ele>307.3</ele>
        <time>2014-11-02T14:46:05.259Z</time>
      </trkpt>
      <trkpt lat="44.80055" lon="1.6822">
        <ele>306.5</ele>
        <time>2014-11-02T14:46:28.263Z</time>
      </trkpt>
      <trkpt lat="44.80055" lon="1.68221">
        <ele>306.5</ele>
        <time>2014-11-02T14:46:29.263Z</time>
      </trkpt>
      <trkpt lat="44.80052" lon="1.68233">
        <ele>306.4</ele>
        <time>2014-11-02T14:46:38.262Z</time>
      </trkpt>
      <trkpt lat="44.80051" lon="1.68233">
        <ele>306.4</ele>
        <time>2014-11-02T14:46:39.394Z</time>
      </trkpt>
      <trkpt lat="44.80049" lon="1.68245">
        <ele>306.3</ele>
        <time>2014-11-02T14:46:50.259Z</time>
      </trkpt>
      <trkpt lat="44.80049" lon="1.68246">
        <ele>306.3</ele>
        <time>2014-11-02T14:46:51.312Z</time>
      </trkpt>
      <trkpt lat="44.80048" lon="1.68258">
        <ele>306.3</ele>
        <time>2014-11-02T14:47:01.263Z</time>
      </trkpt>
      <trkpt lat="44.80048" lon="1.68259">
        <ele>306.3</ele>
        <time>2014-11-02T14:47:02.267Z</time>
      </trkpt>
      <trkpt lat="44.80046" lon="1.68271">
        <ele>306.4</ele>
        <time>2014-11-02T14:47:11.399Z</time>
      </trkpt>
      <trkpt lat="44.80047" lon="1.68275">
        <ele>306.3</ele>
        <time>2014-11-02T14:47:12.263Z</time>
      </trkpt>
      <trkpt lat="44.80048" lon="1.68287">
        <ele>305.9</ele>
        <time>2014-11-02T14:47:17.258Z</time>
      </trkpt>
      <trkpt lat="44.80048" lon="1.68289">
        <ele>305.8</ele>
        <time>2014-11-02T14:47:18.274Z</time>
      </trkpt>
      <trkpt lat="44.80047" lon="1.68302">
        <ele>305.9</ele>
        <time>2014-11-02T14:47:28.244Z</time>
      </trkpt>
      <trkpt lat="44.80047" lon="1.68303">
        <ele>305.9</ele>
        <time>2014-11-02T14:47:29.266Z</time>
      </trkpt>
      <trkpt lat="44.80044" lon="1.68315">
        <ele>306.5</ele>
        <time>2014-11-02T14:47:37.263Z</time>
      </trkpt>
      <trkpt lat="44.80044" lon="1.68315">
        <ele>306.6</ele>
        <time>2014-11-02T14:47:38.266Z</time>
      </trkpt>
      <trkpt lat="44.80043" lon="1.68327">
        <ele>306.8</ele>
        <time>2014-11-02T14:47:51.264Z</time>
      </trkpt>
      <trkpt lat="44.80043" lon="1.68328">
        <ele>306.8</ele>
        <time>2014-11-02T14:47:52.297Z</time>
      </trkpt>
      <trkpt lat="44.80043" lon="1.6834">
        <ele>306.4</ele>
        <time>2014-11-02T14:48:49.262Z</time>
      </trkpt>
      <trkpt lat="44.80043" lon="1.68342">
        <ele>306.4</ele>
        <time>2014-11-02T14:48:50.261Z</time>
      </trkpt>
      <trkpt lat="44.80043" lon="1.68354">
        <ele>306.4</ele>
        <time>2014-11-02T14:48:58.194Z</time>
      </trkpt>
      <trkpt lat="44.80043" lon="1.68355">
        <ele>306.4</ele>
        <time>2014-11-02T14:48:59.411Z</time>
      </trkpt>
      <trkpt lat="44.80048" lon="1.68365">
        <ele>304.8</ele>
        <time>2014-11-02T14:49:06.241Z</time>
      </trkpt>
      <trkpt lat="44.80049" lon="1.68366">
        <ele>304.4</ele>
        <time>2014-11-02T14:49:07.261Z</time>
      </trkpt>
      <trkpt lat="44.80055" lon="1.68372">
        <ele>302.2</ele>
        <time>2014-11-02T14:49:13.249Z</time>
      </trkpt>
      <trkpt lat="44.80056" lon="1.68373">
        <ele>301.8</ele>
        <time>2014-11-02T14:49:14.25Z</time>
      </trkpt>
      <trkpt lat="44.80064" lon="1.68379">
        <ele>299.3</ele>
        <time>2014-11-02T14:49:23.203Z</time>
      </trkpt>
      <trkpt lat="44.80065" lon="1.68379">
        <ele>298.9</ele>
        <time>2014-11-02T14:49:24.263Z</time>
      </trkpt>
      <trkpt lat="44.80072" lon="1.68382">
        <ele>296.3</ele>
        <time>2014-11-02T14:49:34.265Z</time>
      </trkpt>
      <trkpt lat="44.80073" lon="1.68383">
        <ele>295.9</ele>
        <time>2014-11-02T14:49:35.452Z</time>
      </trkpt>
      <trkpt lat="44.80082" lon="1.68386">
        <ele>292.9</ele>
        <time>2014-11-02T14:49:46.247Z</time>
      </trkpt>
      <trkpt lat="44.80083" lon="1.68386">
        <ele>292.7</ele>
        <time>2014-11-02T14:49:47.348Z</time>
      </trkpt>
      <trkpt lat="44.80091" lon="1.68388">
        <ele>291.1</ele>
        <time>2014-11-02T14:49:59.275Z</time>
      </trkpt>
      <trkpt lat="44.80092" lon="1.68388">
        <ele>291</ele>
        <time>2014-11-02T14:50:00.332Z</time>
      </trkpt>
      <trkpt lat="44.80101" lon="1.68391">
        <ele>289.6</ele>
        <time>2014-11-02T14:50:09.24Z</time>
      </trkpt>
      <trkpt lat="44.80101" lon="1.68391">
        <ele>289.5</ele>
        <time>2014-11-02T14:50:10.265Z</time>
      </trkpt>
      <trkpt lat="44.80109" lon="1.68395">
        <ele>288.1</ele>
        <time>2014-11-02T14:50:22.261Z</time>
      </trkpt>
      <trkpt lat="44.8011" lon="1.68395">
        <ele>288</ele>
        <time>2014-11-02T14:50:23.34Z</time>
      </trkpt>
      <trkpt lat="44.80117" lon="1.68398">
        <ele>286.7</ele>
        <time>2014-11-02T14:50:43.329Z</time>
      </trkpt>
      <trkpt lat="44.80119" lon="1.68398">
        <ele>286.5</ele>
        <time>2014-11-02T14:50:44.242Z</time>
      </trkpt>
      <trkpt lat="44.80126" lon="1.68401">
        <ele>285.3</ele>
        <time>2014-11-02T14:50:53.262Z</time>
      </trkpt>
      <trkpt lat="44.80128" lon="1.68402">
        <ele>285.1</ele>
        <time>2014-11-02T14:50:54.314Z</time>
      </trkpt>
      <trkpt lat="44.80136" lon="1.68406">
        <ele>283.7</ele>
        <time>2014-11-02T14:51:03.398Z</time>
      </trkpt>
      <trkpt lat="44.80137" lon="1.68407">
        <ele>283.5</ele>
        <time>2014-11-02T14:51:04.264Z</time>
      </trkpt>
      <trkpt lat="44.80145" lon="1.68405">
        <ele>282.3</ele>
        <time>2014-11-02T14:51:13.259Z</time>
      </trkpt>
      <trkpt lat="44.80147" lon="1.68404">
        <ele>282.2</ele>
        <time>2014-11-02T14:51:14.254Z</time>
      </trkpt>
      <trkpt lat="44.80155" lon="1.68404">
        <ele>280.9</ele>
        <time>2014-11-02T14:51:35.266Z</time>
      </trkpt>
      <trkpt lat="44.80156" lon="1.68404">
        <ele>280.8</ele>
        <time>2014-11-02T14:51:36.341Z</time>
      </trkpt>
      <trkpt lat="44.80164" lon="1.68407">
        <ele>279.5</ele>
        <time>2014-11-02T14:51:43.262Z</time>
      </trkpt>
      <trkpt lat="44.80165" lon="1.68407">
        <ele>279.3</ele>
        <time>2014-11-02T14:51:44.398Z</time>
      </trkpt>
      <trkpt lat="44.80174" lon="1.68409">
        <ele>278.7</ele>
        <time>2014-11-02T14:51:54.259Z</time>
      </trkpt>
      <trkpt lat="44.80175" lon="1.68409">
        <ele>278.7</ele>
        <time>2014-11-02T14:51:55.267Z</time>
      </trkpt>
      <trkpt lat="44.80183" lon="1.68411">
        <ele>278.3</ele>
        <time>2014-11-02T14:52:08.381Z</time>
      </trkpt>
      <trkpt lat="44.80184" lon="1.68411">
        <ele>278.2</ele>
        <time>2014-11-02T14:52:09.259Z</time>
      </trkpt>
      <trkpt lat="44.80193" lon="1.6841">
        <ele>277.8</ele>
        <time>2014-11-02T14:52:30.253Z</time>
      </trkpt>
      <trkpt lat="44.80193" lon="1.6841">
        <ele>277.7</ele>
        <time>2014-11-02T14:52:31.262Z</time>
      </trkpt>
      <trkpt lat="44.80201" lon="1.68412">
        <ele>277.3</ele>
        <time>2014-11-02T14:52:40.264Z</time>
      </trkpt>
      <trkpt lat="44.80202" lon="1.68413">
        <ele>277.3</ele>
        <time>2014-11-02T14:52:41.261Z</time>
      </trkpt>
      <trkpt lat="44.8021" lon="1.68418">
        <ele>276.9</ele>
        <time>2014-11-02T14:52:48.256Z</time>
      </trkpt>
      <trkpt lat="44.80211" lon="1.68419">
        <ele>276.9</ele>
        <time>2014-11-02T14:52:49.261Z</time>
      </trkpt>
      <trkpt lat="44.80218" lon="1.68425">
        <ele>276.7</ele>
        <time>2014-11-02T14:52:55.397Z</time>
      </trkpt>
      <trkpt lat="44.80219" lon="1.68426">
        <ele>276.7</ele>
        <time>2014-11-02T14:52:56.265Z</time>
      </trkpt>
      <trkpt lat="44.80227" lon="1.68431">
        <ele>276.3</ele>
        <time>2014-11-02T14:53:09.265Z</time>
      </trkpt>
      <trkpt lat="44.80227" lon="1.68431">
        <ele>276.3</ele>
        <time>2014-11-02T14:53:10.261Z</time>
      </trkpt>
      <trkpt lat="44.80234" lon="1.68437">
        <ele>276</ele>
        <time>2014-11-02T14:53:17.265Z</time>
      </trkpt>
      <trkpt lat="44.80235" lon="1.68437">
        <ele>275.9</ele>
        <time>2014-11-02T14:53:18.264Z</time>
      </trkpt>
      <trkpt lat="44.80243" lon="1.68442">
        <ele>275.5</ele>
        <time>2014-11-02T14:53:27.26Z</time>
      </trkpt>
      <trkpt lat="44.80243" lon="1.68442">
        <ele>275.4</ele>
        <time>2014-11-02T14:53:28.265Z</time>
      </trkpt>
      <trkpt lat="44.80252" lon="1.68443">
        <ele>275</ele>
        <time>2014-11-02T14:53:37.263Z</time>
      </trkpt>
      <trkpt lat="44.80253" lon="1.68443">
        <ele>275</ele>
        <time>2014-11-02T14:53:38.261Z</time>
      </trkpt>
      <trkpt lat="44.80262" lon="1.68443">
        <ele>275.1</ele>
        <time>2014-11-02T14:53:48.265Z</time>
      </trkpt>
      <trkpt lat="44.80262" lon="1.68443">
        <ele>275.1</ele>
        <time>2014-11-02T14:53:49.266Z</time>
      </trkpt>
      <trkpt lat="44.80271" lon="1.68445">
        <ele>275.2</ele>
        <time>2014-11-02T14:54:09.261Z</time>
      </trkpt>
      <trkpt lat="44.80271" lon="1.68445">
        <ele>275.2</ele>
        <time>2014-11-02T14:54:10.184Z</time>
      </trkpt>
      <trkpt lat="44.8028" lon="1.68448">
        <ele>275.3</ele>
        <time>2014-11-02T14:55:46.185Z</time>
      </trkpt>
      <trkpt lat="44.8028" lon="1.68448">
        <ele>275.3</ele>
        <time>2014-11-02T14:55:47.174Z</time>
      </trkpt>
      <trkpt lat="44.80288" lon="1.68452">
        <ele>275.4</ele>
        <time>2014-11-02T14:57:03.162Z</time>
      </trkpt>
      <trkpt lat="44.80288" lon="1.68452">
        <ele>275.4</ele>
        <time>2014-11-02T14:57:04.164Z</time>
      </trkpt>
      <trkpt lat="44.80296" lon="1.68458">
        <ele>275.5</ele>
        <time>2014-11-02T14:57:13.182Z</time>
      </trkpt>
      <trkpt lat="44.80297" lon="1.68458">
        <ele>275.6</ele>
        <time>2014-11-02T14:57:14.162Z</time>
      </trkpt>
      <trkpt lat="44.80304" lon="1.68465">
        <ele>275.8</ele>
        <time>2014-11-02T14:57:23.171Z</time>
      </trkpt>
      <trkpt lat="44.80306" lon="1.68466">
        <ele>275.8</ele>
        <time>2014-11-02T14:57:24.161Z</time>
      </trkpt>
      <trkpt lat="44.80313" lon="1.6847">
        <ele>276</ele>
        <time>2014-11-02T14:57:32.173Z</time>
      </trkpt>
      <trkpt lat="44.80314" lon="1.6847">
        <ele>276</ele>
        <time>2014-11-02T14:57:33.172Z</time>
      </trkpt>
      <trkpt lat="44.80322" lon="1.68472">
        <ele>276.1</ele>
        <time>2014-11-02T14:57:39.262Z</time>
      </trkpt>
      <trkpt lat="44.80324" lon="1.68471">
        <ele>276.1</ele>
        <time>2014-11-02T14:57:40.26Z</time>
      </trkpt>
      <trkpt lat="44.80331" lon="1.68465">
        <ele>276.1</ele>
        <time>2014-11-02T14:57:47.262Z</time>
      </trkpt>
      <trkpt lat="44.80332" lon="1.68464">
        <ele>276.1</ele>
        <time>2014-11-02T14:57:48.262Z</time>
      </trkpt>
      <trkpt lat="44.80339" lon="1.68457">
        <ele>275.9</ele>
        <time>2014-11-02T14:57:55.4Z</time>
      </trkpt>
      <trkpt lat="44.8034" lon="1.68457">
        <ele>275.9</ele>
        <time>2014-11-02T14:57:56.264Z</time>
      </trkpt>
      <trkpt lat="44.80347" lon="1.68451">
        <ele>275.7</ele>
        <time>2014-11-02T14:58:03.281Z</time>
      </trkpt>
      <trkpt lat="44.80349" lon="1.6845">
        <ele>275.6</ele>
        <time>2014-11-02T14:58:04.393Z</time>
      </trkpt>
      <trkpt lat="44.80356" lon="1.68443">
        <ele>275.4</ele>
        <time>2014-11-02T14:58:11.264Z</time>
      </trkpt>
      <trkpt lat="44.80356" lon="1.68442">
        <ele>275.3</ele>
        <time>2014-11-02T14:58:12.266Z</time>
      </trkpt>
      <trkpt lat="44.80363" lon="1.68444">
        <ele>275.3</ele>
        <time>2014-11-02T14:58:31.261Z</time>
      </trkpt>
      <trkpt lat="44.80367" lon="1.68446">
        <ele>275.3</ele>
        <time>2014-11-02T14:58:32.207Z</time>
      </trkpt>
      <trkpt lat="44.80375" lon="1.6845">
        <ele>275.3</ele>
        <time>2014-11-02T14:58:37.38Z</time>
      </trkpt>
      <trkpt lat="44.80376" lon="1.6845">
        <ele>275.3</ele>
        <time>2014-11-02T14:58:38.262Z</time>
      </trkpt>
      <trkpt lat="44.80382" lon="1.68456">
        <ele>275.4</ele>
        <time>2014-11-02T14:58:53.391Z</time>
      </trkpt>
      <trkpt lat="44.80384" lon="1.68458">
        <ele>275.4</ele>
        <time>2014-11-02T14:58:54.289Z</time>
      </trkpt>
      <trkpt lat="44.80392" lon="1.68463">
        <ele>275.4</ele>
        <time>2014-11-02T14:59:02.262Z</time>
      </trkpt>
      <trkpt lat="44.80393" lon="1.68463">
        <ele>275.4</ele>
        <time>2014-11-02T14:59:03.261Z</time>
      </trkpt>
      <trkpt lat="44.804" lon="1.68467">
        <ele>275.4</ele>
        <time>2014-11-02T14:59:08.262Z</time>
      </trkpt>
      <trkpt lat="44.80402" lon="1.68467">
        <ele>275.4</ele>
        <time>2014-11-02T14:59:09.374Z</time>
      </trkpt>
      <trkpt lat="44.80411" lon="1.68468">
        <ele>275.3</ele>
        <time>2014-11-02T14:59:16.261Z</time>
      </trkpt>
      <trkpt lat="44.80411" lon="1.68468">
        <ele>275.3</ele>
        <time>2014-11-02T14:59:17.263Z</time>
      </trkpt>
      <trkpt lat="44.8042" lon="1.68469">
        <ele>275.3</ele>
        <time>2014-11-02T14:59:38.335Z</time>
      </trkpt>
      <trkpt lat="44.80422" lon="1.6847">
        <ele>275.4</ele>
        <time>2014-11-02T14:59:39.265Z</time>
      </trkpt>
      <trkpt lat="44.80429" lon="1.68473">
        <ele>275.7</ele>
        <time>2014-11-02T14:59:45.259Z</time>
      </trkpt>
      <trkpt lat="44.80431" lon="1.68473">
        <ele>275.8</ele>
        <time>2014-11-02T14:59:46.321Z</time>
      </trkpt>
      <trkpt lat="44.80439" lon="1.68477">
        <ele>276.1</ele>
        <time>2014-11-02T14:59:55.262Z</time>
      </trkpt>
      <trkpt lat="44.80441" lon="1.68477">
        <ele>276.2</ele>
        <time>2014-11-02T14:59:56.262Z</time>
      </trkpt>
      <trkpt lat="44.80448" lon="1.68481">
        <ele>276.5</ele>
        <time>2014-11-02T15:00:04.264Z</time>
      </trkpt>
      <trkpt lat="44.80449" lon="1.68481">
        <ele>276.5</ele>
        <time>2014-11-02T15:00:05.264Z</time>
      </trkpt>
      <trkpt lat="44.80457" lon="1.68484">
        <ele>276.9</ele>
        <time>2014-11-02T15:00:11.263Z</time>
      </trkpt>
      <trkpt lat="44.80459" lon="1.68483">
        <ele>276.9</ele>
        <time>2014-11-02T15:00:12.263Z</time>
      </trkpt>
      <trkpt lat="44.80467" lon="1.68488">
        <ele>277.3</ele>
        <time>2014-11-02T15:00:21.262Z</time>
      </trkpt>
      <trkpt lat="44.80468" lon="1.68488">
        <ele>277.4</ele>
        <time>2014-11-02T15:00:22.398Z</time>
      </trkpt>
      <trkpt lat="44.80476" lon="1.68494">
        <ele>277.9</ele>
        <time>2014-11-02T15:00:30.399Z</time>
      </trkpt>
      <trkpt lat="44.80476" lon="1.68494">
        <ele>277.9</ele>
        <time>2014-11-02T15:00:31.263Z</time>
      </trkpt>
      <trkpt lat="44.80484" lon="1.68499">
        <ele>278.4</ele>
        <time>2014-11-02T15:00:40.26Z</time>
      </trkpt>
      <trkpt lat="44.80485" lon="1.685">
        <ele>278.4</ele>
        <time>2014-11-02T15:00:41.265Z</time>
      </trkpt>
      <trkpt lat="44.80493" lon="1.68501">
        <ele>278.8</ele>
        <time>2014-11-02T15:00:48.264Z</time>
      </trkpt>
      <trkpt lat="44.80495" lon="1.68501">
        <ele>278.8</ele>
        <time>2014-11-02T15:00:49.266Z</time>
      </trkpt>
      <trkpt lat="44.80504" lon="1.68502">
        <ele>278.9</ele>
        <time>2014-11-02T15:00:57.266Z</time>
      </trkpt>
      <trkpt lat="44.80505" lon="1.68502">
        <ele>278.9</ele>
        <time>2014-11-02T15:00:58.264Z</time>
      </trkpt>
      <trkpt lat="44.80511" lon="1.68511">
        <ele>278.9</ele>
        <time>2014-11-02T15:01:07.265Z</time>
      </trkpt>
      <trkpt lat="44.80511" lon="1.68512">
        <ele>278.9</ele>
        <time>2014-11-02T15:01:08.271Z</time>
      </trkpt>
      <trkpt lat="44.80512" lon="1.68524">
        <ele>279.1</ele>
        <time>2014-11-02T15:01:16.264Z</time>
      </trkpt>
      <trkpt lat="44.80513" lon="1.68526">
        <ele>279.2</ele>
        <time>2014-11-02T15:01:17.267Z</time>
      </trkpt>
      <trkpt lat="44.80513" lon="1.68538">
        <ele>279.5</ele>
        <time>2014-11-02T15:01:24.264Z</time>
      </trkpt>
      <trkpt lat="44.80513" lon="1.6854">
        <ele>279.5</ele>
        <time>2014-11-02T15:01:25.267Z</time>
      </trkpt>
      <trkpt lat="44.80512" lon="1.68552">
        <ele>279.8</ele>
        <time>2014-11-02T15:01:34.395Z</time>
      </trkpt>
      <trkpt lat="44.80512" lon="1.68553">
        <ele>279.8</ele>
        <time>2014-11-02T15:01:35.271Z</time>
      </trkpt>
      <trkpt lat="44.80509" lon="1.68564">
        <ele>280</ele>
        <time>2014-11-02T15:01:44.265Z</time>
      </trkpt>
      <trkpt lat="44.80509" lon="1.68566">
        <ele>280.1</ele>
        <time>2014-11-02T15:01:45.262Z</time>
      </trkpt>
      <trkpt lat="44.80509" lon="1.68579">
        <ele>280.3</ele>
        <time>2014-11-02T15:01:52.264Z</time>
      </trkpt>
      <trkpt lat="44.80509" lon="1.68581">
        <ele>280.4</ele>
        <time>2014-11-02T15:01:53.261Z</time>
      </trkpt>
      <trkpt lat="44.80511" lon="1.68591">
        <ele>280.8</ele>
        <time>2014-11-02T15:01:59.161Z</time>
      </trkpt>
      <trkpt lat="44.80511" lon="1.68594">
        <ele>281</ele>
        <time>2014-11-02T15:02:00.316Z</time>
      </trkpt>
      <trkpt lat="44.80509" lon="1.68606">
        <ele>281.4</ele>
        <time>2014-11-02T15:02:08.263Z</time>
      </trkpt>
      <trkpt lat="44.80509" lon="1.68607">
        <ele>281.4</ele>
        <time>2014-11-02T15:02:09.263Z</time>
      </trkpt>
      <trkpt lat="44.80507" lon="1.68618">
        <ele>281.7</ele>
        <time>2014-11-02T15:02:17.265Z</time>
      </trkpt>
      <trkpt lat="44.80507" lon="1.68619">
        <ele>281.8</ele>
        <time>2014-11-02T15:02:18.386Z</time>
      </trkpt>
      <trkpt lat="44.80507" lon="1.68632">
        <ele>282.3</ele>
        <time>2014-11-02T15:02:27.265Z</time>
      </trkpt>
      <trkpt lat="44.80507" lon="1.68634">
        <ele>282.4</ele>
        <time>2014-11-02T15:02:28.265Z</time>
      </trkpt>
      <trkpt lat="44.80508" lon="1.68645">
        <ele>282.9</ele>
        <time>2014-11-02T15:02:34.342Z</time>
      </trkpt>
      <trkpt lat="44.80508" lon="1.68647">
        <ele>282.9</ele>
        <time>2014-11-02T15:02:35.262Z</time>
      </trkpt>
      <trkpt lat="44.80507" lon="1.68659">
        <ele>283.3</ele>
        <time>2014-11-02T15:02:42.395Z</time>
      </trkpt>
      <trkpt lat="44.80507" lon="1.6866">
        <ele>283.4</ele>
        <time>2014-11-02T15:02:43.269Z</time>
      </trkpt>
      <trkpt lat="44.80506" lon="1.6867">
        <ele>283.6</ele>
        <time>2014-11-02T15:02:51.262Z</time>
      </trkpt>
      <trkpt lat="44.80505" lon="1.68673">
        <ele>283.7</ele>
        <time>2014-11-02T15:02:52.262Z</time>
      </trkpt>
      <trkpt lat="44.80505" lon="1.68685">
        <ele>283.9</ele>
        <time>2014-11-02T15:03:01.263Z</time>
      </trkpt>
      <trkpt lat="44.80505" lon="1.68687">
        <ele>283.9</ele>
        <time>2014-11-02T15:03:02.261Z</time>
      </trkpt>
      <trkpt lat="44.80503" lon="1.68698">
        <ele>284</ele>
        <time>2014-11-02T15:03:11.542Z</time>
      </trkpt>
      <trkpt lat="44.80502" lon="1.68699">
        <ele>284</ele>
        <time>2014-11-02T15:03:12.21Z</time>
      </trkpt>
      <trkpt lat="44.805" lon="1.6871">
        <ele>284</ele>
        <time>2014-11-02T15:03:19.385Z</time>
      </trkpt>
      <trkpt lat="44.805" lon="1.68712">
        <ele>284.1</ele>
        <time>2014-11-02T15:03:20.263Z</time>
      </trkpt>
      <trkpt lat="44.80499" lon="1.68724">
        <ele>284.3</ele>
        <time>2014-11-02T15:03:28.262Z</time>
      </trkpt>
      <trkpt lat="44.80498" lon="1.68725">
        <ele>284.3</ele>
        <time>2014-11-02T15:03:29.262Z</time>
      </trkpt>
      <trkpt lat="44.80496" lon="1.68737">
        <ele>284.6</ele>
        <time>2014-11-02T15:03:36.262Z</time>
      </trkpt>
      <trkpt lat="44.80497" lon="1.68738">
        <ele>284.6</ele>
        <time>2014-11-02T15:03:37.262Z</time>
      </trkpt>
      <trkpt lat="44.80496" lon="1.68751">
        <ele>284.8</ele>
        <time>2014-11-02T15:03:47.402Z</time>
      </trkpt>
      <trkpt lat="44.80496" lon="1.68752">
        <ele>284.8</ele>
        <time>2014-11-02T15:03:48.264Z</time>
      </trkpt>
      <trkpt lat="44.80492" lon="1.68763">
        <ele>284.4</ele>
        <time>2014-11-02T15:03:59.187Z</time>
      </trkpt>
      <trkpt lat="44.80492" lon="1.68764">
        <ele>284.4</ele>
        <time>2014-11-02T15:04:00.355Z</time>
      </trkpt>
      <trkpt lat="44.8049" lon="1.68773">
        <ele>284.1</ele>
        <time>2014-11-02T15:04:06.256Z</time>
      </trkpt>
      <trkpt lat="44.80489" lon="1.68777">
        <ele>284</ele>
        <time>2014-11-02T15:04:07.265Z</time>
      </trkpt>
      <trkpt lat="44.80487" lon="1.68788">
        <ele>283.6</ele>
        <time>2014-11-02T15:04:15.263Z</time>
      </trkpt>
      <trkpt lat="44.80487" lon="1.6879">
        <ele>283.6</ele>
        <time>2014-11-02T15:04:16.272Z</time>
      </trkpt>
      <trkpt lat="44.80485" lon="1.68801">
        <ele>283.2</ele>
        <time>2014-11-02T15:04:22.261Z</time>
      </trkpt>
      <trkpt lat="44.80485" lon="1.68803">
        <ele>283.2</ele>
        <time>2014-11-02T15:04:23.244Z</time>
      </trkpt>
      <trkpt lat="44.80481" lon="1.68814">
        <ele>282.8</ele>
        <time>2014-11-02T15:04:29.262Z</time>
      </trkpt>
      <trkpt lat="44.80481" lon="1.68815">
        <ele>282.7</ele>
        <time>2014-11-02T15:04:30.435Z</time>
      </trkpt>
      <trkpt lat="44.80478" lon="1.68827">
        <ele>282.4</ele>
        <time>2014-11-02T15:04:38.384Z</time>
      </trkpt>
      <trkpt lat="44.80478" lon="1.68829">
        <ele>282.3</ele>
        <time>2014-11-02T15:04:39.262Z</time>
      </trkpt>
      <trkpt lat="44.80476" lon="1.68841">
        <ele>282</ele>
        <time>2014-11-02T15:04:46.457Z</time>
      </trkpt>
      <trkpt lat="44.80476" lon="1.68842">
        <ele>282</ele>
        <time>2014-11-02T15:04:47.171Z</time>
      </trkpt>
      <trkpt lat="44.80474" lon="1.68854">
        <ele>281.7</ele>
        <time>2014-11-02T15:04:54.263Z</time>
      </trkpt>
      <trkpt lat="44.80474" lon="1.68854">
        <ele>281.7</ele>
        <time>2014-11-02T15:04:55.267Z</time>
      </trkpt>
      <trkpt lat="44.80473" lon="1.68866">
        <ele>281.4</ele>
        <time>2014-11-02T15:05:01.262Z</time>
      </trkpt>
      <trkpt lat="44.80473" lon="1.68868">
        <ele>281.3</ele>
        <time>2014-11-02T15:05:02.264Z</time>
      </trkpt>
      <trkpt lat="44.80473" lon="1.68879">
        <ele>281.1</ele>
        <time>2014-11-02T15:05:09.263Z</time>
      </trkpt>
      <trkpt lat="44.80473" lon="1.68881">
        <ele>281.1</ele>
        <time>2014-11-02T15:05:10.262Z</time>
      </trkpt>
      <trkpt lat="44.80473" lon="1.68893">
        <ele>280.8</ele>
        <time>2014-11-02T15:05:21.267Z</time>
      </trkpt>
      <trkpt lat="44.80473" lon="1.68895">
        <ele>280.8</ele>
        <time>2014-11-02T15:05:22.404Z</time>
      </trkpt>
      <trkpt lat="44.80471" lon="1.68907">
        <ele>280.5</ele>
        <time>2014-11-02T15:05:30.396Z</time>
      </trkpt>
      <trkpt lat="44.80471" lon="1.68908">
        <ele>280.4</ele>
        <time>2014-11-02T15:05:31.266Z</time>
      </trkpt>
      <trkpt lat="44.8047" lon="1.6892">
        <ele>280.3</ele>
        <time>2014-11-02T15:05:39.262Z</time>
      </trkpt>
      <trkpt lat="44.8047" lon="1.68922">
        <ele>280.3</ele>
        <time>2014-11-02T15:05:40.263Z</time>
      </trkpt>
      <trkpt lat="44.8047" lon="1.68934">
        <ele>280.4</ele>
        <time>2014-11-02T15:05:47.265Z</time>
      </trkpt>
      <trkpt lat="44.8047" lon="1.68935">
        <ele>280.4</ele>
        <time>2014-11-02T15:05:48.265Z</time>
      </trkpt>
      <trkpt lat="44.80469" lon="1.68947">
        <ele>280.5</ele>
        <time>2014-11-02T15:05:54.384Z</time>
      </trkpt>
      <trkpt lat="44.80468" lon="1.6895">
        <ele>280.5</ele>
        <time>2014-11-02T15:05:55.272Z</time>
      </trkpt>
      <trkpt lat="44.80467" lon="1.68961">
        <ele>280.6</ele>
        <time>2014-11-02T15:06:02.41Z</time>
      </trkpt>
      <trkpt lat="44.80467" lon="1.68963">
        <ele>280.6</ele>
        <time>2014-11-02T15:06:03.264Z</time>
      </trkpt>
      <trkpt lat="44.80468" lon="1.68975">
        <ele>280.8</ele>
        <time>2014-11-02T15:06:09.262Z</time>
      </trkpt>
      <trkpt lat="44.80468" lon="1.68976">
        <ele>280.8</ele>
        <time>2014-11-02T15:06:10.399Z</time>
      </trkpt>
      <trkpt lat="44.80468" lon="1.68987">
        <ele>280.9</ele>
        <time>2014-11-02T15:06:17.263Z</time>
      </trkpt>
      <trkpt lat="44.80468" lon="1.68989">
        <ele>280.9</ele>
        <time>2014-11-02T15:06:18.396Z</time>
      </trkpt>
      <trkpt lat="44.80466" lon="1.69">
        <ele>280.9</ele>
        <time>2014-11-02T15:06:25.268Z</time>
      </trkpt>
      <trkpt lat="44.80465" lon="1.69001">
        <ele>281</ele>
        <time>2014-11-02T15:06:26.27Z</time>
      </trkpt>
      <trkpt lat="44.80465" lon="1.69012">
        <ele>281.4</ele>
        <time>2014-11-02T15:06:33.266Z</time>
      </trkpt>
      <trkpt lat="44.80465" lon="1.69014">
        <ele>281.4</ele>
        <time>2014-11-02T15:06:34.266Z</time>
      </trkpt>
      <trkpt lat="44.80463" lon="1.69025">
        <ele>281.8</ele>
        <time>2014-11-02T15:06:40.265Z</time>
      </trkpt>
      <trkpt lat="44.80463" lon="1.69027">
        <ele>281.9</ele>
        <time>2014-11-02T15:06:41.262Z</time>
      </trkpt>
      <trkpt lat="44.80463" lon="1.69038">
        <ele>282.3</ele>
        <time>2014-11-02T15:06:48.264Z</time>
      </trkpt>
      <trkpt lat="44.80462" lon="1.6904">
        <ele>282.4</ele>
        <time>2014-11-02T15:06:49.267Z</time>
      </trkpt>
      <trkpt lat="44.8046" lon="1.6905">
        <ele>282.7</ele>
        <time>2014-11-02T15:06:56.265Z</time>
      </trkpt>
      <trkpt lat="44.8046" lon="1.69052">
        <ele>282.8</ele>
        <time>2014-11-02T15:06:57.263Z</time>
      </trkpt>
      <trkpt lat="44.80457" lon="1.69064">
        <ele>283.1</ele>
        <time>2014-11-02T15:07:07.263Z</time>
      </trkpt>
      <trkpt lat="44.80457" lon="1.69065">
        <ele>283.1</ele>
        <time>2014-11-02T15:07:08.268Z</time>
      </trkpt>
      <trkpt lat="44.80454" lon="1.69075">
        <ele>283.4</ele>
        <time>2014-11-02T15:07:14.4Z</time>
      </trkpt>
      <trkpt lat="44.80453" lon="1.69078">
        <ele>283.5</ele>
        <time>2014-11-02T15:07:15.265Z</time>
      </trkpt>
      <trkpt lat="44.80452" lon="1.69089">
        <ele>283.8</ele>
        <time>2014-11-02T15:07:21.269Z</time>
      </trkpt>
      <trkpt lat="44.80452" lon="1.69091">
        <ele>283.8</ele>
        <time>2014-11-02T15:07:22.383Z</time>
      </trkpt>
      <trkpt lat="44.80451" lon="1.69103">
        <ele>284</ele>
        <time>2014-11-02T15:07:29.268Z</time>
      </trkpt>
      <trkpt lat="44.80451" lon="1.69104">
        <ele>284</ele>
        <time>2014-11-02T15:07:30.162Z</time>
      </trkpt>
      <trkpt lat="44.80449" lon="1.69117">
        <ele>284.1</ele>
        <time>2014-11-02T15:07:38.266Z</time>
      </trkpt>
      <trkpt lat="44.80448" lon="1.69118">
        <ele>284.1</ele>
        <time>2014-11-02T15:07:39.262Z</time>
      </trkpt>
      <trkpt lat="44.80447" lon="1.69128">
        <ele>284.2</ele>
        <time>2014-11-02T15:07:45.266Z</time>
      </trkpt>
      <trkpt lat="44.80448" lon="1.69131">
        <ele>284.3</ele>
        <time>2014-11-02T15:07:46.267Z</time>
      </trkpt>
      <trkpt lat="44.80448" lon="1.69143">
        <ele>284.5</ele>
        <time>2014-11-02T15:07:52.261Z</time>
      </trkpt>
      <trkpt lat="44.80448" lon="1.69144">
        <ele>284.5</ele>
        <time>2014-11-02T15:07:53.424Z</time>
      </trkpt>
      <trkpt lat="44.80451" lon="1.69156">
        <ele>284.9</ele>
        <time>2014-11-02T15:08:00.353Z</time>
      </trkpt>
      <trkpt lat="44.80452" lon="1.69158">
        <ele>284.9</ele>
        <time>2014-11-02T15:08:01.265Z</time>
      </trkpt>
      <trkpt lat="44.80452" lon="1.6917">
        <ele>285.2</ele>
        <time>2014-11-02T15:08:32.292Z</time>
      </trkpt>
      <trkpt lat="44.80453" lon="1.69171">
        <ele>285.3</ele>
        <time>2014-11-02T15:08:33.306Z</time>
      </trkpt>
      <trkpt lat="44.80456" lon="1.69182">
        <ele>285.7</ele>
        <time>2014-11-02T15:08:40.268Z</time>
      </trkpt>
      <trkpt lat="44.80457" lon="1.69184">
        <ele>285.8</ele>
        <time>2014-11-02T15:08:41.363Z</time>
      </trkpt>
      <trkpt lat="44.80461" lon="1.69194">
        <ele>286.4</ele>
        <time>2014-11-02T15:08:49.427Z</time>
      </trkpt>
      <trkpt lat="44.80462" lon="1.69196">
        <ele>286.5</ele>
        <time>2014-11-02T15:08:50.211Z</time>
      </trkpt>
      <trkpt lat="44.80465" lon="1.69207">
        <ele>287</ele>
        <time>2014-11-02T15:08:56.266Z</time>
      </trkpt>
      <trkpt lat="44.80465" lon="1.69209">
        <ele>287.1</ele>
        <time>2014-11-02T15:08:57.264Z</time>
      </trkpt>
      <trkpt lat="44.80468" lon="1.6922">
        <ele>287.6</ele>
        <time>2014-11-02T15:09:04.272Z</time>
      </trkpt>
      <trkpt lat="44.80469" lon="1.69223">
        <ele>287.8</ele>
        <time>2014-11-02T15:09:05.34Z</time>
      </trkpt>
      <trkpt lat="44.80471" lon="1.69234">
        <ele>288.4</ele>
        <time>2014-11-02T15:09:14.262Z</time>
      </trkpt>
      <trkpt lat="44.80471" lon="1.69236">
        <ele>288.5</ele>
        <time>2014-11-02T15:09:15.265Z</time>
      </trkpt>
      <trkpt lat="44.80475" lon="1.69247">
        <ele>289.2</ele>
        <time>2014-11-02T15:09:21.428Z</time>
      </trkpt>
      <trkpt lat="44.80475" lon="1.69249">
        <ele>289.3</ele>
        <time>2014-11-02T15:09:22.264Z</time>
      </trkpt>
      <trkpt lat="44.80478" lon="1.6926">
        <ele>289.3</ele>
        <time>2014-11-02T15:09:31.267Z</time>
      </trkpt>
      <trkpt lat="44.80478" lon="1.69263">
        <ele>289.3</ele>
        <time>2014-11-02T15:09:32.262Z</time>
      </trkpt>
      <trkpt lat="44.8048" lon="1.69275">
        <ele>289.2</ele>
        <time>2014-11-02T15:09:40.264Z</time>
      </trkpt>
      <trkpt lat="44.8048" lon="1.69276">
        <ele>289.2</ele>
        <time>2014-11-02T15:09:41.264Z</time>
      </trkpt>
      <trkpt lat="44.80481" lon="1.69288">
        <ele>288.9</ele>
        <time>2014-11-02T15:09:49.267Z</time>
      </trkpt>
      <trkpt lat="44.80481" lon="1.69289">
        <ele>288.8</ele>
        <time>2014-11-02T15:09:50.281Z</time>
      </trkpt>
      <trkpt lat="44.80484" lon="1.69301">
        <ele>288.9</ele>
        <time>2014-11-02T15:10:12.249Z</time>
      </trkpt>
      <trkpt lat="44.80484" lon="1.69301">
        <ele>288.9</ele>
        <time>2014-11-02T15:10:13.251Z</time>
      </trkpt>
      <trkpt lat="44.80487" lon="1.69312">
        <ele>288.9</ele>
        <time>2014-11-02T15:10:18.263Z</time>
      </trkpt>
      <trkpt lat="44.80487" lon="1.69315">
        <ele>288.9</ele>
        <time>2014-11-02T15:10:19.379Z</time>
      </trkpt>
      <trkpt lat="44.80489" lon="1.69325">
        <ele>288.9</ele>
        <time>2014-11-02T15:10:28.343Z</time>
      </trkpt>
      <trkpt lat="44.8049" lon="1.69327">
        <ele>288.9</ele>
        <time>2014-11-02T15:10:29.267Z</time>
      </trkpt>
      <trkpt lat="44.80494" lon="1.69338">
        <ele>289.1</ele>
        <time>2014-11-02T15:10:36.268Z</time>
      </trkpt>
      <trkpt lat="44.80495" lon="1.69339">
        <ele>289.1</ele>
        <time>2014-11-02T15:10:37.32Z</time>
      </trkpt>
      <trkpt lat="44.805" lon="1.69348">
        <ele>289.1</ele>
        <time>2014-11-02T15:10:45.262Z</time>
      </trkpt>
      <trkpt lat="44.80501" lon="1.69349">
        <ele>289.1</ele>
        <time>2014-11-02T15:10:46.266Z</time>
      </trkpt>
      <trkpt lat="44.80503" lon="1.6936">
        <ele>288.5</ele>
        <time>2014-11-02T15:10:54.269Z</time>
      </trkpt>
      <trkpt lat="44.80503" lon="1.69363">
        <ele>288.5</ele>
        <time>2014-11-02T15:10:55.267Z</time>
      </trkpt>
      <trkpt lat="44.80506" lon="1.69373">
        <ele>288</ele>
        <time>2014-11-02T15:11:02.267Z</time>
      </trkpt>
      <trkpt lat="44.80506" lon="1.69375">
        <ele>287.9</ele>
        <time>2014-11-02T15:11:03.264Z</time>
      </trkpt>
      <trkpt lat="44.80511" lon="1.69385">
        <ele>287.6</ele>
        <time>2014-11-02T15:11:12.379Z</time>
      </trkpt>
      <trkpt lat="44.80512" lon="1.69387">
        <ele>287.6</ele>
        <time>2014-11-02T15:11:13.263Z</time>
      </trkpt>
      <trkpt lat="44.80517" lon="1.69396">
        <ele>287.4</ele>
        <time>2014-11-02T15:11:23.269Z</time>
      </trkpt>
      <trkpt lat="44.80517" lon="1.69397">
        <ele>287.4</ele>
        <time>2014-11-02T15:11:24.4Z</time>
      </trkpt>
      <trkpt lat="44.80521" lon="1.69408">
        <ele>287</ele>
        <time>2014-11-02T15:11:31.265Z</time>
      </trkpt>
      <trkpt lat="44.80521" lon="1.6941">
        <ele>286.9</ele>
        <time>2014-11-02T15:11:32.367Z</time>
      </trkpt>
      <trkpt lat="44.80522" lon="1.69423">
        <ele>286.5</ele>
        <time>2014-11-02T15:11:40.438Z</time>
      </trkpt>
      <trkpt lat="44.80523" lon="1.69424">
        <ele>286.5</ele>
        <time>2014-11-02T15:11:41.264Z</time>
      </trkpt>
      <trkpt lat="44.80527" lon="1.69435">
        <ele>286.7</ele>
        <time>2014-11-02T15:12:04.21Z</time>
      </trkpt>
      <trkpt lat="44.80527" lon="1.69435">
        <ele>286.7</ele>
        <time>2014-11-02T15:12:05.209Z</time>
      </trkpt>
      <trkpt lat="44.80528" lon="1.69447">
        <ele>286.7</ele>
        <time>2014-11-02T15:12:20.268Z</time>
      </trkpt>
      <trkpt lat="44.8053" lon="1.69451">
        <ele>286.7</ele>
        <time>2014-11-02T15:12:21.266Z</time>
      </trkpt>
      <trkpt lat="44.80528" lon="1.69462">
        <ele>286.5</ele>
        <time>2014-11-02T15:12:30.265Z</time>
      </trkpt>
      <trkpt lat="44.80528" lon="1.69463">
        <ele>286.5</ele>
        <time>2014-11-02T15:12:31.328Z</time>
      </trkpt>
      <trkpt lat="44.80529" lon="1.69476">
        <ele>286.4</ele>
        <time>2014-11-02T15:12:42.265Z</time>
      </trkpt>
      <trkpt lat="44.80529" lon="1.69476">
        <ele>286.3</ele>
        <time>2014-11-02T15:12:43.267Z</time>
      </trkpt>
      <trkpt lat="44.80521" lon="1.69479">
        <ele>285.9</ele>
        <time>2014-11-02T15:12:58.246Z</time>
      </trkpt>
      <trkpt lat="44.80519" lon="1.69481">
        <ele>285.8</ele>
        <time>2014-11-02T15:12:59.278Z</time>
      </trkpt>
      <trkpt lat="44.80517" lon="1.69488">
        <ele>285.7</ele>
        <time>2014-11-02T15:13:20.062Z</time>
      </trkpt>
    </trkseg>
  </trk>
</gpx>